<?xml version="1.0" encoding="UTF-8" standalone="no" ?>
<gpx xmlns="http://www.topografix.com/GPX/1/1" xmlns:xsi="http://www.w3.org/2001/XMLSchema-instance" xsi:schemaLocation="http://www.topografix.com/GPX/1/1 http://www.topografix.com/GPX/1/1/gpx.xsd" version="1.1" creator="VisuGPX - https://www.visugpx.com">
  <metadata>
    <name>2026 05 28 - CONQUES TOULOUSE - E10- Tracé Bleu association - MONTASTRUC - TOULOUSE </name>
  </metadata>
  <wpt lat="43.60912" lon="1.4384">
    <ele>141</ele>
    <name><![CDATA[La petite auberge]]></name>
    <desc><![CDATA[17 rue d'Embarthe]]></desc>
    <type><![CDATA[hotel]]></type>
  </wpt>
  <wpt lat="43.64677" lon="1.4935">
    <ele>138.6</ele>
    <name><![CDATA[sortie du GR]]></name>
    <type><![CDATA[alarm]]></type>
  </wpt>
  <wpt lat="43.65139" lon="1.51499">
    <ele>152</ele>
    <name><![CDATA[sortie GR]]></name>
    <type><![CDATA[alarm]]></type>
  </wpt>
  <wpt lat="43.68569" lon="1.58189">
    <ele>139.9</ele>
    <name><![CDATA[sortie GR]]></name>
    <type><![CDATA[alarm]]></type>
  </wpt>
  <wpt lat="43.68175" lon="1.58122">
    <ele>149</ele>
    <name><![CDATA[Les délices de Gragnague]]></name>
    <type><![CDATA[commerce]]></type>
  </wpt>
  <wpt lat="43.65035" lon="1.50757">
    <ele>150.5</ele>
    <name><![CDATA[Intermarché Super]]></name>
    <type><![CDATA[commerce]]></type>
  </wpt>
  <wpt lat="43.65739" lon="1.53149">
    <ele>160.6</ele>
    <type><![CDATA[picnic]]></type>
  </wpt>
  <wpt lat="43.71753" lon="1.59118">
    <ele>234</ele>
    <name><![CDATA[Le Petit Casino]]></name>
    <type><![CDATA[commerce]]></type>
  </wpt>
  <trk>
    <name><![CDATA[Montastruc-la-Conseillère à Toulouse - Tracé bleu]]></name>
    <extensions>
      <line xmlns="http://www.topografix.com/GPX/gpx_style/0/2">
        <color>0000FF</color>
        <opacity>1</opacity>
        <width>4</width>
        <dasharray>12</dasharray>
      </line>
    </extensions>
    <trkseg>
      <trkpt lat="43.71722" lon="1.59148">
        <ele>235</ele>
        <time>2026-03-26T12:05:09.000Z</time>
      </trkpt>
      <trkpt lat="43.71722" lon="1.59148">
        <ele>235</ele>
        <time>2026-03-26T12:05:09.000Z</time>
      </trkpt>
      <trkpt lat="43.71713" lon="1.59126">
        <ele>234.5</ele>
        <time>2026-03-26T12:05:30.000Z</time>
      </trkpt>
      <trkpt lat="43.71699" lon="1.59134">
        <ele>234.8</ele>
        <time>2026-03-26T12:05:47.000Z</time>
      </trkpt>
      <trkpt lat="43.71697" lon="1.59126">
        <ele>234.5</ele>
        <time>2026-03-26T12:05:54.000Z</time>
      </trkpt>
      <trkpt lat="43.71686" lon="1.59132">
        <ele>234.8</ele>
        <time>2026-03-26T12:06:07.000Z</time>
      </trkpt>
      <trkpt lat="43.7168" lon="1.59138">
        <ele>235</ele>
        <time>2026-03-26T12:06:16.000Z</time>
      </trkpt>
      <trkpt lat="43.71664" lon="1.59152">
        <ele>234.8</ele>
        <time>2026-03-26T12:06:37.000Z</time>
      </trkpt>
      <trkpt lat="43.71651" lon="1.59168">
        <ele>233.9</ele>
        <time>2026-03-26T12:06:57.000Z</time>
      </trkpt>
      <trkpt lat="43.71646" lon="1.59161">
        <ele>233.5</ele>
        <time>2026-03-26T12:07:05.000Z</time>
      </trkpt>
      <trkpt lat="43.71632" lon="1.59152">
        <ele>231.9</ele>
        <time>2026-03-26T12:07:22.000Z</time>
      </trkpt>
      <trkpt lat="43.71627" lon="1.59117">
        <ele>230.1</ele>
        <time>2026-03-26T12:07:51.000Z</time>
      </trkpt>
      <trkpt lat="43.71627" lon="1.59107">
        <ele>229.8</ele>
        <time>2026-03-26T12:08:00.000Z</time>
      </trkpt>
      <trkpt lat="43.71628" lon="1.59097">
        <ele>229.7</ele>
        <time>2026-03-26T12:08:08.000Z</time>
      </trkpt>
      <trkpt lat="43.7163" lon="1.59064">
        <ele>229.3</ele>
        <time>2026-03-26T12:08:35.000Z</time>
      </trkpt>
      <trkpt lat="43.71632" lon="1.59058">
        <ele>229.3</ele>
        <time>2026-03-26T12:08:40.000Z</time>
      </trkpt>
      <trkpt lat="43.71634" lon="1.59053">
        <ele>229.5</ele>
        <time>2026-03-26T12:08:45.000Z</time>
      </trkpt>
      <trkpt lat="43.71639" lon="1.59048">
        <ele>230</ele>
        <time>2026-03-26T12:08:52.000Z</time>
      </trkpt>
      <trkpt lat="43.71645" lon="1.59042">
        <ele>230.4</ele>
        <time>2026-03-26T12:09:00.000Z</time>
      </trkpt>
      <trkpt lat="43.71652" lon="1.58976">
        <ele>231</ele>
        <time>2026-03-26T12:09:55.000Z</time>
      </trkpt>
      <trkpt lat="43.71653" lon="1.58969">
        <ele>230.9</ele>
        <time>2026-03-26T12:10:01.000Z</time>
      </trkpt>
      <trkpt lat="43.71654" lon="1.58961">
        <ele>230.8</ele>
        <time>2026-03-26T12:10:08.000Z</time>
      </trkpt>
      <trkpt lat="43.71659" lon="1.58945">
        <ele>230.7</ele>
        <time>2026-03-26T12:10:22.000Z</time>
      </trkpt>
      <trkpt lat="43.71662" lon="1.58938">
        <ele>231</ele>
        <time>2026-03-26T12:10:29.000Z</time>
      </trkpt>
      <trkpt lat="43.71641" lon="1.58922">
        <ele>229.4</ele>
        <time>2026-03-26T12:10:57.000Z</time>
      </trkpt>
      <trkpt lat="43.71657" lon="1.58882">
        <ele>228.6</ele>
        <time>2026-03-26T12:11:35.000Z</time>
      </trkpt>
      <trkpt lat="43.71679" lon="1.58826">
        <ele>225.2</ele>
        <time>2026-03-26T12:12:28.000Z</time>
      </trkpt>
      <trkpt lat="43.71673" lon="1.58822">
        <ele>224.8</ele>
        <time>2026-03-26T12:12:36.000Z</time>
      </trkpt>
      <trkpt lat="43.71655" lon="1.58818">
        <ele>223.8</ele>
        <time>2026-03-26T12:12:56.000Z</time>
      </trkpt>
      <trkpt lat="43.71645" lon="1.58818">
        <ele>223.3</ele>
        <time>2026-03-26T12:13:07.000Z</time>
      </trkpt>
      <trkpt lat="43.71633" lon="1.58822">
        <ele>222.5</ele>
        <time>2026-03-26T12:13:21.000Z</time>
      </trkpt>
      <trkpt lat="43.71624" lon="1.58828">
        <ele>222</ele>
        <time>2026-03-26T12:13:33.000Z</time>
      </trkpt>
      <trkpt lat="43.7161" lon="1.58841">
        <ele>221.1</ele>
        <time>2026-03-26T12:13:52.000Z</time>
      </trkpt>
      <trkpt lat="43.71598" lon="1.58861">
        <ele>219.6</ele>
        <time>2026-03-26T12:14:13.000Z</time>
      </trkpt>
      <trkpt lat="43.71588" lon="1.58884">
        <ele>219.4</ele>
        <time>2026-03-26T12:14:36.000Z</time>
      </trkpt>
      <trkpt lat="43.71587" lon="1.58887">
        <ele>219.5</ele>
        <time>2026-03-26T12:14:39.000Z</time>
      </trkpt>
      <trkpt lat="43.71584" lon="1.58901">
        <ele>219</ele>
        <time>2026-03-26T12:14:51.000Z</time>
      </trkpt>
      <trkpt lat="43.71577" lon="1.58927">
        <ele>216.9</ele>
        <time>2026-03-26T12:15:14.000Z</time>
      </trkpt>
      <trkpt lat="43.71568" lon="1.58977">
        <ele>215.7</ele>
        <time>2026-03-26T12:15:57.000Z</time>
      </trkpt>
      <trkpt lat="43.71553" lon="1.59065">
        <ele>214.2</ele>
        <time>2026-03-26T12:17:11.000Z</time>
      </trkpt>
      <trkpt lat="43.71545" lon="1.59101">
        <ele>212</ele>
        <time>2026-03-26T12:17:42.000Z</time>
      </trkpt>
      <trkpt lat="43.7153" lon="1.59098">
        <ele>209.3</ele>
        <time>2026-03-26T12:17:59.000Z</time>
      </trkpt>
      <trkpt lat="43.71522" lon="1.59097">
        <ele>208.3</ele>
        <time>2026-03-26T12:18:08.000Z</time>
      </trkpt>
      <trkpt lat="43.71484" lon="1.59089">
        <ele>203.5</ele>
        <time>2026-03-26T12:18:52.000Z</time>
      </trkpt>
      <trkpt lat="43.71481" lon="1.59087">
        <ele>203.2</ele>
        <time>2026-03-26T12:18:56.000Z</time>
      </trkpt>
      <trkpt lat="43.71479" lon="1.59085">
        <ele>203</ele>
        <time>2026-03-26T12:18:59.000Z</time>
      </trkpt>
      <trkpt lat="43.71469" lon="1.59087">
        <ele>201</ele>
        <time>2026-03-26T12:19:11.000Z</time>
      </trkpt>
      <trkpt lat="43.71448" lon="1.59082">
        <ele>197.6</ele>
        <time>2026-03-26T12:19:35.000Z</time>
      </trkpt>
      <trkpt lat="43.71427" lon="1.59071">
        <ele>194.2</ele>
        <time>2026-03-26T12:20:01.000Z</time>
      </trkpt>
      <trkpt lat="43.71403" lon="1.59056">
        <ele>190.5</ele>
        <time>2026-03-26T12:20:31.000Z</time>
      </trkpt>
      <trkpt lat="43.71379" lon="1.59039">
        <ele>186.2</ele>
        <time>2026-03-26T12:21:02.000Z</time>
      </trkpt>
      <trkpt lat="43.7137" lon="1.59033">
        <ele>184.6</ele>
        <time>2026-03-26T12:21:14.000Z</time>
      </trkpt>
      <trkpt lat="43.71362" lon="1.5902">
        <ele>182.8</ele>
        <time>2026-03-26T12:21:28.000Z</time>
      </trkpt>
      <trkpt lat="43.71355" lon="1.59001">
        <ele>181.1</ele>
        <time>2026-03-26T12:21:46.000Z</time>
      </trkpt>
      <trkpt lat="43.7135" lon="1.58968">
        <ele>178.8</ele>
        <time>2026-03-26T12:22:14.000Z</time>
      </trkpt>
      <trkpt lat="43.71344" lon="1.5894">
        <ele>176.2</ele>
        <time>2026-03-26T12:22:38.000Z</time>
      </trkpt>
      <trkpt lat="43.71335" lon="1.58912">
        <ele>172.1</ele>
        <time>2026-03-26T12:23:04.000Z</time>
      </trkpt>
      <trkpt lat="43.71324" lon="1.5889">
        <ele>169.4</ele>
        <time>2026-03-26T12:23:26.000Z</time>
      </trkpt>
      <trkpt lat="43.71313" lon="1.58872">
        <ele>166.7</ele>
        <time>2026-03-26T12:23:45.000Z</time>
      </trkpt>
      <trkpt lat="43.71297" lon="1.58846">
        <ele>164.5</ele>
        <time>2026-03-26T12:24:14.000Z</time>
      </trkpt>
      <trkpt lat="43.71285" lon="1.58827">
        <ele>163.5</ele>
        <time>2026-03-26T12:24:34.000Z</time>
      </trkpt>
      <trkpt lat="43.71281" lon="1.58825">
        <ele>163.3</ele>
        <time>2026-03-26T12:24:39.000Z</time>
      </trkpt>
      <trkpt lat="43.71276" lon="1.58823">
        <ele>163.3</ele>
        <time>2026-03-26T12:24:45.000Z</time>
      </trkpt>
      <trkpt lat="43.71267" lon="1.5882">
        <ele>165</ele>
        <time>2026-03-26T12:24:56.000Z</time>
      </trkpt>
      <trkpt lat="43.71262" lon="1.58821">
        <ele>165.8</ele>
        <time>2026-03-26T12:25:02.000Z</time>
      </trkpt>
      <trkpt lat="43.71257" lon="1.58823">
        <ele>166.8</ele>
        <time>2026-03-26T12:25:08.000Z</time>
      </trkpt>
      <trkpt lat="43.71251" lon="1.58824">
        <ele>167.8</ele>
        <time>2026-03-26T12:25:15.000Z</time>
      </trkpt>
      <trkpt lat="43.71242" lon="1.58827">
        <ele>168.4</ele>
        <time>2026-03-26T12:25:26.000Z</time>
      </trkpt>
      <trkpt lat="43.71236" lon="1.58827">
        <ele>168.6</ele>
        <time>2026-03-26T12:25:32.000Z</time>
      </trkpt>
      <trkpt lat="43.71233" lon="1.58825">
        <ele>168.8</ele>
        <time>2026-03-26T12:25:36.000Z</time>
      </trkpt>
      <trkpt lat="43.7123" lon="1.58824">
        <ele>168.9</ele>
        <time>2026-03-26T12:25:39.000Z</time>
      </trkpt>
      <trkpt lat="43.71223" lon="1.58821">
        <ele>169.4</ele>
        <time>2026-03-26T12:25:48.000Z</time>
      </trkpt>
      <trkpt lat="43.7122" lon="1.5882">
        <ele>169.7</ele>
        <time>2026-03-26T12:25:52.000Z</time>
      </trkpt>
      <trkpt lat="43.71209" lon="1.58819">
        <ele>171</ele>
        <time>2026-03-26T12:26:05.000Z</time>
      </trkpt>
      <trkpt lat="43.71198" lon="1.58817">
        <ele>172.2</ele>
        <time>2026-03-26T12:26:17.000Z</time>
      </trkpt>
      <trkpt lat="43.71183" lon="1.5882">
        <ele>173.9</ele>
        <time>2026-03-26T12:26:35.000Z</time>
      </trkpt>
      <trkpt lat="43.71177" lon="1.58819">
        <ele>174.8</ele>
        <time>2026-03-26T12:26:42.000Z</time>
      </trkpt>
      <trkpt lat="43.71158" lon="1.58817">
        <ele>177.2</ele>
        <time>2026-03-26T12:27:04.000Z</time>
      </trkpt>
      <trkpt lat="43.71127" lon="1.58806">
        <ele>180.9</ele>
        <time>2026-03-26T12:27:40.000Z</time>
      </trkpt>
      <trkpt lat="43.71063" lon="1.5878">
        <ele>188.1</ele>
        <time>2026-03-26T12:28:57.000Z</time>
      </trkpt>
      <trkpt lat="43.71045" lon="1.58775">
        <ele>190.1</ele>
        <time>2026-03-26T12:29:17.000Z</time>
      </trkpt>
      <trkpt lat="43.71024" lon="1.58769">
        <ele>192.5</ele>
        <time>2026-03-26T12:29:42.000Z</time>
      </trkpt>
      <trkpt lat="43.71001" lon="1.58762">
        <ele>195.5</ele>
        <time>2026-03-26T12:30:09.000Z</time>
      </trkpt>
      <trkpt lat="43.70998" lon="1.58762">
        <ele>195.7</ele>
        <time>2026-03-26T12:30:12.000Z</time>
      </trkpt>
      <trkpt lat="43.70988" lon="1.58763">
        <ele>196.4</ele>
        <time>2026-03-26T12:30:24.000Z</time>
      </trkpt>
      <trkpt lat="43.70981" lon="1.58768">
        <ele>196.7</ele>
        <time>2026-03-26T12:30:33.000Z</time>
      </trkpt>
      <trkpt lat="43.7097" lon="1.58763">
        <ele>197.8</ele>
        <time>2026-03-26T12:30:46.000Z</time>
      </trkpt>
      <trkpt lat="43.70942" lon="1.58756">
        <ele>200.9</ele>
        <time>2026-03-26T12:31:19.000Z</time>
      </trkpt>
      <trkpt lat="43.70922" lon="1.58755">
        <ele>201.8</ele>
        <time>2026-03-26T12:31:42.000Z</time>
      </trkpt>
      <trkpt lat="43.70907" lon="1.58756">
        <ele>202.4</ele>
        <time>2026-03-26T12:31:59.000Z</time>
      </trkpt>
      <trkpt lat="43.70905" lon="1.58757">
        <ele>202.5</ele>
        <time>2026-03-26T12:32:02.000Z</time>
      </trkpt>
      <trkpt lat="43.70894" lon="1.58762">
        <ele>203.1</ele>
        <time>2026-03-26T12:32:14.000Z</time>
      </trkpt>
      <trkpt lat="43.70881" lon="1.58769">
        <ele>203.6</ele>
        <time>2026-03-26T12:32:31.000Z</time>
      </trkpt>
      <trkpt lat="43.70871" lon="1.58776">
        <ele>203.9</ele>
        <time>2026-03-26T12:32:43.000Z</time>
      </trkpt>
      <trkpt lat="43.70865" lon="1.5878">
        <ele>204.1</ele>
        <time>2026-03-26T12:32:51.000Z</time>
      </trkpt>
      <trkpt lat="43.70815" lon="1.58823">
        <ele>206.5</ele>
        <time>2026-03-26T12:33:58.000Z</time>
      </trkpt>
      <trkpt lat="43.70799" lon="1.58833">
        <ele>207.2</ele>
        <time>2026-03-26T12:34:18.000Z</time>
      </trkpt>
      <trkpt lat="43.70774" lon="1.58841">
        <ele>208.4</ele>
        <time>2026-03-26T12:34:48.000Z</time>
      </trkpt>
      <trkpt lat="43.70728" lon="1.58853">
        <ele>210.5</ele>
        <time>2026-03-26T12:35:42.000Z</time>
      </trkpt>
      <trkpt lat="43.70715" lon="1.58854">
        <ele>210.8</ele>
        <time>2026-03-26T12:35:57.000Z</time>
      </trkpt>
      <trkpt lat="43.70688" lon="1.58852">
        <ele>211.3</ele>
        <time>2026-03-26T12:36:28.000Z</time>
      </trkpt>
      <trkpt lat="43.70674" lon="1.58848">
        <ele>212.1</ele>
        <time>2026-03-26T12:36:44.000Z</time>
      </trkpt>
      <trkpt lat="43.70667" lon="1.58844">
        <ele>212.6</ele>
        <time>2026-03-26T12:36:52.000Z</time>
      </trkpt>
      <trkpt lat="43.70649" lon="1.58834">
        <ele>214.2</ele>
        <time>2026-03-26T12:37:14.000Z</time>
      </trkpt>
      <trkpt lat="43.70604" lon="1.58795">
        <ele>219.5</ele>
        <time>2026-03-26T12:38:15.000Z</time>
      </trkpt>
      <trkpt lat="43.70593" lon="1.58791">
        <ele>220.3</ele>
        <time>2026-03-26T12:38:28.000Z</time>
      </trkpt>
      <trkpt lat="43.70588" lon="1.58792">
        <ele>220.6</ele>
        <time>2026-03-26T12:38:34.000Z</time>
      </trkpt>
      <trkpt lat="43.70582" lon="1.58794">
        <ele>221.1</ele>
        <time>2026-03-26T12:38:42.000Z</time>
      </trkpt>
      <trkpt lat="43.70574" lon="1.58803">
        <ele>221.7</ele>
        <time>2026-03-26T12:38:54.000Z</time>
      </trkpt>
      <trkpt lat="43.70539" lon="1.58849">
        <ele>223.7</ele>
        <time>2026-03-26T12:39:49.000Z</time>
      </trkpt>
      <trkpt lat="43.70513" lon="1.58898">
        <ele>224.9</ele>
        <time>2026-03-26T12:40:39.000Z</time>
      </trkpt>
      <trkpt lat="43.7047" lon="1.58979">
        <ele>224.9</ele>
        <time>2026-03-26T12:42:02.000Z</time>
      </trkpt>
      <trkpt lat="43.70464" lon="1.58989">
        <ele>225.2</ele>
        <time>2026-03-26T12:42:13.000Z</time>
      </trkpt>
      <trkpt lat="43.70435" lon="1.59025">
        <ele>226.8</ele>
        <time>2026-03-26T12:42:58.000Z</time>
      </trkpt>
      <trkpt lat="43.70429" lon="1.59036">
        <ele>227.3</ele>
        <time>2026-03-26T12:43:09.000Z</time>
      </trkpt>
      <trkpt lat="43.70407" lon="1.59096">
        <ele>229.7</ele>
        <time>2026-03-26T12:44:04.000Z</time>
      </trkpt>
      <trkpt lat="43.70384" lon="1.59158">
        <ele>231.8</ele>
        <time>2026-03-26T12:45:01.000Z</time>
      </trkpt>
      <trkpt lat="43.70383" lon="1.59161">
        <ele>231.8</ele>
        <time>2026-03-26T12:45:04.000Z</time>
      </trkpt>
      <trkpt lat="43.7038" lon="1.5917">
        <ele>231.8</ele>
        <time>2026-03-26T12:45:12.000Z</time>
      </trkpt>
      <trkpt lat="43.70368" lon="1.59194">
        <ele>232.1</ele>
        <time>2026-03-26T12:45:36.000Z</time>
      </trkpt>
      <trkpt lat="43.70357" lon="1.59203">
        <ele>232.7</ele>
        <time>2026-03-26T12:45:51.000Z</time>
      </trkpt>
      <trkpt lat="43.7035" lon="1.59205">
        <ele>233.2</ele>
        <time>2026-03-26T12:45:59.000Z</time>
      </trkpt>
      <trkpt lat="43.70342" lon="1.59205">
        <ele>233.9</ele>
        <time>2026-03-26T12:46:07.000Z</time>
      </trkpt>
      <trkpt lat="43.70333" lon="1.59201">
        <ele>234.8</ele>
        <time>2026-03-26T12:46:17.000Z</time>
      </trkpt>
      <trkpt lat="43.70301" lon="1.59178">
        <ele>236.9</ele>
        <time>2026-03-26T12:46:59.000Z</time>
      </trkpt>
      <trkpt lat="43.70291" lon="1.59172">
        <ele>236.6</ele>
        <time>2026-03-26T12:47:11.000Z</time>
      </trkpt>
      <trkpt lat="43.70285" lon="1.5917">
        <ele>236.3</ele>
        <time>2026-03-26T12:47:19.000Z</time>
      </trkpt>
      <trkpt lat="43.70279" lon="1.5917">
        <ele>236.2</ele>
        <time>2026-03-26T12:47:26.000Z</time>
      </trkpt>
      <trkpt lat="43.70272" lon="1.59173">
        <ele>235.7</ele>
        <time>2026-03-26T12:47:33.000Z</time>
      </trkpt>
      <trkpt lat="43.70263" lon="1.5918">
        <ele>235.2</ele>
        <time>2026-03-26T12:47:45.000Z</time>
      </trkpt>
      <trkpt lat="43.70253" lon="1.59192">
        <ele>235</ele>
        <time>2026-03-26T12:48:01.000Z</time>
      </trkpt>
      <trkpt lat="43.70235" lon="1.59215">
        <ele>234.9</ele>
        <time>2026-03-26T12:48:29.000Z</time>
      </trkpt>
      <trkpt lat="43.70229" lon="1.59223">
        <ele>234.8</ele>
        <time>2026-03-26T12:48:38.000Z</time>
      </trkpt>
      <trkpt lat="43.70218" lon="1.59237">
        <ele>234.7</ele>
        <time>2026-03-26T12:48:56.000Z</time>
      </trkpt>
      <trkpt lat="43.70207" lon="1.59249">
        <ele>234.3</ele>
        <time>2026-03-26T12:49:11.000Z</time>
      </trkpt>
      <trkpt lat="43.70195" lon="1.59259">
        <ele>233.7</ele>
        <time>2026-03-26T12:49:27.000Z</time>
      </trkpt>
      <trkpt lat="43.70167" lon="1.59281">
        <ele>233.1</ele>
        <time>2026-03-26T12:50:04.000Z</time>
      </trkpt>
      <trkpt lat="43.70149" lon="1.59294">
        <ele>232.3</ele>
        <time>2026-03-26T12:50:27.000Z</time>
      </trkpt>
      <trkpt lat="43.70128" lon="1.59316">
        <ele>232.2</ele>
        <time>2026-03-26T12:50:57.000Z</time>
      </trkpt>
      <trkpt lat="43.70072" lon="1.59378">
        <ele>230.4</ele>
        <time>2026-03-26T12:52:20.000Z</time>
      </trkpt>
      <trkpt lat="43.70071" lon="1.59377">
        <ele>230.4</ele>
        <time>2026-03-26T12:52:21.000Z</time>
      </trkpt>
      <trkpt lat="43.70071" lon="1.59375">
        <ele>230.3</ele>
        <time>2026-03-26T12:52:23.000Z</time>
      </trkpt>
      <trkpt lat="43.70045" lon="1.59342">
        <ele>227.9</ele>
        <time>2026-03-26T12:53:03.000Z</time>
      </trkpt>
      <trkpt lat="43.69994" lon="1.59277">
        <ele>223.5</ele>
        <time>2026-03-26T12:54:22.000Z</time>
      </trkpt>
      <trkpt lat="43.69967" lon="1.59244">
        <ele>220.8</ele>
        <time>2026-03-26T12:55:03.000Z</time>
      </trkpt>
      <trkpt lat="43.69963" lon="1.59239">
        <ele>220.6</ele>
        <time>2026-03-26T12:55:10.000Z</time>
      </trkpt>
      <trkpt lat="43.69957" lon="1.59234">
        <ele>220.2</ele>
        <time>2026-03-26T12:55:18.000Z</time>
      </trkpt>
      <trkpt lat="43.69942" lon="1.59221">
        <ele>218.8</ele>
        <time>2026-03-26T12:55:39.000Z</time>
      </trkpt>
      <trkpt lat="43.69939" lon="1.59219">
        <ele>218.8</ele>
        <time>2026-03-26T12:55:42.000Z</time>
      </trkpt>
      <trkpt lat="43.6993" lon="1.59214">
        <ele>218.4</ele>
        <time>2026-03-26T12:55:53.000Z</time>
      </trkpt>
      <trkpt lat="43.69904" lon="1.5921">
        <ele>217.2</ele>
        <time>2026-03-26T12:56:23.000Z</time>
      </trkpt>
      <trkpt lat="43.69892" lon="1.59211">
        <ele>216.4</ele>
        <time>2026-03-26T12:56:36.000Z</time>
      </trkpt>
      <trkpt lat="43.69834" lon="1.59217">
        <ele>212.6</ele>
        <time>2026-03-26T12:57:42.000Z</time>
      </trkpt>
      <trkpt lat="43.6978" lon="1.59225">
        <ele>207</ele>
        <time>2026-03-26T12:58:44.000Z</time>
      </trkpt>
      <trkpt lat="43.69761" lon="1.5923">
        <ele>205.2</ele>
        <time>2026-03-26T12:59:07.000Z</time>
      </trkpt>
      <trkpt lat="43.69711" lon="1.59242">
        <ele>201</ele>
        <time>2026-03-26T13:00:04.000Z</time>
      </trkpt>
      <trkpt lat="43.6964" lon="1.5926">
        <ele>196.7</ele>
        <time>2026-03-26T13:01:27.000Z</time>
      </trkpt>
      <trkpt lat="43.69639" lon="1.5926">
        <ele>196.7</ele>
        <time>2026-03-26T13:01:28.000Z</time>
      </trkpt>
      <trkpt lat="43.69636" lon="1.59261">
        <ele>196.5</ele>
        <time>2026-03-26T13:01:32.000Z</time>
      </trkpt>
      <trkpt lat="43.6962" lon="1.59266">
        <ele>195.8</ele>
        <time>2026-03-26T13:01:51.000Z</time>
      </trkpt>
      <trkpt lat="43.69611" lon="1.59268">
        <ele>195.3</ele>
        <time>2026-03-26T13:02:02.000Z</time>
      </trkpt>
      <trkpt lat="43.69601" lon="1.59273">
        <ele>195.1</ele>
        <time>2026-03-26T13:02:14.000Z</time>
      </trkpt>
      <trkpt lat="43.69563" lon="1.59292">
        <ele>193.6</ele>
        <time>2026-03-26T13:03:01.000Z</time>
      </trkpt>
      <trkpt lat="43.6955" lon="1.59296">
        <ele>193.3</ele>
        <time>2026-03-26T13:03:16.000Z</time>
      </trkpt>
      <trkpt lat="43.69537" lon="1.59295">
        <ele>193.1</ele>
        <time>2026-03-26T13:03:31.000Z</time>
      </trkpt>
      <trkpt lat="43.69531" lon="1.59293">
        <ele>193</ele>
        <time>2026-03-26T13:03:39.000Z</time>
      </trkpt>
      <trkpt lat="43.69499" lon="1.59269">
        <ele>192</ele>
        <time>2026-03-26T13:04:21.000Z</time>
      </trkpt>
      <trkpt lat="43.69374" lon="1.59168">
        <ele>189.5</ele>
        <time>2026-03-26T13:07:06.000Z</time>
      </trkpt>
      <trkpt lat="43.6933" lon="1.59134">
        <ele>188.1</ele>
        <time>2026-03-26T13:08:04.000Z</time>
      </trkpt>
      <trkpt lat="43.69326" lon="1.59131">
        <ele>188.2</ele>
        <time>2026-03-26T13:08:10.000Z</time>
      </trkpt>
      <trkpt lat="43.6928" lon="1.59093">
        <ele>185.2</ele>
        <time>2026-03-26T13:09:11.000Z</time>
      </trkpt>
      <trkpt lat="43.69246" lon="1.59048">
        <ele>182.4</ele>
        <time>2026-03-26T13:10:05.000Z</time>
      </trkpt>
      <trkpt lat="43.69187" lon="1.58964">
        <ele>171.4</ele>
        <time>2026-03-26T13:11:42.000Z</time>
      </trkpt>
      <trkpt lat="43.69149" lon="1.5891">
        <ele>166.1</ele>
        <time>2026-03-26T13:12:44.000Z</time>
      </trkpt>
      <trkpt lat="43.69108" lon="1.58857">
        <ele>160.8</ele>
        <time>2026-03-26T13:13:49.000Z</time>
      </trkpt>
      <trkpt lat="43.69084" lon="1.5883">
        <ele>158</ele>
        <time>2026-03-26T13:14:24.000Z</time>
      </trkpt>
      <trkpt lat="43.69028" lon="1.58773">
        <ele>153</ele>
        <time>2026-03-26T13:15:44.000Z</time>
      </trkpt>
      <trkpt lat="43.6899" lon="1.58735">
        <ele>150.1</ele>
        <time>2026-03-26T13:16:37.000Z</time>
      </trkpt>
      <trkpt lat="43.6898" lon="1.58724">
        <ele>148.9</ele>
        <time>2026-03-26T13:16:52.000Z</time>
      </trkpt>
      <trkpt lat="43.68955" lon="1.5876">
        <ele>148.3</ele>
        <time>2026-03-26T13:17:34.000Z</time>
      </trkpt>
      <trkpt lat="43.68947" lon="1.58769">
        <ele>147.6</ele>
        <time>2026-03-26T13:17:45.000Z</time>
      </trkpt>
      <trkpt lat="43.6894" lon="1.58774">
        <ele>147</ele>
        <time>2026-03-26T13:17:54.000Z</time>
      </trkpt>
      <trkpt lat="43.6893" lon="1.58781">
        <ele>146.6</ele>
        <time>2026-03-26T13:18:07.000Z</time>
      </trkpt>
      <trkpt lat="43.68919" lon="1.58786">
        <ele>146.4</ele>
        <time>2026-03-26T13:18:20.000Z</time>
      </trkpt>
      <trkpt lat="43.68909" lon="1.5879">
        <ele>146.2</ele>
        <time>2026-03-26T13:18:33.000Z</time>
      </trkpt>
      <trkpt lat="43.68901" lon="1.58791">
        <ele>145.9</ele>
        <time>2026-03-26T13:18:42.000Z</time>
      </trkpt>
      <trkpt lat="43.68895" lon="1.58792">
        <ele>145.7</ele>
        <time>2026-03-26T13:18:49.000Z</time>
      </trkpt>
      <trkpt lat="43.68892" lon="1.58793">
        <ele>145.6</ele>
        <time>2026-03-26T13:18:52.000Z</time>
      </trkpt>
      <trkpt lat="43.68872" lon="1.5879">
        <ele>144.9</ele>
        <time>2026-03-26T13:19:15.000Z</time>
      </trkpt>
      <trkpt lat="43.68864" lon="1.58787">
        <ele>144.4</ele>
        <time>2026-03-26T13:19:25.000Z</time>
      </trkpt>
      <trkpt lat="43.6886" lon="1.58784">
        <ele>144.1</ele>
        <time>2026-03-26T13:19:30.000Z</time>
      </trkpt>
      <trkpt lat="43.68854" lon="1.5878">
        <ele>143.8</ele>
        <time>2026-03-26T13:19:37.000Z</time>
      </trkpt>
      <trkpt lat="43.68844" lon="1.5877">
        <ele>143.4</ele>
        <time>2026-03-26T13:19:51.000Z</time>
      </trkpt>
      <trkpt lat="43.68843" lon="1.58762">
        <ele>143.3</ele>
        <time>2026-03-26T13:19:58.000Z</time>
      </trkpt>
      <trkpt lat="43.68836" lon="1.58743">
        <ele>143.1</ele>
        <time>2026-03-26T13:20:15.000Z</time>
      </trkpt>
      <trkpt lat="43.68829" lon="1.58726">
        <ele>142.7</ele>
        <time>2026-03-26T13:20:31.000Z</time>
      </trkpt>
      <trkpt lat="43.68816" lon="1.58698">
        <ele>142</ele>
        <time>2026-03-26T13:20:59.000Z</time>
      </trkpt>
      <trkpt lat="43.6878" lon="1.58639">
        <ele>141</ele>
        <time>2026-03-26T13:22:02.000Z</time>
      </trkpt>
      <trkpt lat="43.68776" lon="1.58633">
        <ele>141</ele>
        <time>2026-03-26T13:22:09.000Z</time>
      </trkpt>
      <trkpt lat="43.68767" lon="1.58617">
        <ele>140.6</ele>
        <time>2026-03-26T13:22:26.000Z</time>
      </trkpt>
      <trkpt lat="43.68748" lon="1.58582">
        <ele>140.9</ele>
        <time>2026-03-26T13:23:02.000Z</time>
      </trkpt>
      <trkpt lat="43.68742" lon="1.58574">
        <ele>140.8</ele>
        <time>2026-03-26T13:23:12.000Z</time>
      </trkpt>
      <trkpt lat="43.68719" lon="1.58539">
        <ele>141.5</ele>
        <time>2026-03-26T13:23:51.000Z</time>
      </trkpt>
      <trkpt lat="43.68716" lon="1.58534">
        <ele>141.5</ele>
        <time>2026-03-26T13:23:57.000Z</time>
      </trkpt>
      <trkpt lat="43.68701" lon="1.5851">
        <ele>139.5</ele>
        <time>2026-03-26T13:24:24.000Z</time>
      </trkpt>
      <trkpt lat="43.68693" lon="1.58497">
        <ele>138.3</ele>
        <time>2026-03-26T13:24:37.000Z</time>
      </trkpt>
      <trkpt lat="43.68687" lon="1.58487">
        <ele>139.5</ele>
        <time>2026-03-26T13:24:48.000Z</time>
      </trkpt>
      <trkpt lat="43.68683" lon="1.58482">
        <ele>140</ele>
        <time>2026-03-26T13:24:54.000Z</time>
      </trkpt>
      <trkpt lat="43.68679" lon="1.58475">
        <ele>140.5</ele>
        <time>2026-03-26T13:25:01.000Z</time>
      </trkpt>
      <trkpt lat="43.68671" lon="1.58462">
        <ele>140.9</ele>
        <time>2026-03-26T13:25:15.000Z</time>
      </trkpt>
      <trkpt lat="43.68666" lon="1.58454">
        <ele>141.1</ele>
        <time>2026-03-26T13:25:24.000Z</time>
      </trkpt>
      <trkpt lat="43.68656" lon="1.58436">
        <ele>143.3</ele>
        <time>2026-03-26T13:25:43.000Z</time>
      </trkpt>
      <trkpt lat="43.68652" lon="1.58431">
        <ele>143.5</ele>
        <time>2026-03-26T13:25:49.000Z</time>
      </trkpt>
      <trkpt lat="43.68649" lon="1.58425">
        <ele>143.2</ele>
        <time>2026-03-26T13:25:55.000Z</time>
      </trkpt>
      <trkpt lat="43.68647" lon="1.58422">
        <ele>142.8</ele>
        <time>2026-03-26T13:25:59.000Z</time>
      </trkpt>
      <trkpt lat="43.68634" lon="1.58403">
        <ele>142.2</ele>
        <time>2026-03-26T13:26:20.000Z</time>
      </trkpt>
      <trkpt lat="43.68623" lon="1.58385">
        <ele>141.6</ele>
        <time>2026-03-26T13:26:40.000Z</time>
      </trkpt>
      <trkpt lat="43.68619" lon="1.58379">
        <ele>141.1</ele>
        <time>2026-03-26T13:26:46.000Z</time>
      </trkpt>
      <trkpt lat="43.68587" lon="1.58327">
        <ele>140.9</ele>
        <time>2026-03-26T13:27:43.000Z</time>
      </trkpt>
      <trkpt lat="43.6856" lon="1.58283">
        <ele>140.7</ele>
        <time>2026-03-26T13:28:30.000Z</time>
      </trkpt>
      <trkpt lat="43.68549" lon="1.58265">
        <ele>140.5</ele>
        <time>2026-03-26T13:28:50.000Z</time>
      </trkpt>
      <trkpt lat="43.6853" lon="1.58237">
        <ele>140.5</ele>
        <time>2026-03-26T13:29:22.000Z</time>
      </trkpt>
      <trkpt lat="43.68525" lon="1.58229">
        <ele>140.3</ele>
        <time>2026-03-26T13:29:30.000Z</time>
      </trkpt>
      <trkpt lat="43.68522" lon="1.58224">
        <ele>140.3</ele>
        <time>2026-03-26T13:29:35.000Z</time>
      </trkpt>
      <trkpt lat="43.68518" lon="1.58219">
        <ele>140.4</ele>
        <time>2026-03-26T13:29:42.000Z</time>
      </trkpt>
      <trkpt lat="43.68489" lon="1.58184">
        <ele>141.1</ele>
        <time>2026-03-26T13:30:26.000Z</time>
      </trkpt>
      <trkpt lat="43.68484" lon="1.58178">
        <ele>140.9</ele>
        <time>2026-03-26T13:30:34.000Z</time>
      </trkpt>
      <trkpt lat="43.68456" lon="1.58147">
        <ele>140.7</ele>
        <time>2026-03-26T13:31:15.000Z</time>
      </trkpt>
      <trkpt lat="43.68438" lon="1.58127">
        <ele>141.2</ele>
        <time>2026-03-26T13:31:41.000Z</time>
      </trkpt>
      <trkpt lat="43.68424" lon="1.58115">
        <ele>141.7</ele>
        <time>2026-03-26T13:32:00.000Z</time>
      </trkpt>
      <trkpt lat="43.6841" lon="1.58105">
        <ele>142</ele>
        <time>2026-03-26T13:32:18.000Z</time>
      </trkpt>
      <trkpt lat="43.68384" lon="1.58086">
        <ele>142.1</ele>
        <time>2026-03-26T13:32:52.000Z</time>
      </trkpt>
      <trkpt lat="43.68379" lon="1.58095">
        <ele>142.3</ele>
        <time>2026-03-26T13:33:01.000Z</time>
      </trkpt>
      <trkpt lat="43.68375" lon="1.58102">
        <ele>142.3</ele>
        <time>2026-03-26T13:33:09.000Z</time>
      </trkpt>
      <trkpt lat="43.68371" lon="1.58107">
        <ele>142.3</ele>
        <time>2026-03-26T13:33:15.000Z</time>
      </trkpt>
      <trkpt lat="43.68365" lon="1.58111">
        <ele>142.1</ele>
        <time>2026-03-26T13:33:23.000Z</time>
      </trkpt>
      <trkpt lat="43.68348" lon="1.58112">
        <ele>142.5</ele>
        <time>2026-03-26T13:33:43.000Z</time>
      </trkpt>
      <trkpt lat="43.68341" lon="1.58113">
        <ele>142.8</ele>
        <time>2026-03-26T13:33:51.000Z</time>
      </trkpt>
      <trkpt lat="43.68332" lon="1.58115">
        <ele>143.2</ele>
        <time>2026-03-26T13:34:02.000Z</time>
      </trkpt>
      <trkpt lat="43.68327" lon="1.5811">
        <ele>143.5</ele>
        <time>2026-03-26T13:34:09.000Z</time>
      </trkpt>
      <trkpt lat="43.68323" lon="1.58106">
        <ele>143.8</ele>
        <time>2026-03-26T13:34:15.000Z</time>
      </trkpt>
      <trkpt lat="43.68319" lon="1.58099">
        <ele>144.1</ele>
        <time>2026-03-26T13:34:22.000Z</time>
      </trkpt>
      <trkpt lat="43.68314" lon="1.58094">
        <ele>144.4</ele>
        <time>2026-03-26T13:34:29.000Z</time>
      </trkpt>
      <trkpt lat="43.68311" lon="1.58081">
        <ele>144.5</ele>
        <time>2026-03-26T13:34:40.000Z</time>
      </trkpt>
      <trkpt lat="43.68313" lon="1.58034">
        <ele>143.8</ele>
        <time>2026-03-26T13:35:19.000Z</time>
      </trkpt>
      <trkpt lat="43.68313" lon="1.58032">
        <ele>143.8</ele>
        <time>2026-03-26T13:35:21.000Z</time>
      </trkpt>
      <trkpt lat="43.68311" lon="1.58019">
        <ele>143.5</ele>
        <time>2026-03-26T13:35:32.000Z</time>
      </trkpt>
      <trkpt lat="43.68307" lon="1.58006">
        <ele>143.2</ele>
        <time>2026-03-26T13:35:44.000Z</time>
      </trkpt>
      <trkpt lat="43.68279" lon="1.57964">
        <ele>144.7</ele>
        <time>2026-03-26T13:36:31.000Z</time>
      </trkpt>
      <trkpt lat="43.68277" lon="1.57961">
        <ele>144.7</ele>
        <time>2026-03-26T13:36:34.000Z</time>
      </trkpt>
      <trkpt lat="43.68269" lon="1.57954">
        <ele>144.9</ele>
        <time>2026-03-26T13:36:45.000Z</time>
      </trkpt>
      <trkpt lat="43.68255" lon="1.5794">
        <ele>145.4</ele>
        <time>2026-03-26T13:37:05.000Z</time>
      </trkpt>
      <trkpt lat="43.68242" lon="1.57923">
        <ele>144.9</ele>
        <time>2026-03-26T13:37:25.000Z</time>
      </trkpt>
      <trkpt lat="43.68233" lon="1.57909">
        <ele>145.1</ele>
        <time>2026-03-26T13:37:40.000Z</time>
      </trkpt>
      <trkpt lat="43.68227" lon="1.57898">
        <ele>145.2</ele>
        <time>2026-03-26T13:37:51.000Z</time>
      </trkpt>
      <trkpt lat="43.68207" lon="1.57863">
        <ele>146</ele>
        <time>2026-03-26T13:38:29.000Z</time>
      </trkpt>
      <trkpt lat="43.68203" lon="1.57857">
        <ele>146.3</ele>
        <time>2026-03-26T13:38:36.000Z</time>
      </trkpt>
      <trkpt lat="43.68198" lon="1.57851">
        <ele>146.9</ele>
        <time>2026-03-26T13:38:43.000Z</time>
      </trkpt>
      <trkpt lat="43.68169" lon="1.57818">
        <ele>149</ele>
        <time>2026-03-26T13:39:26.000Z</time>
      </trkpt>
      <trkpt lat="43.68122" lon="1.57774">
        <ele>149.7</ele>
        <time>2026-03-26T13:40:31.000Z</time>
      </trkpt>
      <trkpt lat="43.68108" lon="1.57763">
        <ele>150.1</ele>
        <time>2026-03-26T13:40:49.000Z</time>
      </trkpt>
      <trkpt lat="43.68102" lon="1.57757">
        <ele>150.3</ele>
        <time>2026-03-26T13:40:57.000Z</time>
      </trkpt>
      <trkpt lat="43.68058" lon="1.57717">
        <ele>150</ele>
        <time>2026-03-26T13:41:57.000Z</time>
      </trkpt>
      <trkpt lat="43.68024" lon="1.57686">
        <ele>151.2</ele>
        <time>2026-03-26T13:42:44.000Z</time>
      </trkpt>
      <trkpt lat="43.67961" lon="1.57628">
        <ele>153.8</ele>
        <time>2026-03-26T13:44:11.000Z</time>
      </trkpt>
      <trkpt lat="43.67938" lon="1.57607">
        <ele>155.2</ele>
        <time>2026-03-26T13:44:43.000Z</time>
      </trkpt>
      <trkpt lat="43.67893" lon="1.57559">
        <ele>157</ele>
        <time>2026-03-26T13:45:48.000Z</time>
      </trkpt>
      <trkpt lat="43.67886" lon="1.57552">
        <ele>157.3</ele>
        <time>2026-03-26T13:45:58.000Z</time>
      </trkpt>
      <trkpt lat="43.67875" lon="1.57543">
        <ele>158</ele>
        <time>2026-03-26T13:46:12.000Z</time>
      </trkpt>
      <trkpt lat="43.67874" lon="1.57542">
        <ele>158.1</ele>
        <time>2026-03-26T13:46:14.000Z</time>
      </trkpt>
      <trkpt lat="43.67866" lon="1.57537">
        <ele>158.2</ele>
        <time>2026-03-26T13:46:24.000Z</time>
      </trkpt>
      <trkpt lat="43.67858" lon="1.57534">
        <ele>158.5</ele>
        <time>2026-03-26T13:46:33.000Z</time>
      </trkpt>
      <trkpt lat="43.67843" lon="1.57531">
        <ele>159.4</ele>
        <time>2026-03-26T13:46:50.000Z</time>
      </trkpt>
      <trkpt lat="43.67824" lon="1.57528">
        <ele>160.7</ele>
        <time>2026-03-26T13:47:12.000Z</time>
      </trkpt>
      <trkpt lat="43.67794" lon="1.57523">
        <ele>164.2</ele>
        <time>2026-03-26T13:47:47.000Z</time>
      </trkpt>
      <trkpt lat="43.67762" lon="1.57515">
        <ele>168.9</ele>
        <time>2026-03-26T13:48:24.000Z</time>
      </trkpt>
      <trkpt lat="43.6776" lon="1.57514">
        <ele>169.1</ele>
        <time>2026-03-26T13:48:26.000Z</time>
      </trkpt>
      <trkpt lat="43.67746" lon="1.5751">
        <ele>170.4</ele>
        <time>2026-03-26T13:48:41.000Z</time>
      </trkpt>
      <trkpt lat="43.6768" lon="1.57479">
        <ele>179.4</ele>
        <time>2026-03-26T13:50:02.000Z</time>
      </trkpt>
      <trkpt lat="43.67679" lon="1.57479">
        <ele>179.4</ele>
        <time>2026-03-26T13:50:03.000Z</time>
      </trkpt>
      <trkpt lat="43.67666" lon="1.57471">
        <ele>180.1</ele>
        <time>2026-03-26T13:50:19.000Z</time>
      </trkpt>
      <trkpt lat="43.67655" lon="1.57464">
        <ele>181</ele>
        <time>2026-03-26T13:50:33.000Z</time>
      </trkpt>
      <trkpt lat="43.67645" lon="1.57459">
        <ele>181.7</ele>
        <time>2026-03-26T13:50:45.000Z</time>
      </trkpt>
      <trkpt lat="43.67636" lon="1.57451">
        <ele>182</ele>
        <time>2026-03-26T13:50:58.000Z</time>
      </trkpt>
      <trkpt lat="43.676" lon="1.5741">
        <ele>182</ele>
        <time>2026-03-26T13:51:51.000Z</time>
      </trkpt>
      <trkpt lat="43.67593" lon="1.57407">
        <ele>181.9</ele>
        <time>2026-03-26T13:51:59.000Z</time>
      </trkpt>
      <trkpt lat="43.67588" lon="1.57407">
        <ele>181.8</ele>
        <time>2026-03-26T13:52:04.000Z</time>
      </trkpt>
      <trkpt lat="43.67582" lon="1.57407">
        <ele>181.7</ele>
        <time>2026-03-26T13:52:11.000Z</time>
      </trkpt>
      <trkpt lat="43.67575" lon="1.57392">
        <ele>181.4</ele>
        <time>2026-03-26T13:52:26.000Z</time>
      </trkpt>
      <trkpt lat="43.67555" lon="1.57351">
        <ele>181.7</ele>
        <time>2026-03-26T13:53:07.000Z</time>
      </trkpt>
      <trkpt lat="43.6755" lon="1.57342">
        <ele>181.6</ele>
        <time>2026-03-26T13:53:16.000Z</time>
      </trkpt>
      <trkpt lat="43.67548" lon="1.57337">
        <ele>181.6</ele>
        <time>2026-03-26T13:53:20.000Z</time>
      </trkpt>
      <trkpt lat="43.67537" lon="1.573">
        <ele>182.4</ele>
        <time>2026-03-26T13:53:53.000Z</time>
      </trkpt>
      <trkpt lat="43.67529" lon="1.57257">
        <ele>183</ele>
        <time>2026-03-26T13:54:30.000Z</time>
      </trkpt>
      <trkpt lat="43.67528" lon="1.57242">
        <ele>183.3</ele>
        <time>2026-03-26T13:54:43.000Z</time>
      </trkpt>
      <trkpt lat="43.6753" lon="1.57204">
        <ele>184.7</ele>
        <time>2026-03-26T13:55:14.000Z</time>
      </trkpt>
      <trkpt lat="43.67533" lon="1.5719">
        <ele>185.3</ele>
        <time>2026-03-26T13:55:26.000Z</time>
      </trkpt>
      <trkpt lat="43.67542" lon="1.57161">
        <ele>186.6</ele>
        <time>2026-03-26T13:55:52.000Z</time>
      </trkpt>
      <trkpt lat="43.67548" lon="1.57146">
        <ele>186.8</ele>
        <time>2026-03-26T13:56:06.000Z</time>
      </trkpt>
      <trkpt lat="43.67577" lon="1.57081">
        <ele>187.7</ele>
        <time>2026-03-26T13:57:10.000Z</time>
      </trkpt>
      <trkpt lat="43.67579" lon="1.57076">
        <ele>187.6</ele>
        <time>2026-03-26T13:57:14.000Z</time>
      </trkpt>
      <trkpt lat="43.67582" lon="1.57066">
        <ele>187.3</ele>
        <time>2026-03-26T13:57:23.000Z</time>
      </trkpt>
      <trkpt lat="43.67584" lon="1.57052">
        <ele>186.8</ele>
        <time>2026-03-26T13:57:35.000Z</time>
      </trkpt>
      <trkpt lat="43.67585" lon="1.57031">
        <ele>185.5</ele>
        <time>2026-03-26T13:57:52.000Z</time>
      </trkpt>
      <trkpt lat="43.67586" lon="1.56967">
        <ele>181.2</ele>
        <time>2026-03-26T13:58:45.000Z</time>
      </trkpt>
      <trkpt lat="43.67587" lon="1.56939">
        <ele>179.5</ele>
        <time>2026-03-26T13:59:08.000Z</time>
      </trkpt>
      <trkpt lat="43.67589" lon="1.56925">
        <ele>178.8</ele>
        <time>2026-03-26T13:59:20.000Z</time>
      </trkpt>
      <trkpt lat="43.67601" lon="1.56874">
        <ele>176.3</ele>
        <time>2026-03-26T14:00:05.000Z</time>
      </trkpt>
      <trkpt lat="43.67623" lon="1.56786">
        <ele>170.2</ele>
        <time>2026-03-26T14:01:22.000Z</time>
      </trkpt>
      <trkpt lat="43.67629" lon="1.56769">
        <ele>169.5</ele>
        <time>2026-03-26T14:01:38.000Z</time>
      </trkpt>
      <trkpt lat="43.67652" lon="1.56719">
        <ele>165.5</ele>
        <time>2026-03-26T14:02:27.000Z</time>
      </trkpt>
      <trkpt lat="43.67654" lon="1.5671">
        <ele>164.6</ele>
        <time>2026-03-26T14:02:35.000Z</time>
      </trkpt>
      <trkpt lat="43.67654" lon="1.56703">
        <ele>163.6</ele>
        <time>2026-03-26T14:02:41.000Z</time>
      </trkpt>
      <trkpt lat="43.67652" lon="1.56697">
        <ele>162.7</ele>
        <time>2026-03-26T14:02:47.000Z</time>
      </trkpt>
      <trkpt lat="43.6765" lon="1.56686">
        <ele>162.3</ele>
        <time>2026-03-26T14:02:56.000Z</time>
      </trkpt>
      <trkpt lat="43.67647" lon="1.56681">
        <ele>162.4</ele>
        <time>2026-03-26T14:03:01.000Z</time>
      </trkpt>
      <trkpt lat="43.67643" lon="1.56673">
        <ele>162.6</ele>
        <time>2026-03-26T14:03:10.000Z</time>
      </trkpt>
      <trkpt lat="43.67638" lon="1.56665">
        <ele>163</ele>
        <time>2026-03-26T14:03:18.000Z</time>
      </trkpt>
      <trkpt lat="43.67634" lon="1.56662">
        <ele>163.1</ele>
        <time>2026-03-26T14:03:22.000Z</time>
      </trkpt>
      <trkpt lat="43.67633" lon="1.56661">
        <ele>163.1</ele>
        <time>2026-03-26T14:03:24.000Z</time>
      </trkpt>
      <trkpt lat="43.67628" lon="1.56658">
        <ele>163.3</ele>
        <time>2026-03-26T14:03:31.000Z</time>
      </trkpt>
      <trkpt lat="43.67613" lon="1.56657">
        <ele>163.4</ele>
        <time>2026-03-26T14:03:47.000Z</time>
      </trkpt>
      <trkpt lat="43.67578" lon="1.56672">
        <ele>163.9</ele>
        <time>2026-03-26T14:04:30.000Z</time>
      </trkpt>
      <trkpt lat="43.67565" lon="1.56672">
        <ele>164.2</ele>
        <time>2026-03-26T14:04:45.000Z</time>
      </trkpt>
      <trkpt lat="43.67559" lon="1.56669">
        <ele>164.2</ele>
        <time>2026-03-26T14:04:51.000Z</time>
      </trkpt>
      <trkpt lat="43.67555" lon="1.56664">
        <ele>164.1</ele>
        <time>2026-03-26T14:04:58.000Z</time>
      </trkpt>
      <trkpt lat="43.6755" lon="1.56656">
        <ele>164.6</ele>
        <time>2026-03-26T14:05:06.000Z</time>
      </trkpt>
      <trkpt lat="43.67547" lon="1.56646">
        <ele>164.9</ele>
        <time>2026-03-26T14:05:15.000Z</time>
      </trkpt>
      <trkpt lat="43.67548" lon="1.56633">
        <ele>165.5</ele>
        <time>2026-03-26T14:05:26.000Z</time>
      </trkpt>
      <trkpt lat="43.67548" lon="1.56631">
        <ele>165.6</ele>
        <time>2026-03-26T14:05:28.000Z</time>
      </trkpt>
      <trkpt lat="43.67553" lon="1.56621">
        <ele>166.7</ele>
        <time>2026-03-26T14:05:38.000Z</time>
      </trkpt>
      <trkpt lat="43.67558" lon="1.56617">
        <ele>167.3</ele>
        <time>2026-03-26T14:05:44.000Z</time>
      </trkpt>
      <trkpt lat="43.67568" lon="1.56613">
        <ele>168.2</ele>
        <time>2026-03-26T14:05:56.000Z</time>
      </trkpt>
      <trkpt lat="43.67594" lon="1.56605">
        <ele>170.2</ele>
        <time>2026-03-26T14:06:27.000Z</time>
      </trkpt>
      <trkpt lat="43.67603" lon="1.56601">
        <ele>171.2</ele>
        <time>2026-03-26T14:06:38.000Z</time>
      </trkpt>
      <trkpt lat="43.67612" lon="1.56591">
        <ele>172.9</ele>
        <time>2026-03-26T14:06:52.000Z</time>
      </trkpt>
      <trkpt lat="43.67616" lon="1.56582">
        <ele>173.6</ele>
        <time>2026-03-26T14:07:00.000Z</time>
      </trkpt>
      <trkpt lat="43.67617" lon="1.56578">
        <ele>173.6</ele>
        <time>2026-03-26T14:07:04.000Z</time>
      </trkpt>
      <trkpt lat="43.67631" lon="1.56527">
        <ele>175.6</ele>
        <time>2026-03-26T14:07:49.000Z</time>
      </trkpt>
      <trkpt lat="43.67632" lon="1.56516">
        <ele>176.4</ele>
        <time>2026-03-26T14:07:58.000Z</time>
      </trkpt>
      <trkpt lat="43.67632" lon="1.56505">
        <ele>177.4</ele>
        <time>2026-03-26T14:08:07.000Z</time>
      </trkpt>
      <trkpt lat="43.67631" lon="1.56497">
        <ele>178.1</ele>
        <time>2026-03-26T14:08:13.000Z</time>
      </trkpt>
      <trkpt lat="43.67628" lon="1.56491">
        <ele>178.8</ele>
        <time>2026-03-26T14:08:19.000Z</time>
      </trkpt>
      <trkpt lat="43.67622" lon="1.56486">
        <ele>179.8</ele>
        <time>2026-03-26T14:08:27.000Z</time>
      </trkpt>
      <trkpt lat="43.67604" lon="1.56481">
        <ele>182</ele>
        <time>2026-03-26T14:08:49.000Z</time>
      </trkpt>
      <trkpt lat="43.67599" lon="1.56479">
        <ele>182.5</ele>
        <time>2026-03-26T14:08:54.000Z</time>
      </trkpt>
      <trkpt lat="43.67565" lon="1.56471">
        <ele>185.2</ele>
        <time>2026-03-26T14:09:33.000Z</time>
      </trkpt>
      <trkpt lat="43.67557" lon="1.56467">
        <ele>185.8</ele>
        <time>2026-03-26T14:09:44.000Z</time>
      </trkpt>
      <trkpt lat="43.67551" lon="1.56462">
        <ele>186.5</ele>
        <time>2026-03-26T14:09:52.000Z</time>
      </trkpt>
      <trkpt lat="43.67532" lon="1.56439">
        <ele>188.7</ele>
        <time>2026-03-26T14:10:20.000Z</time>
      </trkpt>
      <trkpt lat="43.67502" lon="1.5639">
        <ele>191</ele>
        <time>2026-03-26T14:11:13.000Z</time>
      </trkpt>
      <trkpt lat="43.67485" lon="1.56366">
        <ele>192.3</ele>
        <time>2026-03-26T14:11:41.000Z</time>
      </trkpt>
      <trkpt lat="43.67464" lon="1.56343">
        <ele>193</ele>
        <time>2026-03-26T14:12:12.000Z</time>
      </trkpt>
      <trkpt lat="43.67455" lon="1.56335">
        <ele>193.3</ele>
        <time>2026-03-26T14:12:24.000Z</time>
      </trkpt>
      <trkpt lat="43.67422" lon="1.56301">
        <ele>193.3</ele>
        <time>2026-03-26T14:13:11.000Z</time>
      </trkpt>
      <trkpt lat="43.67408" lon="1.56288">
        <ele>193.6</ele>
        <time>2026-03-26T14:13:31.000Z</time>
      </trkpt>
      <trkpt lat="43.67406" lon="1.56287">
        <ele>193.7</ele>
        <time>2026-03-26T14:13:33.000Z</time>
      </trkpt>
      <trkpt lat="43.67335" lon="1.56224">
        <ele>195</ele>
        <time>2026-03-26T14:15:09.000Z</time>
      </trkpt>
      <trkpt lat="43.67329" lon="1.5622">
        <ele>195</ele>
        <time>2026-03-26T14:15:18.000Z</time>
      </trkpt>
      <trkpt lat="43.67271" lon="1.56179">
        <ele>196.9</ele>
        <time>2026-03-26T14:16:33.000Z</time>
      </trkpt>
      <trkpt lat="43.67241" lon="1.56151">
        <ele>198.6</ele>
        <time>2026-03-26T14:17:14.000Z</time>
      </trkpt>
      <trkpt lat="43.67231" lon="1.56141">
        <ele>198.9</ele>
        <time>2026-03-26T14:17:28.000Z</time>
      </trkpt>
      <trkpt lat="43.67219" lon="1.56126">
        <ele>199.4</ele>
        <time>2026-03-26T14:17:47.000Z</time>
      </trkpt>
      <trkpt lat="43.67191" lon="1.56088">
        <ele>199.8</ele>
        <time>2026-03-26T14:18:32.000Z</time>
      </trkpt>
      <trkpt lat="43.67149" lon="1.56039">
        <ele>200.6</ele>
        <time>2026-03-26T14:19:35.000Z</time>
      </trkpt>
      <trkpt lat="43.67128" lon="1.56021">
        <ele>200.7</ele>
        <time>2026-03-26T14:20:03.000Z</time>
      </trkpt>
      <trkpt lat="43.67118" lon="1.56015">
        <ele>200.8</ele>
        <time>2026-03-26T14:20:16.000Z</time>
      </trkpt>
      <trkpt lat="43.67104" lon="1.56005">
        <ele>200.9</ele>
        <time>2026-03-26T14:20:34.000Z</time>
      </trkpt>
      <trkpt lat="43.67068" lon="1.55987">
        <ele>201.5</ele>
        <time>2026-03-26T14:21:18.000Z</time>
      </trkpt>
      <trkpt lat="43.67024" lon="1.55967">
        <ele>203</ele>
        <time>2026-03-26T14:22:11.000Z</time>
      </trkpt>
      <trkpt lat="43.66993" lon="1.55954">
        <ele>203.9</ele>
        <time>2026-03-26T14:22:48.000Z</time>
      </trkpt>
      <trkpt lat="43.66977" lon="1.55945">
        <ele>204.8</ele>
        <time>2026-03-26T14:23:08.000Z</time>
      </trkpt>
      <trkpt lat="43.66971" lon="1.55941">
        <ele>205.1</ele>
        <time>2026-03-26T14:23:15.000Z</time>
      </trkpt>
      <trkpt lat="43.66957" lon="1.55932">
        <ele>205.7</ele>
        <time>2026-03-26T14:23:32.000Z</time>
      </trkpt>
      <trkpt lat="43.66947" lon="1.55924">
        <ele>206.4</ele>
        <time>2026-03-26T14:23:46.000Z</time>
      </trkpt>
      <trkpt lat="43.66921" lon="1.55894">
        <ele>208.5</ele>
        <time>2026-03-26T14:24:24.000Z</time>
      </trkpt>
      <trkpt lat="43.66836" lon="1.5578">
        <ele>214.9</ele>
        <time>2026-03-26T14:26:40.000Z</time>
      </trkpt>
      <trkpt lat="43.6679" lon="1.55732">
        <ele>217.6</ele>
        <time>2026-03-26T14:27:46.000Z</time>
      </trkpt>
      <trkpt lat="43.66777" lon="1.55718">
        <ele>218</ele>
        <time>2026-03-26T14:28:05.000Z</time>
      </trkpt>
      <trkpt lat="43.66751" lon="1.55689">
        <ele>220.5</ele>
        <time>2026-03-26T14:28:43.000Z</time>
      </trkpt>
      <trkpt lat="43.6674" lon="1.55676">
        <ele>222.2</ele>
        <time>2026-03-26T14:29:00.000Z</time>
      </trkpt>
      <trkpt lat="43.66709" lon="1.55636">
        <ele>224.3</ele>
        <time>2026-03-26T14:29:49.000Z</time>
      </trkpt>
      <trkpt lat="43.66674" lon="1.55598">
        <ele>223.2</ele>
        <time>2026-03-26T14:30:40.000Z</time>
      </trkpt>
      <trkpt lat="43.66677" lon="1.5559">
        <ele>222.7</ele>
        <time>2026-03-26T14:30:47.000Z</time>
      </trkpt>
      <trkpt lat="43.66682" lon="1.55579">
        <ele>221.5</ele>
        <time>2026-03-26T14:30:58.000Z</time>
      </trkpt>
      <trkpt lat="43.66687" lon="1.55555">
        <ele>219.3</ele>
        <time>2026-03-26T14:31:18.000Z</time>
      </trkpt>
      <trkpt lat="43.66687" lon="1.55555">
        <ele>219.3</ele>
        <time>2026-03-26T14:31:19.000Z</time>
      </trkpt>
      <trkpt lat="43.66689" lon="1.55547">
        <ele>219.6</ele>
        <time>2026-03-26T14:31:26.000Z</time>
      </trkpt>
      <trkpt lat="43.66691" lon="1.55539">
        <ele>220</ele>
        <time>2026-03-26T14:31:32.000Z</time>
      </trkpt>
      <trkpt lat="43.66691" lon="1.55539">
        <ele>220</ele>
        <time>2026-03-26T14:31:32.000Z</time>
      </trkpt>
      <trkpt lat="43.66692" lon="1.55535">
        <ele>220.3</ele>
        <time>2026-03-26T14:31:35.000Z</time>
      </trkpt>
      <trkpt lat="43.66698" lon="1.55514">
        <ele>223.4</ele>
        <time>2026-03-26T14:31:54.000Z</time>
      </trkpt>
      <trkpt lat="43.66702" lon="1.5548">
        <ele>225.6</ele>
        <time>2026-03-26T14:32:23.000Z</time>
      </trkpt>
      <trkpt lat="43.66701" lon="1.55463">
        <ele>225.8</ele>
        <time>2026-03-26T14:32:37.000Z</time>
      </trkpt>
      <trkpt lat="43.667" lon="1.55448">
        <ele>226.3</ele>
        <time>2026-03-26T14:32:50.000Z</time>
      </trkpt>
      <trkpt lat="43.66696" lon="1.5541">
        <ele>226.4</ele>
        <time>2026-03-26T14:33:22.000Z</time>
      </trkpt>
      <trkpt lat="43.66695" lon="1.5539">
        <ele>227</ele>
        <time>2026-03-26T14:33:38.000Z</time>
      </trkpt>
      <trkpt lat="43.66686" lon="1.55309">
        <ele>225.4</ele>
        <time>2026-03-26T14:34:46.000Z</time>
      </trkpt>
      <trkpt lat="43.66683" lon="1.55282">
        <ele>225.1</ele>
        <time>2026-03-26T14:35:09.000Z</time>
      </trkpt>
      <trkpt lat="43.6668" lon="1.5527">
        <ele>225</ele>
        <time>2026-03-26T14:35:19.000Z</time>
      </trkpt>
      <trkpt lat="43.66676" lon="1.55261">
        <ele>224.7</ele>
        <time>2026-03-26T14:35:28.000Z</time>
      </trkpt>
      <trkpt lat="43.6667" lon="1.55252">
        <ele>224.3</ele>
        <time>2026-03-26T14:35:38.000Z</time>
      </trkpt>
      <trkpt lat="43.66669" lon="1.5525">
        <ele>224.2</ele>
        <time>2026-03-26T14:35:41.000Z</time>
      </trkpt>
      <trkpt lat="43.6666" lon="1.55238">
        <ele>224.3</ele>
        <time>2026-03-26T14:35:55.000Z</time>
      </trkpt>
      <trkpt lat="43.66627" lon="1.55205">
        <ele>224.1</ele>
        <time>2026-03-26T14:36:41.000Z</time>
      </trkpt>
      <trkpt lat="43.66603" lon="1.55183">
        <ele>223.6</ele>
        <time>2026-03-26T14:37:15.000Z</time>
      </trkpt>
      <trkpt lat="43.66574" lon="1.55156">
        <ele>223.9</ele>
        <time>2026-03-26T14:37:54.000Z</time>
      </trkpt>
      <trkpt lat="43.66557" lon="1.55141">
        <ele>223.1</ele>
        <time>2026-03-26T14:38:17.000Z</time>
      </trkpt>
      <trkpt lat="43.66527" lon="1.55125">
        <ele>223</ele>
        <time>2026-03-26T14:38:54.000Z</time>
      </trkpt>
      <trkpt lat="43.66414" lon="1.55082">
        <ele>218.9</ele>
        <time>2026-03-26T14:41:08.000Z</time>
      </trkpt>
      <trkpt lat="43.66279" lon="1.55038">
        <ele>210.1</ele>
        <time>2026-03-26T14:43:47.000Z</time>
      </trkpt>
      <trkpt lat="43.66265" lon="1.55032">
        <ele>209.6</ele>
        <time>2026-03-26T14:44:03.000Z</time>
      </trkpt>
      <trkpt lat="43.66237" lon="1.5502">
        <ele>209.2</ele>
        <time>2026-03-26T14:44:37.000Z</time>
      </trkpt>
      <trkpt lat="43.66224" lon="1.55011">
        <ele>209</ele>
        <time>2026-03-26T14:44:53.000Z</time>
      </trkpt>
      <trkpt lat="43.66201" lon="1.54991">
        <ele>208.2</ele>
        <time>2026-03-26T14:45:24.000Z</time>
      </trkpt>
      <trkpt lat="43.66182" lon="1.54967">
        <ele>208</ele>
        <time>2026-03-26T14:45:53.000Z</time>
      </trkpt>
      <trkpt lat="43.66154" lon="1.54932">
        <ele>206.8</ele>
        <time>2026-03-26T14:46:37.000Z</time>
      </trkpt>
      <trkpt lat="43.66153" lon="1.54932">
        <ele>206.8</ele>
        <time>2026-03-26T14:46:38.000Z</time>
      </trkpt>
      <trkpt lat="43.66148" lon="1.54925">
        <ele>206.5</ele>
        <time>2026-03-26T14:46:46.000Z</time>
      </trkpt>
      <trkpt lat="43.66131" lon="1.54907">
        <ele>205.9</ele>
        <time>2026-03-26T14:47:10.000Z</time>
      </trkpt>
      <trkpt lat="43.66127" lon="1.54903">
        <ele>205.8</ele>
        <time>2026-03-26T14:47:16.000Z</time>
      </trkpt>
      <trkpt lat="43.66103" lon="1.54879">
        <ele>205.1</ele>
        <time>2026-03-26T14:47:49.000Z</time>
      </trkpt>
      <trkpt lat="43.66085" lon="1.54866">
        <ele>204.4</ele>
        <time>2026-03-26T14:48:12.000Z</time>
      </trkpt>
      <trkpt lat="43.66007" lon="1.5481">
        <ele>202.8</ele>
        <time>2026-03-26T14:49:53.000Z</time>
      </trkpt>
      <trkpt lat="43.66006" lon="1.54809">
        <ele>202.6</ele>
        <time>2026-03-26T14:49:55.000Z</time>
      </trkpt>
      <trkpt lat="43.65986" lon="1.5479">
        <ele>202.9</ele>
        <time>2026-03-26T14:50:23.000Z</time>
      </trkpt>
      <trkpt lat="43.65982" lon="1.54786">
        <ele>202.9</ele>
        <time>2026-03-26T14:50:29.000Z</time>
      </trkpt>
      <trkpt lat="43.65956" lon="1.54755">
        <ele>203.4</ele>
        <time>2026-03-26T14:51:08.000Z</time>
      </trkpt>
      <trkpt lat="43.65929" lon="1.54702">
        <ele>204.7</ele>
        <time>2026-03-26T14:52:01.000Z</time>
      </trkpt>
      <trkpt lat="43.65895" lon="1.54611">
        <ele>208.4</ele>
        <time>2026-03-26T14:53:26.000Z</time>
      </trkpt>
      <trkpt lat="43.65887" lon="1.54595">
        <ele>209.6</ele>
        <time>2026-03-26T14:53:42.000Z</time>
      </trkpt>
      <trkpt lat="43.65882" lon="1.54588">
        <ele>210.1</ele>
        <time>2026-03-26T14:53:51.000Z</time>
      </trkpt>
      <trkpt lat="43.65877" lon="1.54584">
        <ele>210.4</ele>
        <time>2026-03-26T14:53:57.000Z</time>
      </trkpt>
      <trkpt lat="43.65869" lon="1.54583">
        <ele>210.7</ele>
        <time>2026-03-26T14:54:06.000Z</time>
      </trkpt>
      <trkpt lat="43.65864" lon="1.5458">
        <ele>210.9</ele>
        <time>2026-03-26T14:54:13.000Z</time>
      </trkpt>
      <trkpt lat="43.65859" lon="1.54568">
        <ele>211</ele>
        <time>2026-03-26T14:54:25.000Z</time>
      </trkpt>
      <trkpt lat="43.65858" lon="1.54561">
        <ele>211.1</ele>
        <time>2026-03-26T14:54:31.000Z</time>
      </trkpt>
      <trkpt lat="43.65862" lon="1.54547">
        <ele>211</ele>
        <time>2026-03-26T14:54:44.000Z</time>
      </trkpt>
      <trkpt lat="43.65853" lon="1.54546">
        <ele>211.2</ele>
        <time>2026-03-26T14:54:54.000Z</time>
      </trkpt>
      <trkpt lat="43.65848" lon="1.54548">
        <ele>211.3</ele>
        <time>2026-03-26T14:55:00.000Z</time>
      </trkpt>
      <trkpt lat="43.6584" lon="1.54569">
        <ele>211.4</ele>
        <time>2026-03-26T14:55:20.000Z</time>
      </trkpt>
      <trkpt lat="43.65836" lon="1.54573">
        <ele>211.3</ele>
        <time>2026-03-26T14:55:25.000Z</time>
      </trkpt>
      <trkpt lat="43.65831" lon="1.54573">
        <ele>211.1</ele>
        <time>2026-03-26T14:55:31.000Z</time>
      </trkpt>
      <trkpt lat="43.65828" lon="1.54571">
        <ele>210.8</ele>
        <time>2026-03-26T14:55:35.000Z</time>
      </trkpt>
      <trkpt lat="43.65826" lon="1.5457">
        <ele>210.6</ele>
        <time>2026-03-26T14:55:37.000Z</time>
      </trkpt>
      <trkpt lat="43.65807" lon="1.54553">
        <ele>211</ele>
        <time>2026-03-26T14:56:03.000Z</time>
      </trkpt>
      <trkpt lat="43.658" lon="1.54546">
        <ele>209.5</ele>
        <time>2026-03-26T14:56:13.000Z</time>
      </trkpt>
      <trkpt lat="43.65785" lon="1.5453">
        <ele>207.6</ele>
        <time>2026-03-26T14:56:35.000Z</time>
      </trkpt>
      <trkpt lat="43.65767" lon="1.54504">
        <ele>206.3</ele>
        <time>2026-03-26T14:57:05.000Z</time>
      </trkpt>
      <trkpt lat="43.6574" lon="1.54461">
        <ele>204.4</ele>
        <time>2026-03-26T14:57:52.000Z</time>
      </trkpt>
      <trkpt lat="43.65722" lon="1.54429">
        <ele>203</ele>
        <time>2026-03-26T14:58:25.000Z</time>
      </trkpt>
      <trkpt lat="43.6572" lon="1.54424">
        <ele>202.8</ele>
        <time>2026-03-26T14:58:30.000Z</time>
      </trkpt>
      <trkpt lat="43.6571" lon="1.54408">
        <ele>201.9</ele>
        <time>2026-03-26T14:58:48.000Z</time>
      </trkpt>
      <trkpt lat="43.65703" lon="1.54395">
        <ele>201.4</ele>
        <time>2026-03-26T14:59:02.000Z</time>
      </trkpt>
      <trkpt lat="43.65692" lon="1.54372">
        <ele>200.4</ele>
        <time>2026-03-26T14:59:24.000Z</time>
      </trkpt>
      <trkpt lat="43.65676" lon="1.54332">
        <ele>200</ele>
        <time>2026-03-26T15:00:03.000Z</time>
      </trkpt>
      <trkpt lat="43.65659" lon="1.54277">
        <ele>198.7</ele>
        <time>2026-03-26T15:00:52.000Z</time>
      </trkpt>
      <trkpt lat="43.65621" lon="1.54139">
        <ele>200.4</ele>
        <time>2026-03-26T15:02:54.000Z</time>
      </trkpt>
      <trkpt lat="43.65609" lon="1.54092">
        <ele>199.7</ele>
        <time>2026-03-26T15:03:36.000Z</time>
      </trkpt>
      <trkpt lat="43.65597" lon="1.54032">
        <ele>197.9</ele>
        <time>2026-03-26T15:04:27.000Z</time>
      </trkpt>
      <trkpt lat="43.65591" lon="1.54002">
        <ele>198</ele>
        <time>2026-03-26T15:04:53.000Z</time>
      </trkpt>
      <trkpt lat="43.65569" lon="1.53887">
        <ele>193.4</ele>
        <time>2026-03-26T15:06:31.000Z</time>
      </trkpt>
      <trkpt lat="43.65557" lon="1.53824">
        <ele>191.7</ele>
        <time>2026-03-26T15:07:25.000Z</time>
      </trkpt>
      <trkpt lat="43.65558" lon="1.5381">
        <ele>191.2</ele>
        <time>2026-03-26T15:07:37.000Z</time>
      </trkpt>
      <trkpt lat="43.65583" lon="1.53771">
        <ele>190.5</ele>
        <time>2026-03-26T15:08:20.000Z</time>
      </trkpt>
      <trkpt lat="43.65608" lon="1.53739">
        <ele>189.5</ele>
        <time>2026-03-26T15:09:00.000Z</time>
      </trkpt>
      <trkpt lat="43.65611" lon="1.53731">
        <ele>189.3</ele>
        <time>2026-03-26T15:09:07.000Z</time>
      </trkpt>
      <trkpt lat="43.65612" lon="1.53687">
        <ele>187.8</ele>
        <time>2026-03-26T15:09:43.000Z</time>
      </trkpt>
      <trkpt lat="43.65626" lon="1.53641">
        <ele>186.6</ele>
        <time>2026-03-26T15:10:24.000Z</time>
      </trkpt>
      <trkpt lat="43.65631" lon="1.53617">
        <ele>185.9</ele>
        <time>2026-03-26T15:10:45.000Z</time>
      </trkpt>
      <trkpt lat="43.65635" lon="1.53591">
        <ele>183.8</ele>
        <time>2026-03-26T15:11:06.000Z</time>
      </trkpt>
      <trkpt lat="43.65645" lon="1.53505">
        <ele>178.2</ele>
        <time>2026-03-26T15:12:18.000Z</time>
      </trkpt>
      <trkpt lat="43.65649" lon="1.53455">
        <ele>175</ele>
        <time>2026-03-26T15:13:00.000Z</time>
      </trkpt>
      <trkpt lat="43.65654" lon="1.53396">
        <ele>170.8</ele>
        <time>2026-03-26T15:13:50.000Z</time>
      </trkpt>
      <trkpt lat="43.65668" lon="1.53227">
        <ele>159.2</ele>
        <time>2026-03-26T15:16:10.000Z</time>
      </trkpt>
      <trkpt lat="43.6567" lon="1.53205">
        <ele>158.6</ele>
        <time>2026-03-26T15:16:29.000Z</time>
      </trkpt>
      <trkpt lat="43.65673" lon="1.53195">
        <ele>158.4</ele>
        <time>2026-03-26T15:16:38.000Z</time>
      </trkpt>
      <trkpt lat="43.65676" lon="1.53186">
        <ele>158.9</ele>
        <time>2026-03-26T15:16:47.000Z</time>
      </trkpt>
      <trkpt lat="43.65675" lon="1.53183">
        <ele>158.9</ele>
        <time>2026-03-26T15:16:50.000Z</time>
      </trkpt>
      <trkpt lat="43.65673" lon="1.53175">
        <ele>159</ele>
        <time>2026-03-26T15:16:57.000Z</time>
      </trkpt>
      <trkpt lat="43.6567" lon="1.53162">
        <ele>159.3</ele>
        <time>2026-03-26T15:17:08.000Z</time>
      </trkpt>
      <trkpt lat="43.65669" lon="1.53138">
        <ele>160</ele>
        <time>2026-03-26T15:17:28.000Z</time>
      </trkpt>
      <trkpt lat="43.65668" lon="1.53133">
        <ele>160.2</ele>
        <time>2026-03-26T15:17:32.000Z</time>
      </trkpt>
      <trkpt lat="43.65691" lon="1.53125">
        <ele>161</ele>
        <time>2026-03-26T15:18:00.000Z</time>
      </trkpt>
      <trkpt lat="43.65705" lon="1.53122">
        <ele>161.2</ele>
        <time>2026-03-26T15:18:16.000Z</time>
      </trkpt>
      <trkpt lat="43.65734" lon="1.53119">
        <ele>160.9</ele>
        <time>2026-03-26T15:18:50.000Z</time>
      </trkpt>
      <trkpt lat="43.65743" lon="1.53117">
        <ele>160.6</ele>
        <time>2026-03-26T15:19:00.000Z</time>
      </trkpt>
      <trkpt lat="43.65751" lon="1.53115">
        <ele>160.2</ele>
        <time>2026-03-26T15:19:09.000Z</time>
      </trkpt>
      <trkpt lat="43.65749" lon="1.53101">
        <ele>160.1</ele>
        <time>2026-03-26T15:19:21.000Z</time>
      </trkpt>
      <trkpt lat="43.65749" lon="1.531">
        <ele>160.1</ele>
        <time>2026-03-26T15:19:22.000Z</time>
      </trkpt>
      <trkpt lat="43.65748" lon="1.53092">
        <ele>160.2</ele>
        <time>2026-03-26T15:19:29.000Z</time>
      </trkpt>
      <trkpt lat="43.65745" lon="1.53075">
        <ele>160.2</ele>
        <time>2026-03-26T15:19:44.000Z</time>
      </trkpt>
      <trkpt lat="43.65745" lon="1.53039">
        <ele>160.4</ele>
        <time>2026-03-26T15:20:13.000Z</time>
      </trkpt>
      <trkpt lat="43.65747" lon="1.53008">
        <ele>160.8</ele>
        <time>2026-03-26T15:20:39.000Z</time>
      </trkpt>
      <trkpt lat="43.65748" lon="1.52986">
        <ele>160.8</ele>
        <time>2026-03-26T15:20:58.000Z</time>
      </trkpt>
      <trkpt lat="43.6575" lon="1.52956">
        <ele>161</ele>
        <time>2026-03-26T15:21:23.000Z</time>
      </trkpt>
      <trkpt lat="43.65756" lon="1.52925">
        <ele>161.6</ele>
        <time>2026-03-26T15:21:49.000Z</time>
      </trkpt>
      <trkpt lat="43.65766" lon="1.52881">
        <ele>161.6</ele>
        <time>2026-03-26T15:22:28.000Z</time>
      </trkpt>
      <trkpt lat="43.65774" lon="1.5285">
        <ele>161.9</ele>
        <time>2026-03-26T15:22:55.000Z</time>
      </trkpt>
      <trkpt lat="43.65778" lon="1.52836">
        <ele>162</ele>
        <time>2026-03-26T15:23:08.000Z</time>
      </trkpt>
      <trkpt lat="43.65784" lon="1.52822">
        <ele>162.5</ele>
        <time>2026-03-26T15:23:22.000Z</time>
      </trkpt>
      <trkpt lat="43.65784" lon="1.52819">
        <ele>162.6</ele>
        <time>2026-03-26T15:23:25.000Z</time>
      </trkpt>
      <trkpt lat="43.65788" lon="1.52803">
        <ele>163</ele>
        <time>2026-03-26T15:23:39.000Z</time>
      </trkpt>
      <trkpt lat="43.65795" lon="1.52771">
        <ele>163</ele>
        <time>2026-03-26T15:24:07.000Z</time>
      </trkpt>
      <trkpt lat="43.65782" lon="1.52767">
        <ele>163</ele>
        <time>2026-03-26T15:24:23.000Z</time>
      </trkpt>
      <trkpt lat="43.65773" lon="1.52765">
        <ele>162.9</ele>
        <time>2026-03-26T15:24:34.000Z</time>
      </trkpt>
      <trkpt lat="43.6577" lon="1.52764">
        <ele>162.9</ele>
        <time>2026-03-26T15:24:37.000Z</time>
      </trkpt>
      <trkpt lat="43.65758" lon="1.52761">
        <ele>162.7</ele>
        <time>2026-03-26T15:24:51.000Z</time>
      </trkpt>
      <trkpt lat="43.65752" lon="1.5276">
        <ele>162.7</ele>
        <time>2026-03-26T15:24:57.000Z</time>
      </trkpt>
      <trkpt lat="43.65751" lon="1.52759">
        <ele>162.7</ele>
        <time>2026-03-26T15:24:58.000Z</time>
      </trkpt>
      <trkpt lat="43.65709" lon="1.52748">
        <ele>165</ele>
        <time>2026-03-26T15:25:48.000Z</time>
      </trkpt>
      <trkpt lat="43.65668" lon="1.52734">
        <ele>168.7</ele>
        <time>2026-03-26T15:26:35.000Z</time>
      </trkpt>
      <trkpt lat="43.65667" lon="1.52734">
        <ele>168.8</ele>
        <time>2026-03-26T15:26:37.000Z</time>
      </trkpt>
      <trkpt lat="43.65649" lon="1.52726">
        <ele>170.1</ele>
        <time>2026-03-26T15:26:58.000Z</time>
      </trkpt>
      <trkpt lat="43.65632" lon="1.52715">
        <ele>171.5</ele>
        <time>2026-03-26T15:27:20.000Z</time>
      </trkpt>
      <trkpt lat="43.65631" lon="1.52714">
        <ele>171.6</ele>
        <time>2026-03-26T15:27:21.000Z</time>
      </trkpt>
      <trkpt lat="43.65622" lon="1.52703">
        <ele>172.2</ele>
        <time>2026-03-26T15:27:35.000Z</time>
      </trkpt>
      <trkpt lat="43.65617" lon="1.52697">
        <ele>172.6</ele>
        <time>2026-03-26T15:27:42.000Z</time>
      </trkpt>
      <trkpt lat="43.65613" lon="1.52689">
        <ele>173.2</ele>
        <time>2026-03-26T15:27:50.000Z</time>
      </trkpt>
      <trkpt lat="43.6561" lon="1.5268">
        <ele>174.2</ele>
        <time>2026-03-26T15:27:59.000Z</time>
      </trkpt>
      <trkpt lat="43.65607" lon="1.52657">
        <ele>176.1</ele>
        <time>2026-03-26T15:28:18.000Z</time>
      </trkpt>
      <trkpt lat="43.65609" lon="1.52634">
        <ele>177.5</ele>
        <time>2026-03-26T15:28:37.000Z</time>
      </trkpt>
      <trkpt lat="43.65624" lon="1.52586">
        <ele>180.3</ele>
        <time>2026-03-26T15:29:20.000Z</time>
      </trkpt>
      <trkpt lat="43.65627" lon="1.52562">
        <ele>181.9</ele>
        <time>2026-03-26T15:29:40.000Z</time>
      </trkpt>
      <trkpt lat="43.65628" lon="1.5255">
        <ele>182.7</ele>
        <time>2026-03-26T15:29:50.000Z</time>
      </trkpt>
      <trkpt lat="43.65626" lon="1.52521">
        <ele>184.4</ele>
        <time>2026-03-26T15:30:14.000Z</time>
      </trkpt>
      <trkpt lat="43.65623" lon="1.52504">
        <ele>185.3</ele>
        <time>2026-03-26T15:30:28.000Z</time>
      </trkpt>
      <trkpt lat="43.65619" lon="1.52491">
        <ele>186.3</ele>
        <time>2026-03-26T15:30:40.000Z</time>
      </trkpt>
      <trkpt lat="43.65611" lon="1.52474">
        <ele>187.8</ele>
        <time>2026-03-26T15:30:56.000Z</time>
      </trkpt>
      <trkpt lat="43.6561" lon="1.52473">
        <ele>188</ele>
        <time>2026-03-26T15:30:58.000Z</time>
      </trkpt>
      <trkpt lat="43.65598" lon="1.52451">
        <ele>189.7</ele>
        <time>2026-03-26T15:31:21.000Z</time>
      </trkpt>
      <trkpt lat="43.65542" lon="1.52358">
        <ele>197.2</ele>
        <time>2026-03-26T15:33:01.000Z</time>
      </trkpt>
      <trkpt lat="43.65529" lon="1.52337">
        <ele>198.8</ele>
        <time>2026-03-26T15:33:24.000Z</time>
      </trkpt>
      <trkpt lat="43.65514" lon="1.52314">
        <ele>200.7</ele>
        <time>2026-03-26T15:33:50.000Z</time>
      </trkpt>
      <trkpt lat="43.65509" lon="1.52308">
        <ele>201</ele>
        <time>2026-03-26T15:33:58.000Z</time>
      </trkpt>
      <trkpt lat="43.65504" lon="1.52304">
        <ele>201</ele>
        <time>2026-03-26T15:34:04.000Z</time>
      </trkpt>
      <trkpt lat="43.65502" lon="1.52302">
        <ele>201.1</ele>
        <time>2026-03-26T15:34:07.000Z</time>
      </trkpt>
      <trkpt lat="43.65498" lon="1.52301">
        <ele>201.2</ele>
        <time>2026-03-26T15:34:12.000Z</time>
      </trkpt>
      <trkpt lat="43.65492" lon="1.52296">
        <ele>201.5</ele>
        <time>2026-03-26T15:34:21.000Z</time>
      </trkpt>
      <trkpt lat="43.65488" lon="1.52293">
        <ele>201.7</ele>
        <time>2026-03-26T15:34:25.000Z</time>
      </trkpt>
      <trkpt lat="43.65481" lon="1.52284">
        <ele>201.9</ele>
        <time>2026-03-26T15:34:36.000Z</time>
      </trkpt>
      <trkpt lat="43.65479" lon="1.52282">
        <ele>202</ele>
        <time>2026-03-26T15:34:39.000Z</time>
      </trkpt>
      <trkpt lat="43.65478" lon="1.52276">
        <ele>202</ele>
        <time>2026-03-26T15:34:44.000Z</time>
      </trkpt>
      <trkpt lat="43.65475" lon="1.52271">
        <ele>202</ele>
        <time>2026-03-26T15:34:49.000Z</time>
      </trkpt>
      <trkpt lat="43.65471" lon="1.52267">
        <ele>202</ele>
        <time>2026-03-26T15:34:55.000Z</time>
      </trkpt>
      <trkpt lat="43.65467" lon="1.52264">
        <ele>202</ele>
        <time>2026-03-26T15:35:00.000Z</time>
      </trkpt>
      <trkpt lat="43.65461" lon="1.52263">
        <ele>202</ele>
        <time>2026-03-26T15:35:06.000Z</time>
      </trkpt>
      <trkpt lat="43.65457" lon="1.52264">
        <ele>202</ele>
        <time>2026-03-26T15:35:11.000Z</time>
      </trkpt>
      <trkpt lat="43.65453" lon="1.52267">
        <ele>202</ele>
        <time>2026-03-26T15:35:16.000Z</time>
      </trkpt>
      <trkpt lat="43.6545" lon="1.52263">
        <ele>202</ele>
        <time>2026-03-26T15:35:20.000Z</time>
      </trkpt>
      <trkpt lat="43.65448" lon="1.52257">
        <ele>202</ele>
        <time>2026-03-26T15:35:26.000Z</time>
      </trkpt>
      <trkpt lat="43.65444" lon="1.52242">
        <ele>202</ele>
        <time>2026-03-26T15:35:39.000Z</time>
      </trkpt>
      <trkpt lat="43.65445" lon="1.52227">
        <ele>202</ele>
        <time>2026-03-26T15:35:52.000Z</time>
      </trkpt>
      <trkpt lat="43.65444" lon="1.52211">
        <ele>201.6</ele>
        <time>2026-03-26T15:36:05.000Z</time>
      </trkpt>
      <trkpt lat="43.65446" lon="1.52196">
        <ele>201</ele>
        <time>2026-03-26T15:36:17.000Z</time>
      </trkpt>
      <trkpt lat="43.65447" lon="1.5218">
        <ele>201</ele>
        <time>2026-03-26T15:36:30.000Z</time>
      </trkpt>
      <trkpt lat="43.65449" lon="1.5218">
        <ele>201</ele>
        <time>2026-03-26T15:36:33.000Z</time>
      </trkpt>
      <trkpt lat="43.65453" lon="1.52178">
        <ele>201</ele>
        <time>2026-03-26T15:36:38.000Z</time>
      </trkpt>
      <trkpt lat="43.65457" lon="1.52174">
        <ele>201</ele>
        <time>2026-03-26T15:36:43.000Z</time>
      </trkpt>
      <trkpt lat="43.65459" lon="1.52169">
        <ele>201</ele>
        <time>2026-03-26T15:36:48.000Z</time>
      </trkpt>
      <trkpt lat="43.6546" lon="1.52163">
        <ele>200.9</ele>
        <time>2026-03-26T15:36:54.000Z</time>
      </trkpt>
      <trkpt lat="43.6546" lon="1.52158">
        <ele>200.7</ele>
        <time>2026-03-26T15:36:58.000Z</time>
      </trkpt>
      <trkpt lat="43.6546" lon="1.52152">
        <ele>200.5</ele>
        <time>2026-03-26T15:37:03.000Z</time>
      </trkpt>
      <trkpt lat="43.65458" lon="1.52147">
        <ele>200.3</ele>
        <time>2026-03-26T15:37:07.000Z</time>
      </trkpt>
      <trkpt lat="43.65456" lon="1.52142">
        <ele>200.1</ele>
        <time>2026-03-26T15:37:12.000Z</time>
      </trkpt>
      <trkpt lat="43.65452" lon="1.52138">
        <ele>200</ele>
        <time>2026-03-26T15:37:17.000Z</time>
      </trkpt>
      <trkpt lat="43.65455" lon="1.52129">
        <ele>199.8</ele>
        <time>2026-03-26T15:37:25.000Z</time>
      </trkpt>
      <trkpt lat="43.65458" lon="1.52124">
        <ele>199.7</ele>
        <time>2026-03-26T15:37:31.000Z</time>
      </trkpt>
      <trkpt lat="43.65459" lon="1.52117">
        <ele>199.6</ele>
        <time>2026-03-26T15:37:37.000Z</time>
      </trkpt>
      <trkpt lat="43.65461" lon="1.52105">
        <ele>199.4</ele>
        <time>2026-03-26T15:37:47.000Z</time>
      </trkpt>
      <trkpt lat="43.6546" lon="1.52093">
        <ele>198.9</ele>
        <time>2026-03-26T15:37:57.000Z</time>
      </trkpt>
      <trkpt lat="43.65459" lon="1.52083">
        <ele>198.5</ele>
        <time>2026-03-26T15:38:05.000Z</time>
      </trkpt>
      <trkpt lat="43.65457" lon="1.52075">
        <ele>198</ele>
        <time>2026-03-26T15:38:12.000Z</time>
      </trkpt>
      <trkpt lat="43.65453" lon="1.52067">
        <ele>197.3</ele>
        <time>2026-03-26T15:38:20.000Z</time>
      </trkpt>
      <trkpt lat="43.65448" lon="1.52058">
        <ele>196.5</ele>
        <time>2026-03-26T15:38:29.000Z</time>
      </trkpt>
      <trkpt lat="43.65439" lon="1.52047">
        <ele>194.7</ele>
        <time>2026-03-26T15:38:44.000Z</time>
      </trkpt>
      <trkpt lat="43.65426" lon="1.52031">
        <ele>192.6</ele>
        <time>2026-03-26T15:39:03.000Z</time>
      </trkpt>
      <trkpt lat="43.65406" lon="1.52007">
        <ele>190</ele>
        <time>2026-03-26T15:39:35.000Z</time>
      </trkpt>
      <trkpt lat="43.65387" lon="1.51984">
        <ele>188.4</ele>
        <time>2026-03-26T15:40:03.000Z</time>
      </trkpt>
      <trkpt lat="43.65373" lon="1.51967">
        <ele>187.2</ele>
        <time>2026-03-26T15:40:25.000Z</time>
      </trkpt>
      <trkpt lat="43.65365" lon="1.51956">
        <ele>186.1</ele>
        <time>2026-03-26T15:40:38.000Z</time>
      </trkpt>
      <trkpt lat="43.65359" lon="1.51949">
        <ele>185.2</ele>
        <time>2026-03-26T15:40:47.000Z</time>
      </trkpt>
      <trkpt lat="43.65356" lon="1.5194">
        <ele>184.3</ele>
        <time>2026-03-26T15:40:55.000Z</time>
      </trkpt>
      <trkpt lat="43.65353" lon="1.51929">
        <ele>183.3</ele>
        <time>2026-03-26T15:41:05.000Z</time>
      </trkpt>
      <trkpt lat="43.6535" lon="1.51918">
        <ele>182.3</ele>
        <time>2026-03-26T15:41:15.000Z</time>
      </trkpt>
      <trkpt lat="43.65348" lon="1.51909">
        <ele>181.5</ele>
        <time>2026-03-26T15:41:23.000Z</time>
      </trkpt>
      <trkpt lat="43.65343" lon="1.519">
        <ele>180.5</ele>
        <time>2026-03-26T15:41:32.000Z</time>
      </trkpt>
      <trkpt lat="43.65338" lon="1.51894">
        <ele>179.7</ele>
        <time>2026-03-26T15:41:40.000Z</time>
      </trkpt>
      <trkpt lat="43.6532" lon="1.51872">
        <ele>178.2</ele>
        <time>2026-03-26T15:42:07.000Z</time>
      </trkpt>
      <trkpt lat="43.65302" lon="1.51849">
        <ele>176.8</ele>
        <time>2026-03-26T15:42:35.000Z</time>
      </trkpt>
      <trkpt lat="43.65282" lon="1.51825">
        <ele>173.8</ele>
        <time>2026-03-26T15:43:05.000Z</time>
      </trkpt>
      <trkpt lat="43.65263" lon="1.51802">
        <ele>171.3</ele>
        <time>2026-03-26T15:43:34.000Z</time>
      </trkpt>
      <trkpt lat="43.6526" lon="1.51799">
        <ele>171.1</ele>
        <time>2026-03-26T15:43:38.000Z</time>
      </trkpt>
      <trkpt lat="43.65245" lon="1.5178">
        <ele>169.9</ele>
        <time>2026-03-26T15:44:02.000Z</time>
      </trkpt>
      <trkpt lat="43.65238" lon="1.51771">
        <ele>169.3</ele>
        <time>2026-03-26T15:44:13.000Z</time>
      </trkpt>
      <trkpt lat="43.65234" lon="1.51765">
        <ele>169</ele>
        <time>2026-03-26T15:44:19.000Z</time>
      </trkpt>
      <trkpt lat="43.65231" lon="1.51759">
        <ele>168.6</ele>
        <time>2026-03-26T15:44:25.000Z</time>
      </trkpt>
      <trkpt lat="43.65228" lon="1.5175">
        <ele>168.2</ele>
        <time>2026-03-26T15:44:33.000Z</time>
      </trkpt>
      <trkpt lat="43.65225" lon="1.5174">
        <ele>167.7</ele>
        <time>2026-03-26T15:44:42.000Z</time>
      </trkpt>
      <trkpt lat="43.65223" lon="1.51729">
        <ele>167.3</ele>
        <time>2026-03-26T15:44:51.000Z</time>
      </trkpt>
      <trkpt lat="43.6522" lon="1.51723">
        <ele>166.9</ele>
        <time>2026-03-26T15:44:57.000Z</time>
      </trkpt>
      <trkpt lat="43.65217" lon="1.51716">
        <ele>166.2</ele>
        <time>2026-03-26T15:45:04.000Z</time>
      </trkpt>
      <trkpt lat="43.65213" lon="1.51709">
        <ele>165.4</ele>
        <time>2026-03-26T15:45:12.000Z</time>
      </trkpt>
      <trkpt lat="43.65192" lon="1.51684">
        <ele>162.1</ele>
        <time>2026-03-26T15:45:44.000Z</time>
      </trkpt>
      <trkpt lat="43.65178" lon="1.51668">
        <ele>159.9</ele>
        <time>2026-03-26T15:46:05.000Z</time>
      </trkpt>
      <trkpt lat="43.65168" lon="1.51655">
        <ele>158.7</ele>
        <time>2026-03-26T15:46:20.000Z</time>
      </trkpt>
      <trkpt lat="43.65163" lon="1.5165">
        <ele>158.3</ele>
        <time>2026-03-26T15:46:28.000Z</time>
      </trkpt>
      <trkpt lat="43.65156" lon="1.51646">
        <ele>157.9</ele>
        <time>2026-03-26T15:46:37.000Z</time>
      </trkpt>
      <trkpt lat="43.65148" lon="1.51643">
        <ele>157.6</ele>
        <time>2026-03-26T15:46:46.000Z</time>
      </trkpt>
      <trkpt lat="43.6514" lon="1.51643">
        <ele>157.3</ele>
        <time>2026-03-26T15:46:56.000Z</time>
      </trkpt>
      <trkpt lat="43.65131" lon="1.51641">
        <ele>156.6</ele>
        <time>2026-03-26T15:47:06.000Z</time>
      </trkpt>
      <trkpt lat="43.65124" lon="1.51638">
        <ele>155.9</ele>
        <time>2026-03-26T15:47:14.000Z</time>
      </trkpt>
      <trkpt lat="43.65118" lon="1.51634">
        <ele>155.5</ele>
        <time>2026-03-26T15:47:22.000Z</time>
      </trkpt>
      <trkpt lat="43.65112" lon="1.51629">
        <ele>155.1</ele>
        <time>2026-03-26T15:47:30.000Z</time>
      </trkpt>
      <trkpt lat="43.65107" lon="1.51624">
        <ele>154.7</ele>
        <time>2026-03-26T15:47:38.000Z</time>
      </trkpt>
      <trkpt lat="43.65102" lon="1.51615">
        <ele>154.2</ele>
        <time>2026-03-26T15:47:47.000Z</time>
      </trkpt>
      <trkpt lat="43.65097" lon="1.51605">
        <ele>153.4</ele>
        <time>2026-03-26T15:47:57.000Z</time>
      </trkpt>
      <trkpt lat="43.65093" lon="1.51596">
        <ele>152.8</ele>
        <time>2026-03-26T15:48:06.000Z</time>
      </trkpt>
      <trkpt lat="43.6509" lon="1.51585">
        <ele>152.5</ele>
        <time>2026-03-26T15:48:15.000Z</time>
      </trkpt>
      <trkpt lat="43.65088" lon="1.51576">
        <ele>152</ele>
        <time>2026-03-26T15:48:23.000Z</time>
      </trkpt>
      <trkpt lat="43.65087" lon="1.51567">
        <ele>151.6</ele>
        <time>2026-03-26T15:48:30.000Z</time>
      </trkpt>
      <trkpt lat="43.65088" lon="1.51559">
        <ele>151.3</ele>
        <time>2026-03-26T15:48:37.000Z</time>
      </trkpt>
      <trkpt lat="43.6509" lon="1.51549">
        <ele>150.9</ele>
        <time>2026-03-26T15:48:45.000Z</time>
      </trkpt>
      <trkpt lat="43.65092" lon="1.51541">
        <ele>150.6</ele>
        <time>2026-03-26T15:48:52.000Z</time>
      </trkpt>
      <trkpt lat="43.65092" lon="1.51531">
        <ele>150.1</ele>
        <time>2026-03-26T15:49:00.000Z</time>
      </trkpt>
      <trkpt lat="43.6509" lon="1.51521">
        <ele>149.7</ele>
        <time>2026-03-26T15:49:08.000Z</time>
      </trkpt>
      <trkpt lat="43.65088" lon="1.51513">
        <ele>149.4</ele>
        <time>2026-03-26T15:49:15.000Z</time>
      </trkpt>
      <trkpt lat="43.65086" lon="1.51507">
        <ele>149.2</ele>
        <time>2026-03-26T15:49:21.000Z</time>
      </trkpt>
      <trkpt lat="43.65084" lon="1.51508">
        <ele>149.1</ele>
        <time>2026-03-26T15:49:23.000Z</time>
      </trkpt>
      <trkpt lat="43.65083" lon="1.51509">
        <ele>149</ele>
        <time>2026-03-26T15:49:24.000Z</time>
      </trkpt>
      <trkpt lat="43.6508" lon="1.5151">
        <ele>149</ele>
        <time>2026-03-26T15:49:28.000Z</time>
      </trkpt>
      <trkpt lat="43.65074" lon="1.5151">
        <ele>149</ele>
        <time>2026-03-26T15:49:35.000Z</time>
      </trkpt>
      <trkpt lat="43.65071" lon="1.51509">
        <ele>149</ele>
        <time>2026-03-26T15:49:39.000Z</time>
      </trkpt>
      <trkpt lat="43.65068" lon="1.51507">
        <ele>149</ele>
        <time>2026-03-26T15:49:43.000Z</time>
      </trkpt>
      <trkpt lat="43.65065" lon="1.51505">
        <ele>149</ele>
        <time>2026-03-26T15:49:47.000Z</time>
      </trkpt>
      <trkpt lat="43.65061" lon="1.51496">
        <ele>149</ele>
        <time>2026-03-26T15:49:56.000Z</time>
      </trkpt>
      <trkpt lat="43.6506" lon="1.5149">
        <ele>149.1</ele>
        <time>2026-03-26T15:50:01.000Z</time>
      </trkpt>
      <trkpt lat="43.65059" lon="1.51485">
        <ele>149.1</ele>
        <time>2026-03-26T15:50:06.000Z</time>
      </trkpt>
      <trkpt lat="43.6506" lon="1.51479">
        <ele>149.1</ele>
        <time>2026-03-26T15:50:11.000Z</time>
      </trkpt>
      <trkpt lat="43.65059" lon="1.51468">
        <ele>149.1</ele>
        <time>2026-03-26T15:50:21.000Z</time>
      </trkpt>
      <trkpt lat="43.65058" lon="1.51464">
        <ele>149.1</ele>
        <time>2026-03-26T15:50:24.000Z</time>
      </trkpt>
      <trkpt lat="43.65057" lon="1.5146">
        <ele>149</ele>
        <time>2026-03-26T15:50:27.000Z</time>
      </trkpt>
      <trkpt lat="43.65053" lon="1.51453">
        <ele>148.9</ele>
        <time>2026-03-26T15:50:35.000Z</time>
      </trkpt>
      <trkpt lat="43.65052" lon="1.51452">
        <ele>148.9</ele>
        <time>2026-03-26T15:50:36.000Z</time>
      </trkpt>
      <trkpt lat="43.65048" lon="1.51446">
        <ele>148.7</ele>
        <time>2026-03-26T15:50:42.000Z</time>
      </trkpt>
      <trkpt lat="43.65048" lon="1.51446">
        <ele>148.7</ele>
        <time>2026-03-26T15:50:43.000Z</time>
      </trkpt>
      <trkpt lat="43.65044" lon="1.51439">
        <ele>148.5</ele>
        <time>2026-03-26T15:50:50.000Z</time>
      </trkpt>
      <trkpt lat="43.65042" lon="1.51433">
        <ele>148.3</ele>
        <time>2026-03-26T15:50:56.000Z</time>
      </trkpt>
      <trkpt lat="43.6504" lon="1.51427">
        <ele>148.2</ele>
        <time>2026-03-26T15:51:01.000Z</time>
      </trkpt>
      <trkpt lat="43.65036" lon="1.51408">
        <ele>148</ele>
        <time>2026-03-26T15:51:17.000Z</time>
      </trkpt>
      <trkpt lat="43.65036" lon="1.51407">
        <ele>148</ele>
        <time>2026-03-26T15:51:18.000Z</time>
      </trkpt>
      <trkpt lat="43.65034" lon="1.51396">
        <ele>148</ele>
        <time>2026-03-26T15:51:27.000Z</time>
      </trkpt>
      <trkpt lat="43.65033" lon="1.51393">
        <ele>148</ele>
        <time>2026-03-26T15:51:30.000Z</time>
      </trkpt>
      <trkpt lat="43.65027" lon="1.51364">
        <ele>148</ele>
        <time>2026-03-26T15:51:55.000Z</time>
      </trkpt>
      <trkpt lat="43.65022" lon="1.51335">
        <ele>148</ele>
        <time>2026-03-26T15:52:20.000Z</time>
      </trkpt>
      <trkpt lat="43.65017" lon="1.51317">
        <ele>148.4</ele>
        <time>2026-03-26T15:52:36.000Z</time>
      </trkpt>
      <trkpt lat="43.65015" lon="1.51311">
        <ele>148.4</ele>
        <time>2026-03-26T15:52:41.000Z</time>
      </trkpt>
      <trkpt lat="43.65013" lon="1.51305">
        <ele>148.5</ele>
        <time>2026-03-26T15:52:47.000Z</time>
      </trkpt>
      <trkpt lat="43.65009" lon="1.51296">
        <ele>148.6</ele>
        <time>2026-03-26T15:52:55.000Z</time>
      </trkpt>
      <trkpt lat="43.65005" lon="1.51284">
        <ele>148.4</ele>
        <time>2026-03-26T15:53:06.000Z</time>
      </trkpt>
      <trkpt lat="43.65002" lon="1.51278">
        <ele>148.2</ele>
        <time>2026-03-26T15:53:12.000Z</time>
      </trkpt>
      <trkpt lat="43.65" lon="1.51272">
        <ele>148.2</ele>
        <time>2026-03-26T15:53:17.000Z</time>
      </trkpt>
      <trkpt lat="43.6499" lon="1.51246">
        <ele>148.4</ele>
        <time>2026-03-26T15:53:41.000Z</time>
      </trkpt>
      <trkpt lat="43.64982" lon="1.51218">
        <ele>148.2</ele>
        <time>2026-03-26T15:54:06.000Z</time>
      </trkpt>
      <trkpt lat="43.64975" lon="1.51191">
        <ele>148.3</ele>
        <time>2026-03-26T15:54:30.000Z</time>
      </trkpt>
      <trkpt lat="43.64971" lon="1.51173">
        <ele>147.9</ele>
        <time>2026-03-26T15:54:46.000Z</time>
      </trkpt>
      <trkpt lat="43.64969" lon="1.51165">
        <ele>147.7</ele>
        <time>2026-03-26T15:54:53.000Z</time>
      </trkpt>
      <trkpt lat="43.64968" lon="1.51157">
        <ele>147.3</ele>
        <time>2026-03-26T15:55:00.000Z</time>
      </trkpt>
      <trkpt lat="43.64966" lon="1.51148">
        <ele>146.9</ele>
        <time>2026-03-26T15:55:07.000Z</time>
      </trkpt>
      <trkpt lat="43.64964" lon="1.51137">
        <ele>146.4</ele>
        <time>2026-03-26T15:55:17.000Z</time>
      </trkpt>
      <trkpt lat="43.64963" lon="1.51134">
        <ele>146.4</ele>
        <time>2026-03-26T15:55:20.000Z</time>
      </trkpt>
      <trkpt lat="43.64962" lon="1.51131">
        <ele>146.4</ele>
        <time>2026-03-26T15:55:23.000Z</time>
      </trkpt>
      <trkpt lat="43.64962" lon="1.51126">
        <ele>146.4</ele>
        <time>2026-03-26T15:55:27.000Z</time>
      </trkpt>
      <trkpt lat="43.64962" lon="1.51125">
        <ele>146.4</ele>
        <time>2026-03-26T15:55:28.000Z</time>
      </trkpt>
      <trkpt lat="43.6496" lon="1.51116">
        <ele>146.5</ele>
        <time>2026-03-26T15:55:35.000Z</time>
      </trkpt>
      <trkpt lat="43.64957" lon="1.51106">
        <ele>146.5</ele>
        <time>2026-03-26T15:55:44.000Z</time>
      </trkpt>
      <trkpt lat="43.64955" lon="1.51098">
        <ele>146.5</ele>
        <time>2026-03-26T15:55:51.000Z</time>
      </trkpt>
      <trkpt lat="43.64952" lon="1.51087">
        <ele>146.5</ele>
        <time>2026-03-26T15:56:00.000Z</time>
      </trkpt>
      <trkpt lat="43.64944" lon="1.51045">
        <ele>146</ele>
        <time>2026-03-26T15:56:36.000Z</time>
      </trkpt>
      <trkpt lat="43.64943" lon="1.51039">
        <ele>145.9</ele>
        <time>2026-03-26T15:56:42.000Z</time>
      </trkpt>
      <trkpt lat="43.64936" lon="1.51003">
        <ele>145.7</ele>
        <time>2026-03-26T15:57:13.000Z</time>
      </trkpt>
      <trkpt lat="43.64933" lon="1.50989">
        <ele>145.8</ele>
        <time>2026-03-26T15:57:25.000Z</time>
      </trkpt>
      <trkpt lat="43.64926" lon="1.50949">
        <ele>146.2</ele>
        <time>2026-03-26T15:57:59.000Z</time>
      </trkpt>
      <trkpt lat="43.64924" lon="1.50935">
        <ele>146.2</ele>
        <time>2026-03-26T15:58:11.000Z</time>
      </trkpt>
      <trkpt lat="43.64919" lon="1.50902">
        <ele>145.5</ele>
        <time>2026-03-26T15:58:39.000Z</time>
      </trkpt>
      <trkpt lat="43.64916" lon="1.50883">
        <ele>145.2</ele>
        <time>2026-03-26T15:58:55.000Z</time>
      </trkpt>
      <trkpt lat="43.64915" lon="1.50876">
        <ele>145.4</ele>
        <time>2026-03-26T15:59:00.000Z</time>
      </trkpt>
      <trkpt lat="43.6491" lon="1.50841">
        <ele>145.7</ele>
        <time>2026-03-26T15:59:30.000Z</time>
      </trkpt>
      <trkpt lat="43.64906" lon="1.50817">
        <ele>145.6</ele>
        <time>2026-03-26T15:59:50.000Z</time>
      </trkpt>
      <trkpt lat="43.64904" lon="1.50802">
        <ele>145.6</ele>
        <time>2026-03-26T16:00:03.000Z</time>
      </trkpt>
      <trkpt lat="43.64903" lon="1.50794">
        <ele>145.7</ele>
        <time>2026-03-26T16:00:10.000Z</time>
      </trkpt>
      <trkpt lat="43.64901" lon="1.50788">
        <ele>145.8</ele>
        <time>2026-03-26T16:00:15.000Z</time>
      </trkpt>
      <trkpt lat="43.64898" lon="1.50782">
        <ele>145.9</ele>
        <time>2026-03-26T16:00:21.000Z</time>
      </trkpt>
      <trkpt lat="43.64892" lon="1.5077">
        <ele>146</ele>
        <time>2026-03-26T16:00:34.000Z</time>
      </trkpt>
      <trkpt lat="43.64889" lon="1.50764">
        <ele>146</ele>
        <time>2026-03-26T16:00:40.000Z</time>
      </trkpt>
      <trkpt lat="43.64884" lon="1.50758">
        <ele>146</ele>
        <time>2026-03-26T16:00:48.000Z</time>
      </trkpt>
      <trkpt lat="43.6488" lon="1.50752">
        <ele>146</ele>
        <time>2026-03-26T16:00:55.000Z</time>
      </trkpt>
      <trkpt lat="43.64875" lon="1.50743">
        <ele>146</ele>
        <time>2026-03-26T16:01:05.000Z</time>
      </trkpt>
      <trkpt lat="43.6487" lon="1.50736">
        <ele>146</ele>
        <time>2026-03-26T16:01:14.000Z</time>
      </trkpt>
      <trkpt lat="43.64869" lon="1.50735">
        <ele>146</ele>
        <time>2026-03-26T16:01:14.000Z</time>
      </trkpt>
      <trkpt lat="43.64869" lon="1.50734">
        <ele>146</ele>
        <time>2026-03-26T16:01:15.000Z</time>
      </trkpt>
      <trkpt lat="43.64856" lon="1.50712">
        <ele>145.9</ele>
        <time>2026-03-26T16:01:38.000Z</time>
      </trkpt>
      <trkpt lat="43.64855" lon="1.50708">
        <ele>145.9</ele>
        <time>2026-03-26T16:01:42.000Z</time>
      </trkpt>
      <trkpt lat="43.64855" lon="1.50702">
        <ele>145.9</ele>
        <time>2026-03-26T16:01:47.000Z</time>
      </trkpt>
      <trkpt lat="43.64855" lon="1.50695">
        <ele>146</ele>
        <time>2026-03-26T16:01:53.000Z</time>
      </trkpt>
      <trkpt lat="43.64856" lon="1.50688">
        <ele>146.2</ele>
        <time>2026-03-26T16:01:59.000Z</time>
      </trkpt>
      <trkpt lat="43.64857" lon="1.50683">
        <ele>146.4</ele>
        <time>2026-03-26T16:02:03.000Z</time>
      </trkpt>
      <trkpt lat="43.64858" lon="1.50678">
        <ele>146.6</ele>
        <time>2026-03-26T16:02:07.000Z</time>
      </trkpt>
      <trkpt lat="43.64859" lon="1.50674">
        <ele>146.7</ele>
        <time>2026-03-26T16:02:10.000Z</time>
      </trkpt>
      <trkpt lat="43.64863" lon="1.50667">
        <ele>146.9</ele>
        <time>2026-03-26T16:02:18.000Z</time>
      </trkpt>
      <trkpt lat="43.64866" lon="1.50665">
        <ele>146.9</ele>
        <time>2026-03-26T16:02:22.000Z</time>
      </trkpt>
      <trkpt lat="43.64868" lon="1.50663">
        <ele>146.9</ele>
        <time>2026-03-26T16:02:25.000Z</time>
      </trkpt>
      <trkpt lat="43.6487" lon="1.50661">
        <ele>146.8</ele>
        <time>2026-03-26T16:02:28.000Z</time>
      </trkpt>
      <trkpt lat="43.64871" lon="1.50658">
        <ele>146.8</ele>
        <time>2026-03-26T16:02:31.000Z</time>
      </trkpt>
      <trkpt lat="43.64873" lon="1.50655">
        <ele>146.8</ele>
        <time>2026-03-26T16:02:34.000Z</time>
      </trkpt>
      <trkpt lat="43.64876" lon="1.50648">
        <ele>146.8</ele>
        <time>2026-03-26T16:02:41.000Z</time>
      </trkpt>
      <trkpt lat="43.64877" lon="1.50644">
        <ele>146.8</ele>
        <time>2026-03-26T16:02:45.000Z</time>
      </trkpt>
      <trkpt lat="43.64877" lon="1.5064">
        <ele>146.8</ele>
        <time>2026-03-26T16:02:48.000Z</time>
      </trkpt>
      <trkpt lat="43.64878" lon="1.50636">
        <ele>146.8</ele>
        <time>2026-03-26T16:02:51.000Z</time>
      </trkpt>
      <trkpt lat="43.64878" lon="1.50632">
        <ele>146.9</ele>
        <time>2026-03-26T16:02:55.000Z</time>
      </trkpt>
      <trkpt lat="43.64877" lon="1.50627">
        <ele>146.9</ele>
        <time>2026-03-26T16:02:59.000Z</time>
      </trkpt>
      <trkpt lat="43.64877" lon="1.50623">
        <ele>146.9</ele>
        <time>2026-03-26T16:03:03.000Z</time>
      </trkpt>
      <trkpt lat="43.64876" lon="1.50619">
        <ele>147</ele>
        <time>2026-03-26T16:03:06.000Z</time>
      </trkpt>
      <trkpt lat="43.64874" lon="1.50616">
        <ele>147</ele>
        <time>2026-03-26T16:03:09.000Z</time>
      </trkpt>
      <trkpt lat="43.64873" lon="1.50613">
        <ele>147</ele>
        <time>2026-03-26T16:03:12.000Z</time>
      </trkpt>
      <trkpt lat="43.6487" lon="1.506">
        <ele>147</ele>
        <time>2026-03-26T16:03:23.000Z</time>
      </trkpt>
      <trkpt lat="43.64869" lon="1.50593">
        <ele>147</ele>
        <time>2026-03-26T16:03:29.000Z</time>
      </trkpt>
      <trkpt lat="43.64868" lon="1.50587">
        <ele>147</ele>
        <time>2026-03-26T16:03:34.000Z</time>
      </trkpt>
      <trkpt lat="43.64868" lon="1.50579">
        <ele>147</ele>
        <time>2026-03-26T16:03:40.000Z</time>
      </trkpt>
      <trkpt lat="43.64869" lon="1.50572">
        <ele>147</ele>
        <time>2026-03-26T16:03:46.000Z</time>
      </trkpt>
      <trkpt lat="43.64871" lon="1.50563">
        <ele>147</ele>
        <time>2026-03-26T16:03:53.000Z</time>
      </trkpt>
      <trkpt lat="43.64875" lon="1.50547">
        <ele>147.3</ele>
        <time>2026-03-26T16:04:07.000Z</time>
      </trkpt>
      <trkpt lat="43.64881" lon="1.50533">
        <ele>147.5</ele>
        <time>2026-03-26T16:04:21.000Z</time>
      </trkpt>
      <trkpt lat="43.64884" lon="1.50526">
        <ele>147.4</ele>
        <time>2026-03-26T16:04:28.000Z</time>
      </trkpt>
      <trkpt lat="43.6491" lon="1.50469">
        <ele>148.9</ele>
        <time>2026-03-26T16:05:23.000Z</time>
      </trkpt>
      <trkpt lat="43.64912" lon="1.50464">
        <ele>149</ele>
        <time>2026-03-26T16:05:28.000Z</time>
      </trkpt>
      <trkpt lat="43.64932" lon="1.50419">
        <ele>150.4</ele>
        <time>2026-03-26T16:06:11.000Z</time>
      </trkpt>
      <trkpt lat="43.64927" lon="1.50409">
        <ele>150.7</ele>
        <time>2026-03-26T16:06:21.000Z</time>
      </trkpt>
      <trkpt lat="43.64924" lon="1.50405">
        <ele>150.8</ele>
        <time>2026-03-26T16:06:26.000Z</time>
      </trkpt>
      <trkpt lat="43.64921" lon="1.50402">
        <ele>150.9</ele>
        <time>2026-03-26T16:06:30.000Z</time>
      </trkpt>
      <trkpt lat="43.64918" lon="1.504">
        <ele>151</ele>
        <time>2026-03-26T16:06:34.000Z</time>
      </trkpt>
      <trkpt lat="43.64914" lon="1.50399">
        <ele>151</ele>
        <time>2026-03-26T16:06:38.000Z</time>
      </trkpt>
      <trkpt lat="43.64908" lon="1.50398">
        <ele>151</ele>
        <time>2026-03-26T16:06:45.000Z</time>
      </trkpt>
      <trkpt lat="43.6486" lon="1.50399">
        <ele>151</ele>
        <time>2026-03-26T16:07:40.000Z</time>
      </trkpt>
      <trkpt lat="43.64861" lon="1.50396">
        <ele>151</ele>
        <time>2026-03-26T16:07:43.000Z</time>
      </trkpt>
      <trkpt lat="43.64861" lon="1.50392">
        <ele>151</ele>
        <time>2026-03-26T16:07:46.000Z</time>
      </trkpt>
      <trkpt lat="43.64861" lon="1.50389">
        <ele>151</ele>
        <time>2026-03-26T16:07:49.000Z</time>
      </trkpt>
      <trkpt lat="43.64861" lon="1.50387">
        <ele>151</ele>
        <time>2026-03-26T16:07:51.000Z</time>
      </trkpt>
      <trkpt lat="43.6486" lon="1.50385">
        <ele>151</ele>
        <time>2026-03-26T16:07:53.000Z</time>
      </trkpt>
      <trkpt lat="43.64858" lon="1.50381">
        <ele>151</ele>
        <time>2026-03-26T16:07:57.000Z</time>
      </trkpt>
      <trkpt lat="43.64855" lon="1.50379">
        <ele>151</ele>
        <time>2026-03-26T16:08:01.000Z</time>
      </trkpt>
      <trkpt lat="43.64852" lon="1.50377">
        <ele>151</ele>
        <time>2026-03-26T16:08:05.000Z</time>
      </trkpt>
      <trkpt lat="43.64849" lon="1.50377">
        <ele>151</ele>
        <time>2026-03-26T16:08:09.000Z</time>
      </trkpt>
      <trkpt lat="43.64845" lon="1.50379">
        <ele>151</ele>
        <time>2026-03-26T16:08:13.000Z</time>
      </trkpt>
      <trkpt lat="43.64843" lon="1.5038">
        <ele>151</ele>
        <time>2026-03-26T16:08:16.000Z</time>
      </trkpt>
      <trkpt lat="43.6483" lon="1.50351">
        <ele>151</ele>
        <time>2026-03-26T16:08:44.000Z</time>
      </trkpt>
      <trkpt lat="43.64822" lon="1.50331">
        <ele>150.5</ele>
        <time>2026-03-26T16:09:04.000Z</time>
      </trkpt>
      <trkpt lat="43.64804" lon="1.50289">
        <ele>148.3</ele>
        <time>2026-03-26T16:09:44.000Z</time>
      </trkpt>
      <trkpt lat="43.64784" lon="1.50243">
        <ele>147</ele>
        <time>2026-03-26T16:10:29.000Z</time>
      </trkpt>
      <trkpt lat="43.64773" lon="1.50218">
        <ele>145.9</ele>
        <time>2026-03-26T16:10:53.000Z</time>
      </trkpt>
      <trkpt lat="43.64775" lon="1.50217">
        <ele>145.9</ele>
        <time>2026-03-26T16:10:55.000Z</time>
      </trkpt>
      <trkpt lat="43.64776" lon="1.50214">
        <ele>146</ele>
        <time>2026-03-26T16:10:58.000Z</time>
      </trkpt>
      <trkpt lat="43.64777" lon="1.50212">
        <ele>146</ele>
        <time>2026-03-26T16:11:00.000Z</time>
      </trkpt>
      <trkpt lat="43.64778" lon="1.50211">
        <ele>146</ele>
        <time>2026-03-26T16:11:01.000Z</time>
      </trkpt>
      <trkpt lat="43.64779" lon="1.50207">
        <ele>146.1</ele>
        <time>2026-03-26T16:11:05.000Z</time>
      </trkpt>
      <trkpt lat="43.64779" lon="1.50203">
        <ele>146.1</ele>
        <time>2026-03-26T16:11:08.000Z</time>
      </trkpt>
      <trkpt lat="43.64779" lon="1.50198">
        <ele>146</ele>
        <time>2026-03-26T16:11:12.000Z</time>
      </trkpt>
      <trkpt lat="43.64777" lon="1.50194">
        <ele>146</ele>
        <time>2026-03-26T16:11:15.000Z</time>
      </trkpt>
      <trkpt lat="43.64775" lon="1.50191">
        <ele>145.9</ele>
        <time>2026-03-26T16:11:18.000Z</time>
      </trkpt>
      <trkpt lat="43.64773" lon="1.50189">
        <ele>145.8</ele>
        <time>2026-03-26T16:11:22.000Z</time>
      </trkpt>
      <trkpt lat="43.64771" lon="1.50188">
        <ele>145.7</ele>
        <time>2026-03-26T16:11:25.000Z</time>
      </trkpt>
      <trkpt lat="43.64767" lon="1.50187">
        <ele>145.6</ele>
        <time>2026-03-26T16:11:29.000Z</time>
      </trkpt>
      <trkpt lat="43.64764" lon="1.50188">
        <ele>145.6</ele>
        <time>2026-03-26T16:11:33.000Z</time>
      </trkpt>
      <trkpt lat="43.64762" lon="1.5019">
        <ele>145.7</ele>
        <time>2026-03-26T16:11:36.000Z</time>
      </trkpt>
      <trkpt lat="43.6475" lon="1.50162">
        <ele>144</ele>
        <time>2026-03-26T16:12:02.000Z</time>
      </trkpt>
      <trkpt lat="43.64747" lon="1.50154">
        <ele>143.8</ele>
        <time>2026-03-26T16:12:10.000Z</time>
      </trkpt>
      <trkpt lat="43.64746" lon="1.5015">
        <ele>143.7</ele>
        <time>2026-03-26T16:12:13.000Z</time>
      </trkpt>
      <trkpt lat="43.64748" lon="1.50121">
        <ele>143.8</ele>
        <time>2026-03-26T16:12:37.000Z</time>
      </trkpt>
      <trkpt lat="43.64749" lon="1.50102">
        <ele>143.6</ele>
        <time>2026-03-26T16:12:53.000Z</time>
      </trkpt>
      <trkpt lat="43.64749" lon="1.50096">
        <ele>143.4</ele>
        <time>2026-03-26T16:12:58.000Z</time>
      </trkpt>
      <trkpt lat="43.64753" lon="1.50078">
        <ele>143.2</ele>
        <time>2026-03-26T16:13:14.000Z</time>
      </trkpt>
      <trkpt lat="43.64754" lon="1.5007">
        <ele>143.3</ele>
        <time>2026-03-26T16:13:20.000Z</time>
      </trkpt>
      <trkpt lat="43.64755" lon="1.50042">
        <ele>143.3</ele>
        <time>2026-03-26T16:13:43.000Z</time>
      </trkpt>
      <trkpt lat="43.64757" lon="1.50008">
        <ele>142.5</ele>
        <time>2026-03-26T16:14:11.000Z</time>
      </trkpt>
      <trkpt lat="43.6476" lon="1.49976">
        <ele>142.3</ele>
        <time>2026-03-26T16:14:38.000Z</time>
      </trkpt>
      <trkpt lat="43.64761" lon="1.49972">
        <ele>142.4</ele>
        <time>2026-03-26T16:14:42.000Z</time>
      </trkpt>
      <trkpt lat="43.64765" lon="1.4994">
        <ele>142.6</ele>
        <time>2026-03-26T16:15:09.000Z</time>
      </trkpt>
      <trkpt lat="43.64761" lon="1.4994">
        <ele>142.4</ele>
        <time>2026-03-26T16:15:14.000Z</time>
      </trkpt>
      <trkpt lat="43.64758" lon="1.49942">
        <ele>142.3</ele>
        <time>2026-03-26T16:15:18.000Z</time>
      </trkpt>
      <trkpt lat="43.64752" lon="1.49945">
        <ele>142.1</ele>
        <time>2026-03-26T16:15:25.000Z</time>
      </trkpt>
      <trkpt lat="43.64748" lon="1.4995">
        <ele>141.9</ele>
        <time>2026-03-26T16:15:31.000Z</time>
      </trkpt>
      <trkpt lat="43.64745" lon="1.49954">
        <ele>141.9</ele>
        <time>2026-03-26T16:15:36.000Z</time>
      </trkpt>
      <trkpt lat="43.64687" lon="1.49976">
        <ele>141.4</ele>
        <time>2026-03-26T16:16:45.000Z</time>
      </trkpt>
      <trkpt lat="43.64681" lon="1.49977">
        <ele>141.7</ele>
        <time>2026-03-26T16:16:52.000Z</time>
      </trkpt>
      <trkpt lat="43.64675" lon="1.49977">
        <ele>141.9</ele>
        <time>2026-03-26T16:16:59.000Z</time>
      </trkpt>
      <trkpt lat="43.6467" lon="1.49975">
        <ele>142</ele>
        <time>2026-03-26T16:17:05.000Z</time>
      </trkpt>
      <trkpt lat="43.64667" lon="1.49973">
        <ele>142</ele>
        <time>2026-03-26T16:17:09.000Z</time>
      </trkpt>
      <trkpt lat="43.64645" lon="1.49958">
        <ele>141.5</ele>
        <time>2026-03-26T16:17:36.000Z</time>
      </trkpt>
      <trkpt lat="43.64641" lon="1.4995">
        <ele>141.2</ele>
        <time>2026-03-26T16:17:44.000Z</time>
      </trkpt>
      <trkpt lat="43.6464" lon="1.49947">
        <ele>141.1</ele>
        <time>2026-03-26T16:17:47.000Z</time>
      </trkpt>
      <trkpt lat="43.64639" lon="1.49944">
        <ele>141</ele>
        <time>2026-03-26T16:17:50.000Z</time>
      </trkpt>
      <trkpt lat="43.64638" lon="1.49939">
        <ele>140.8</ele>
        <time>2026-03-26T16:17:54.000Z</time>
      </trkpt>
      <trkpt lat="43.64638" lon="1.49934">
        <ele>140.6</ele>
        <time>2026-03-26T16:17:59.000Z</time>
      </trkpt>
      <trkpt lat="43.64639" lon="1.49927">
        <ele>140.4</ele>
        <time>2026-03-26T16:18:05.000Z</time>
      </trkpt>
      <trkpt lat="43.6464" lon="1.49917">
        <ele>140</ele>
        <time>2026-03-26T16:18:13.000Z</time>
      </trkpt>
      <trkpt lat="43.64641" lon="1.49907">
        <ele>140</ele>
        <time>2026-03-26T16:18:21.000Z</time>
      </trkpt>
      <trkpt lat="43.64642" lon="1.49897">
        <ele>140</ele>
        <time>2026-03-26T16:18:29.000Z</time>
      </trkpt>
      <trkpt lat="43.64643" lon="1.49889">
        <ele>140</ele>
        <time>2026-03-26T16:18:36.000Z</time>
      </trkpt>
      <trkpt lat="43.64644" lon="1.49879">
        <ele>140.3</ele>
        <time>2026-03-26T16:18:44.000Z</time>
      </trkpt>
      <trkpt lat="43.64644" lon="1.49867">
        <ele>140.6</ele>
        <time>2026-03-26T16:18:54.000Z</time>
      </trkpt>
      <trkpt lat="43.64643" lon="1.49858">
        <ele>140.8</ele>
        <time>2026-03-26T16:19:02.000Z</time>
      </trkpt>
      <trkpt lat="43.64643" lon="1.4985">
        <ele>140.9</ele>
        <time>2026-03-26T16:19:09.000Z</time>
      </trkpt>
      <trkpt lat="43.64642" lon="1.49842">
        <ele>140.9</ele>
        <time>2026-03-26T16:19:16.000Z</time>
      </trkpt>
      <trkpt lat="43.64643" lon="1.49834">
        <ele>140.9</ele>
        <time>2026-03-26T16:19:22.000Z</time>
      </trkpt>
      <trkpt lat="43.64644" lon="1.49826">
        <ele>140.9</ele>
        <time>2026-03-26T16:19:29.000Z</time>
      </trkpt>
      <trkpt lat="43.64646" lon="1.49819">
        <ele>140.9</ele>
        <time>2026-03-26T16:19:35.000Z</time>
      </trkpt>
      <trkpt lat="43.64648" lon="1.49811">
        <ele>140.9</ele>
        <time>2026-03-26T16:19:42.000Z</time>
      </trkpt>
      <trkpt lat="43.64651" lon="1.498">
        <ele>140.9</ele>
        <time>2026-03-26T16:19:52.000Z</time>
      </trkpt>
      <trkpt lat="43.64652" lon="1.49796">
        <ele>140.8</ele>
        <time>2026-03-26T16:19:55.000Z</time>
      </trkpt>
      <trkpt lat="43.64654" lon="1.49786">
        <ele>140.7</ele>
        <time>2026-03-26T16:20:04.000Z</time>
      </trkpt>
      <trkpt lat="43.64655" lon="1.49776">
        <ele>140.6</ele>
        <time>2026-03-26T16:20:12.000Z</time>
      </trkpt>
      <trkpt lat="43.64654" lon="1.49768">
        <ele>140.6</ele>
        <time>2026-03-26T16:20:19.000Z</time>
      </trkpt>
      <trkpt lat="43.64655" lon="1.49761">
        <ele>140.6</ele>
        <time>2026-03-26T16:20:25.000Z</time>
      </trkpt>
      <trkpt lat="43.64656" lon="1.49752">
        <ele>140.6</ele>
        <time>2026-03-26T16:20:32.000Z</time>
      </trkpt>
      <trkpt lat="43.64658" lon="1.49744">
        <ele>140.7</ele>
        <time>2026-03-26T16:20:39.000Z</time>
      </trkpt>
      <trkpt lat="43.64661" lon="1.49735">
        <ele>140.8</ele>
        <time>2026-03-26T16:20:48.000Z</time>
      </trkpt>
      <trkpt lat="43.64664" lon="1.49725">
        <ele>140.9</ele>
        <time>2026-03-26T16:20:57.000Z</time>
      </trkpt>
      <trkpt lat="43.64667" lon="1.49717">
        <ele>141</ele>
        <time>2026-03-26T16:21:05.000Z</time>
      </trkpt>
      <trkpt lat="43.64668" lon="1.49709">
        <ele>141</ele>
        <time>2026-03-26T16:21:11.000Z</time>
      </trkpt>
      <trkpt lat="43.64668" lon="1.497">
        <ele>141</ele>
        <time>2026-03-26T16:21:18.000Z</time>
      </trkpt>
      <trkpt lat="43.64667" lon="1.4969">
        <ele>140.9</ele>
        <time>2026-03-26T16:21:26.000Z</time>
      </trkpt>
      <trkpt lat="43.64666" lon="1.49681">
        <ele>140.5</ele>
        <time>2026-03-26T16:21:34.000Z</time>
      </trkpt>
      <trkpt lat="43.64665" lon="1.49675">
        <ele>140.3</ele>
        <time>2026-03-26T16:21:39.000Z</time>
      </trkpt>
      <trkpt lat="43.64665" lon="1.49668">
        <ele>140</ele>
        <time>2026-03-26T16:21:45.000Z</time>
      </trkpt>
      <trkpt lat="43.64666" lon="1.49659">
        <ele>140</ele>
        <time>2026-03-26T16:21:52.000Z</time>
      </trkpt>
      <trkpt lat="43.64668" lon="1.49651">
        <ele>140</ele>
        <time>2026-03-26T16:21:59.000Z</time>
      </trkpt>
      <trkpt lat="43.6467" lon="1.49644">
        <ele>140.1</ele>
        <time>2026-03-26T16:22:05.000Z</time>
      </trkpt>
      <trkpt lat="43.64672" lon="1.49637">
        <ele>140.2</ele>
        <time>2026-03-26T16:22:12.000Z</time>
      </trkpt>
      <trkpt lat="43.64675" lon="1.49631">
        <ele>140.3</ele>
        <time>2026-03-26T16:22:18.000Z</time>
      </trkpt>
      <trkpt lat="43.64677" lon="1.49624">
        <ele>140.4</ele>
        <time>2026-03-26T16:22:24.000Z</time>
      </trkpt>
      <trkpt lat="43.64678" lon="1.49617">
        <ele>140.4</ele>
        <time>2026-03-26T16:22:30.000Z</time>
      </trkpt>
      <trkpt lat="43.64679" lon="1.49611">
        <ele>140.4</ele>
        <time>2026-03-26T16:22:35.000Z</time>
      </trkpt>
      <trkpt lat="43.64678" lon="1.49606">
        <ele>140.4</ele>
        <time>2026-03-26T16:22:40.000Z</time>
      </trkpt>
      <trkpt lat="43.64677" lon="1.49599">
        <ele>140.4</ele>
        <time>2026-03-26T16:22:45.000Z</time>
      </trkpt>
      <trkpt lat="43.64675" lon="1.49594">
        <ele>140.3</ele>
        <time>2026-03-26T16:22:50.000Z</time>
      </trkpt>
      <trkpt lat="43.64673" lon="1.49588">
        <ele>140.2</ele>
        <time>2026-03-26T16:22:56.000Z</time>
      </trkpt>
      <trkpt lat="43.64671" lon="1.49582">
        <ele>140.1</ele>
        <time>2026-03-26T16:23:01.000Z</time>
      </trkpt>
      <trkpt lat="43.64669" lon="1.49576">
        <ele>140.1</ele>
        <time>2026-03-26T16:23:06.000Z</time>
      </trkpt>
      <trkpt lat="43.64668" lon="1.49571">
        <ele>140</ele>
        <time>2026-03-26T16:23:11.000Z</time>
      </trkpt>
      <trkpt lat="43.64668" lon="1.49565">
        <ele>140</ele>
        <time>2026-03-26T16:23:16.000Z</time>
      </trkpt>
      <trkpt lat="43.6467" lon="1.4956">
        <ele>140</ele>
        <time>2026-03-26T16:23:21.000Z</time>
      </trkpt>
      <trkpt lat="43.64673" lon="1.49555">
        <ele>140</ele>
        <time>2026-03-26T16:23:26.000Z</time>
      </trkpt>
      <trkpt lat="43.64675" lon="1.4955">
        <ele>139.9</ele>
        <time>2026-03-26T16:23:31.000Z</time>
      </trkpt>
      <trkpt lat="43.64679" lon="1.49541">
        <ele>139.7</ele>
        <time>2026-03-26T16:23:39.000Z</time>
      </trkpt>
      <trkpt lat="43.64679" lon="1.49533">
        <ele>139.6</ele>
        <time>2026-03-26T16:23:46.000Z</time>
      </trkpt>
      <trkpt lat="43.6468" lon="1.49526">
        <ele>139.4</ele>
        <time>2026-03-26T16:23:52.000Z</time>
      </trkpt>
      <trkpt lat="43.64681" lon="1.4952">
        <ele>139.2</ele>
        <time>2026-03-26T16:23:57.000Z</time>
      </trkpt>
      <trkpt lat="43.64682" lon="1.49514">
        <ele>139.1</ele>
        <time>2026-03-26T16:24:02.000Z</time>
      </trkpt>
      <trkpt lat="43.64684" lon="1.49509">
        <ele>139.1</ele>
        <time>2026-03-26T16:24:06.000Z</time>
      </trkpt>
      <trkpt lat="43.64685" lon="1.49506">
        <ele>139.1</ele>
        <time>2026-03-26T16:24:09.000Z</time>
      </trkpt>
      <trkpt lat="43.64685" lon="1.49505">
        <ele>139.1</ele>
        <time>2026-03-26T16:24:10.000Z</time>
      </trkpt>
      <trkpt lat="43.64687" lon="1.49501">
        <ele>139.3</ele>
        <time>2026-03-26T16:24:14.000Z</time>
      </trkpt>
      <trkpt lat="43.6469" lon="1.49497">
        <ele>139.4</ele>
        <time>2026-03-26T16:24:18.000Z</time>
      </trkpt>
      <trkpt lat="43.64693" lon="1.49495">
        <ele>139.5</ele>
        <time>2026-03-26T16:24:22.000Z</time>
      </trkpt>
      <trkpt lat="43.64697" lon="1.49493">
        <ele>139.5</ele>
        <time>2026-03-26T16:24:27.000Z</time>
      </trkpt>
      <trkpt lat="43.64702" lon="1.49492">
        <ele>139.6</ele>
        <time>2026-03-26T16:24:33.000Z</time>
      </trkpt>
      <trkpt lat="43.64707" lon="1.49492">
        <ele>139.7</ele>
        <time>2026-03-26T16:24:39.000Z</time>
      </trkpt>
      <trkpt lat="43.64708" lon="1.49493">
        <ele>139.7</ele>
        <time>2026-03-26T16:24:40.000Z</time>
      </trkpt>
      <trkpt lat="43.64711" lon="1.49472">
        <ele>139.2</ele>
        <time>2026-03-26T16:24:57.000Z</time>
      </trkpt>
      <trkpt lat="43.64708" lon="1.49462">
        <ele>138.6</ele>
        <time>2026-03-26T16:25:06.000Z</time>
      </trkpt>
      <trkpt lat="43.64704" lon="1.49449">
        <ele>137.9</ele>
        <time>2026-03-26T16:25:18.000Z</time>
      </trkpt>
      <trkpt lat="43.647" lon="1.49437">
        <ele>137.8</ele>
        <time>2026-03-26T16:25:30.000Z</time>
      </trkpt>
      <trkpt lat="43.64696" lon="1.49431">
        <ele>138.1</ele>
        <time>2026-03-26T16:25:36.000Z</time>
      </trkpt>
      <trkpt lat="43.64689" lon="1.49425">
        <ele>138.6</ele>
        <time>2026-03-26T16:25:45.000Z</time>
      </trkpt>
      <trkpt lat="43.64683" lon="1.4942">
        <ele>138.9</ele>
        <time>2026-03-26T16:25:53.000Z</time>
      </trkpt>
      <trkpt lat="43.64675" lon="1.49417">
        <ele>139</ele>
        <time>2026-03-26T16:26:03.000Z</time>
      </trkpt>
      <trkpt lat="43.64671" lon="1.49415">
        <ele>139</ele>
        <time>2026-03-26T16:26:08.000Z</time>
      </trkpt>
      <trkpt lat="43.64662" lon="1.49415">
        <ele>138.7</ele>
        <time>2026-03-26T16:26:18.000Z</time>
      </trkpt>
      <trkpt lat="43.6466" lon="1.49415">
        <ele>138.6</ele>
        <time>2026-03-26T16:26:20.000Z</time>
      </trkpt>
      <trkpt lat="43.64657" lon="1.49413">
        <ele>138.4</ele>
        <time>2026-03-26T16:26:24.000Z</time>
      </trkpt>
      <trkpt lat="43.64653" lon="1.49409">
        <ele>138.1</ele>
        <time>2026-03-26T16:26:31.000Z</time>
      </trkpt>
      <trkpt lat="43.6465" lon="1.49405">
        <ele>138.1</ele>
        <time>2026-03-26T16:26:35.000Z</time>
      </trkpt>
      <trkpt lat="43.64648" lon="1.49398">
        <ele>138.1</ele>
        <time>2026-03-26T16:26:42.000Z</time>
      </trkpt>
      <trkpt lat="43.64646" lon="1.49386">
        <ele>138.3</ele>
        <time>2026-03-26T16:26:52.000Z</time>
      </trkpt>
      <trkpt lat="43.64645" lon="1.49378">
        <ele>138.4</ele>
        <time>2026-03-26T16:26:59.000Z</time>
      </trkpt>
      <trkpt lat="43.64645" lon="1.49372">
        <ele>138.6</ele>
        <time>2026-03-26T16:27:04.000Z</time>
      </trkpt>
      <trkpt lat="43.64646" lon="1.49366">
        <ele>138.7</ele>
        <time>2026-03-26T16:27:09.000Z</time>
      </trkpt>
      <trkpt lat="43.64648" lon="1.49353">
        <ele>138.2</ele>
        <time>2026-03-26T16:27:20.000Z</time>
      </trkpt>
      <trkpt lat="43.64649" lon="1.49349">
        <ele>138</ele>
        <time>2026-03-26T16:27:23.000Z</time>
      </trkpt>
      <trkpt lat="43.64652" lon="1.49334">
        <ele>137.4</ele>
        <time>2026-03-26T16:27:36.000Z</time>
      </trkpt>
      <trkpt lat="43.64632" lon="1.49324">
        <ele>137</ele>
        <time>2026-03-26T16:28:01.000Z</time>
      </trkpt>
      <trkpt lat="43.64634" lon="1.49303">
        <ele>138.1</ele>
        <time>2026-03-26T16:28:19.000Z</time>
      </trkpt>
      <trkpt lat="43.64637" lon="1.49277">
        <ele>138.9</ele>
        <time>2026-03-26T16:28:41.000Z</time>
      </trkpt>
      <trkpt lat="43.64641" lon="1.49271">
        <ele>138.8</ele>
        <time>2026-03-26T16:28:48.000Z</time>
      </trkpt>
      <trkpt lat="43.64648" lon="1.49264">
        <ele>138.7</ele>
        <time>2026-03-26T16:28:58.000Z</time>
      </trkpt>
      <trkpt lat="43.64655" lon="1.49258">
        <ele>138.7</ele>
        <time>2026-03-26T16:29:07.000Z</time>
      </trkpt>
      <trkpt lat="43.64659" lon="1.49255">
        <ele>138.8</ele>
        <time>2026-03-26T16:29:12.000Z</time>
      </trkpt>
      <trkpt lat="43.64662" lon="1.4925">
        <ele>138.8</ele>
        <time>2026-03-26T16:29:18.000Z</time>
      </trkpt>
      <trkpt lat="43.64673" lon="1.49232">
        <ele>138.3</ele>
        <time>2026-03-26T16:29:38.000Z</time>
      </trkpt>
      <trkpt lat="43.64684" lon="1.49214">
        <ele>138</ele>
        <time>2026-03-26T16:29:57.000Z</time>
      </trkpt>
      <trkpt lat="43.64694" lon="1.49196">
        <ele>138</ele>
        <time>2026-03-26T16:30:15.000Z</time>
      </trkpt>
      <trkpt lat="43.64702" lon="1.49183">
        <ele>138.2</ele>
        <time>2026-03-26T16:30:29.000Z</time>
      </trkpt>
      <trkpt lat="43.64711" lon="1.49173">
        <ele>138.1</ele>
        <time>2026-03-26T16:30:42.000Z</time>
      </trkpt>
      <trkpt lat="43.64727" lon="1.49156">
        <ele>138.1</ele>
        <time>2026-03-26T16:31:06.000Z</time>
      </trkpt>
      <trkpt lat="43.64739" lon="1.49144">
        <ele>138.1</ele>
        <time>2026-03-26T16:31:23.000Z</time>
      </trkpt>
      <trkpt lat="43.64751" lon="1.4913">
        <ele>138</ele>
        <time>2026-03-26T16:31:41.000Z</time>
      </trkpt>
      <trkpt lat="43.64758" lon="1.4912">
        <ele>137.7</ele>
        <time>2026-03-26T16:31:53.000Z</time>
      </trkpt>
      <trkpt lat="43.64764" lon="1.49109">
        <ele>137.1</ele>
        <time>2026-03-26T16:32:04.000Z</time>
      </trkpt>
      <trkpt lat="43.64768" lon="1.491">
        <ele>137.5</ele>
        <time>2026-03-26T16:32:12.000Z</time>
      </trkpt>
      <trkpt lat="43.6477" lon="1.49091">
        <ele>138.1</ele>
        <time>2026-03-26T16:32:20.000Z</time>
      </trkpt>
      <trkpt lat="43.64771" lon="1.49083">
        <ele>138.7</ele>
        <time>2026-03-26T16:32:26.000Z</time>
      </trkpt>
      <trkpt lat="43.64771" lon="1.49075">
        <ele>138.3</ele>
        <time>2026-03-26T16:32:33.000Z</time>
      </trkpt>
      <trkpt lat="43.64771" lon="1.49067">
        <ele>137.9</ele>
        <time>2026-03-26T16:32:39.000Z</time>
      </trkpt>
      <trkpt lat="43.6477" lon="1.49059">
        <ele>137.5</ele>
        <time>2026-03-26T16:32:46.000Z</time>
      </trkpt>
      <trkpt lat="43.64767" lon="1.49052">
        <ele>137.2</ele>
        <time>2026-03-26T16:32:53.000Z</time>
      </trkpt>
      <trkpt lat="43.64764" lon="1.49047">
        <ele>137.2</ele>
        <time>2026-03-26T16:32:58.000Z</time>
      </trkpt>
      <trkpt lat="43.64758" lon="1.49042">
        <ele>137.4</ele>
        <time>2026-03-26T16:33:06.000Z</time>
      </trkpt>
      <trkpt lat="43.64752" lon="1.49039">
        <ele>137.8</ele>
        <time>2026-03-26T16:33:13.000Z</time>
      </trkpt>
      <trkpt lat="43.64745" lon="1.49037">
        <ele>138</ele>
        <time>2026-03-26T16:33:21.000Z</time>
      </trkpt>
      <trkpt lat="43.64729" lon="1.49035">
        <ele>138</ele>
        <time>2026-03-26T16:33:40.000Z</time>
      </trkpt>
      <trkpt lat="43.64718" lon="1.49035">
        <ele>138</ele>
        <time>2026-03-26T16:33:52.000Z</time>
      </trkpt>
      <trkpt lat="43.64712" lon="1.49034">
        <ele>138</ele>
        <time>2026-03-26T16:33:59.000Z</time>
      </trkpt>
      <trkpt lat="43.64706" lon="1.49031">
        <ele>138</ele>
        <time>2026-03-26T16:34:06.000Z</time>
      </trkpt>
      <trkpt lat="43.64698" lon="1.49026">
        <ele>138</ele>
        <time>2026-03-26T16:34:16.000Z</time>
      </trkpt>
      <trkpt lat="43.64691" lon="1.4902">
        <ele>137.9</ele>
        <time>2026-03-26T16:34:26.000Z</time>
      </trkpt>
      <trkpt lat="43.64683" lon="1.4901">
        <ele>137.9</ele>
        <time>2026-03-26T16:34:38.000Z</time>
      </trkpt>
      <trkpt lat="43.64678" lon="1.49002">
        <ele>138</ele>
        <time>2026-03-26T16:34:47.000Z</time>
      </trkpt>
      <trkpt lat="43.64673" lon="1.48991">
        <ele>137.9</ele>
        <time>2026-03-26T16:34:58.000Z</time>
      </trkpt>
      <trkpt lat="43.64668" lon="1.48973">
        <ele>137.9</ele>
        <time>2026-03-26T16:35:14.000Z</time>
      </trkpt>
      <trkpt lat="43.64663" lon="1.4895">
        <ele>137.9</ele>
        <time>2026-03-26T16:35:34.000Z</time>
      </trkpt>
      <trkpt lat="43.64657" lon="1.48929">
        <ele>136.9</ele>
        <time>2026-03-26T16:35:53.000Z</time>
      </trkpt>
      <trkpt lat="43.64653" lon="1.48919">
        <ele>136.6</ele>
        <time>2026-03-26T16:36:02.000Z</time>
      </trkpt>
      <trkpt lat="43.64648" lon="1.48909">
        <ele>136.8</ele>
        <time>2026-03-26T16:36:12.000Z</time>
      </trkpt>
      <trkpt lat="43.64643" lon="1.48903">
        <ele>137</ele>
        <time>2026-03-26T16:36:20.000Z</time>
      </trkpt>
      <trkpt lat="43.64638" lon="1.48897">
        <ele>137</ele>
        <time>2026-03-26T16:36:27.000Z</time>
      </trkpt>
      <trkpt lat="43.6463" lon="1.48889">
        <ele>137</ele>
        <time>2026-03-26T16:36:39.000Z</time>
      </trkpt>
      <trkpt lat="43.64626" lon="1.48886">
        <ele>137</ele>
        <time>2026-03-26T16:36:44.000Z</time>
      </trkpt>
      <trkpt lat="43.64621" lon="1.48883">
        <ele>137</ele>
        <time>2026-03-26T16:36:50.000Z</time>
      </trkpt>
      <trkpt lat="43.64612" lon="1.48881">
        <ele>137</ele>
        <time>2026-03-26T16:37:01.000Z</time>
      </trkpt>
      <trkpt lat="43.64595" lon="1.48879">
        <ele>137</ele>
        <time>2026-03-26T16:37:20.000Z</time>
      </trkpt>
      <trkpt lat="43.64572" lon="1.48877">
        <ele>137</ele>
        <time>2026-03-26T16:37:46.000Z</time>
      </trkpt>
      <trkpt lat="43.64543" lon="1.48875">
        <ele>137</ele>
        <time>2026-03-26T16:38:19.000Z</time>
      </trkpt>
      <trkpt lat="43.64534" lon="1.48874">
        <ele>137</ele>
        <time>2026-03-26T16:38:29.000Z</time>
      </trkpt>
      <trkpt lat="43.64508" lon="1.48872">
        <ele>137</ele>
        <time>2026-03-26T16:38:59.000Z</time>
      </trkpt>
      <trkpt lat="43.64486" lon="1.48869">
        <ele>137</ele>
        <time>2026-03-26T16:39:25.000Z</time>
      </trkpt>
      <trkpt lat="43.64462" lon="1.48866">
        <ele>137</ele>
        <time>2026-03-26T16:39:52.000Z</time>
      </trkpt>
      <trkpt lat="43.64452" lon="1.48863">
        <ele>137</ele>
        <time>2026-03-26T16:40:04.000Z</time>
      </trkpt>
      <trkpt lat="43.64449" lon="1.48862">
        <ele>137</ele>
        <time>2026-03-26T16:40:08.000Z</time>
      </trkpt>
      <trkpt lat="43.6444" lon="1.4886">
        <ele>137</ele>
        <time>2026-03-26T16:40:18.000Z</time>
      </trkpt>
      <trkpt lat="43.64425" lon="1.48859">
        <ele>137</ele>
        <time>2026-03-26T16:40:35.000Z</time>
      </trkpt>
      <trkpt lat="43.64409" lon="1.48858">
        <ele>137.3</ele>
        <time>2026-03-26T16:40:54.000Z</time>
      </trkpt>
      <trkpt lat="43.64391" lon="1.48857">
        <ele>137.8</ele>
        <time>2026-03-26T16:41:15.000Z</time>
      </trkpt>
      <trkpt lat="43.64372" lon="1.48857">
        <ele>137.9</ele>
        <time>2026-03-26T16:41:37.000Z</time>
      </trkpt>
      <trkpt lat="43.64356" lon="1.48858">
        <ele>137.9</ele>
        <time>2026-03-26T16:41:55.000Z</time>
      </trkpt>
      <trkpt lat="43.64351" lon="1.48859">
        <ele>138</ele>
        <time>2026-03-26T16:42:01.000Z</time>
      </trkpt>
      <trkpt lat="43.64348" lon="1.48861">
        <ele>138</ele>
        <time>2026-03-26T16:42:06.000Z</time>
      </trkpt>
      <trkpt lat="43.64347" lon="1.4886">
        <ele>138</ele>
        <time>2026-03-26T16:42:08.000Z</time>
      </trkpt>
      <trkpt lat="43.64344" lon="1.48858">
        <ele>138</ele>
        <time>2026-03-26T16:42:11.000Z</time>
      </trkpt>
      <trkpt lat="43.64305" lon="1.48841">
        <ele>138.3</ele>
        <time>2026-03-26T16:42:57.000Z</time>
      </trkpt>
      <trkpt lat="43.64302" lon="1.48838">
        <ele>138.3</ele>
        <time>2026-03-26T16:43:02.000Z</time>
      </trkpt>
      <trkpt lat="43.64299" lon="1.48831">
        <ele>138.3</ele>
        <time>2026-03-26T16:43:08.000Z</time>
      </trkpt>
      <trkpt lat="43.64297" lon="1.48829">
        <ele>138.3</ele>
        <time>2026-03-26T16:43:11.000Z</time>
      </trkpt>
      <trkpt lat="43.64294" lon="1.48819">
        <ele>138.4</ele>
        <time>2026-03-26T16:43:20.000Z</time>
      </trkpt>
      <trkpt lat="43.64295" lon="1.48807">
        <ele>138.4</ele>
        <time>2026-03-26T16:43:30.000Z</time>
      </trkpt>
      <trkpt lat="43.64297" lon="1.48788">
        <ele>138.3</ele>
        <time>2026-03-26T16:43:46.000Z</time>
      </trkpt>
      <trkpt lat="43.64298" lon="1.48782">
        <ele>138.3</ele>
        <time>2026-03-26T16:43:52.000Z</time>
      </trkpt>
      <trkpt lat="43.64299" lon="1.48764">
        <ele>138.6</ele>
        <time>2026-03-26T16:44:06.000Z</time>
      </trkpt>
      <trkpt lat="43.64298" lon="1.4876">
        <ele>138.8</ele>
        <time>2026-03-26T16:44:10.000Z</time>
      </trkpt>
      <trkpt lat="43.64293" lon="1.48752">
        <ele>139</ele>
        <time>2026-03-26T16:44:18.000Z</time>
      </trkpt>
      <trkpt lat="43.64293" lon="1.48752">
        <ele>139</ele>
        <time>2026-03-26T16:44:18.000Z</time>
      </trkpt>
      <trkpt lat="43.64275" lon="1.48744">
        <ele>138.9</ele>
        <time>2026-03-26T16:44:40.000Z</time>
      </trkpt>
      <trkpt lat="43.64278" lon="1.48711">
        <ele>138</ele>
        <time>2026-03-26T16:45:07.000Z</time>
      </trkpt>
      <trkpt lat="43.64282" lon="1.48677">
        <ele>137.9</ele>
        <time>2026-03-26T16:45:36.000Z</time>
      </trkpt>
      <trkpt lat="43.64293" lon="1.48588">
        <ele>137.5</ele>
        <time>2026-03-26T16:46:51.000Z</time>
      </trkpt>
      <trkpt lat="43.64296" lon="1.48562">
        <ele>137.8</ele>
        <time>2026-03-26T16:47:12.000Z</time>
      </trkpt>
      <trkpt lat="43.64297" lon="1.48548">
        <ele>137.8</ele>
        <time>2026-03-26T16:47:24.000Z</time>
      </trkpt>
      <trkpt lat="43.64314" lon="1.4839">
        <ele>136</ele>
        <time>2026-03-26T16:49:36.000Z</time>
      </trkpt>
      <trkpt lat="43.64314" lon="1.48375">
        <ele>136</ele>
        <time>2026-03-26T16:49:49.000Z</time>
      </trkpt>
      <trkpt lat="43.64314" lon="1.48367">
        <ele>136</ele>
        <time>2026-03-26T16:49:56.000Z</time>
      </trkpt>
      <trkpt lat="43.64312" lon="1.48349">
        <ele>136</ele>
        <time>2026-03-26T16:50:11.000Z</time>
      </trkpt>
      <trkpt lat="43.64312" lon="1.48348">
        <ele>136</ele>
        <time>2026-03-26T16:50:12.000Z</time>
      </trkpt>
      <trkpt lat="43.64302" lon="1.48302">
        <ele>135.9</ele>
        <time>2026-03-26T16:50:52.000Z</time>
      </trkpt>
      <trkpt lat="43.64296" lon="1.48291">
        <ele>135.6</ele>
        <time>2026-03-26T16:51:03.000Z</time>
      </trkpt>
      <trkpt lat="43.64288" lon="1.48281">
        <ele>135.7</ele>
        <time>2026-03-26T16:51:15.000Z</time>
      </trkpt>
      <trkpt lat="43.64279" lon="1.48272">
        <ele>135.9</ele>
        <time>2026-03-26T16:51:27.000Z</time>
      </trkpt>
      <trkpt lat="43.64276" lon="1.4827">
        <ele>136</ele>
        <time>2026-03-26T16:51:31.000Z</time>
      </trkpt>
      <trkpt lat="43.64266" lon="1.48262">
        <ele>136</ele>
        <time>2026-03-26T16:51:44.000Z</time>
      </trkpt>
      <trkpt lat="43.64229" lon="1.48257">
        <ele>136</ele>
        <time>2026-03-26T16:52:26.000Z</time>
      </trkpt>
      <trkpt lat="43.64209" lon="1.48254">
        <ele>136</ele>
        <time>2026-03-26T16:52:49.000Z</time>
      </trkpt>
      <trkpt lat="43.64197" lon="1.48252">
        <ele>136</ele>
        <time>2026-03-26T16:53:02.000Z</time>
      </trkpt>
      <trkpt lat="43.64166" lon="1.48245">
        <ele>136</ele>
        <time>2026-03-26T16:53:38.000Z</time>
      </trkpt>
      <trkpt lat="43.6416" lon="1.48243">
        <ele>136</ele>
        <time>2026-03-26T16:53:45.000Z</time>
      </trkpt>
      <trkpt lat="43.64151" lon="1.4824">
        <ele>136</ele>
        <time>2026-03-26T16:53:55.000Z</time>
      </trkpt>
      <trkpt lat="43.64136" lon="1.48234">
        <ele>136</ele>
        <time>2026-03-26T16:54:14.000Z</time>
      </trkpt>
      <trkpt lat="43.64114" lon="1.48225">
        <ele>136</ele>
        <time>2026-03-26T16:54:40.000Z</time>
      </trkpt>
      <trkpt lat="43.6411" lon="1.48223">
        <ele>136</ele>
        <time>2026-03-26T16:54:44.000Z</time>
      </trkpt>
      <trkpt lat="43.64098" lon="1.48218">
        <ele>136</ele>
        <time>2026-03-26T16:54:58.000Z</time>
      </trkpt>
      <trkpt lat="43.64067" lon="1.48201">
        <ele>136</ele>
        <time>2026-03-26T16:55:36.000Z</time>
      </trkpt>
      <trkpt lat="43.64042" lon="1.48189">
        <ele>136</ele>
        <time>2026-03-26T16:56:07.000Z</time>
      </trkpt>
      <trkpt lat="43.64032" lon="1.48185">
        <ele>136</ele>
        <time>2026-03-26T16:56:18.000Z</time>
      </trkpt>
      <trkpt lat="43.64009" lon="1.48176">
        <ele>136</ele>
        <time>2026-03-26T16:56:46.000Z</time>
      </trkpt>
      <trkpt lat="43.63995" lon="1.48172">
        <ele>136</ele>
        <time>2026-03-26T16:57:02.000Z</time>
      </trkpt>
      <trkpt lat="43.63989" lon="1.4817">
        <ele>136</ele>
        <time>2026-03-26T16:57:09.000Z</time>
      </trkpt>
      <trkpt lat="43.63988" lon="1.48169">
        <ele>136</ele>
        <time>2026-03-26T16:57:11.000Z</time>
      </trkpt>
      <trkpt lat="43.63982" lon="1.48168">
        <ele>136</ele>
        <time>2026-03-26T16:57:18.000Z</time>
      </trkpt>
      <trkpt lat="43.63976" lon="1.48168">
        <ele>136.1</ele>
        <time>2026-03-26T16:57:24.000Z</time>
      </trkpt>
      <trkpt lat="43.6397" lon="1.48169">
        <ele>136.1</ele>
        <time>2026-03-26T16:57:32.000Z</time>
      </trkpt>
      <trkpt lat="43.63961" lon="1.48171">
        <ele>136.1</ele>
        <time>2026-03-26T16:57:42.000Z</time>
      </trkpt>
      <trkpt lat="43.63952" lon="1.48173">
        <ele>136.2</ele>
        <time>2026-03-26T16:57:52.000Z</time>
      </trkpt>
      <trkpt lat="43.63916" lon="1.48181">
        <ele>136.5</ele>
        <time>2026-03-26T16:58:34.000Z</time>
      </trkpt>
      <trkpt lat="43.6391" lon="1.48183">
        <ele>136.6</ele>
        <time>2026-03-26T16:58:41.000Z</time>
      </trkpt>
      <trkpt lat="43.63901" lon="1.48185">
        <ele>136.7</ele>
        <time>2026-03-26T16:58:52.000Z</time>
      </trkpt>
      <trkpt lat="43.63842" lon="1.48202">
        <ele>136.1</ele>
        <time>2026-03-26T17:00:00.000Z</time>
      </trkpt>
      <trkpt lat="43.63841" lon="1.48198">
        <ele>136</ele>
        <time>2026-03-26T17:00:03.000Z</time>
      </trkpt>
      <trkpt lat="43.63839" lon="1.48195">
        <ele>136</ele>
        <time>2026-03-26T17:00:06.000Z</time>
      </trkpt>
      <trkpt lat="43.63837" lon="1.48193">
        <ele>136</ele>
        <time>2026-03-26T17:00:09.000Z</time>
      </trkpt>
      <trkpt lat="43.63834" lon="1.48192">
        <ele>136</ele>
        <time>2026-03-26T17:00:12.000Z</time>
      </trkpt>
      <trkpt lat="43.63832" lon="1.48192">
        <ele>136</ele>
        <time>2026-03-26T17:00:15.000Z</time>
      </trkpt>
      <trkpt lat="43.6383" lon="1.48158">
        <ele>135.9</ele>
        <time>2026-03-26T17:00:43.000Z</time>
      </trkpt>
      <trkpt lat="43.6383" lon="1.4815">
        <ele>135.9</ele>
        <time>2026-03-26T17:00:50.000Z</time>
      </trkpt>
      <trkpt lat="43.6383" lon="1.4814">
        <ele>135.9</ele>
        <time>2026-03-26T17:00:58.000Z</time>
      </trkpt>
      <trkpt lat="43.63829" lon="1.48127">
        <ele>135.1</ele>
        <time>2026-03-26T17:01:09.000Z</time>
      </trkpt>
      <trkpt lat="43.63829" lon="1.48114">
        <ele>134.3</ele>
        <time>2026-03-26T17:01:20.000Z</time>
      </trkpt>
      <trkpt lat="43.63829" lon="1.4811">
        <ele>134.3</ele>
        <time>2026-03-26T17:01:23.000Z</time>
      </trkpt>
      <trkpt lat="43.6383" lon="1.48105">
        <ele>134.6</ele>
        <time>2026-03-26T17:01:27.000Z</time>
      </trkpt>
      <trkpt lat="43.6383" lon="1.48097">
        <ele>135.2</ele>
        <time>2026-03-26T17:01:34.000Z</time>
      </trkpt>
      <trkpt lat="43.63831" lon="1.48093">
        <ele>135.5</ele>
        <time>2026-03-26T17:01:37.000Z</time>
      </trkpt>
      <trkpt lat="43.63834" lon="1.48055">
        <ele>136</ele>
        <time>2026-03-26T17:02:08.000Z</time>
      </trkpt>
      <trkpt lat="43.63838" lon="1.48009">
        <ele>135.1</ele>
        <time>2026-03-26T17:02:47.000Z</time>
      </trkpt>
      <trkpt lat="43.63839" lon="1.47999">
        <ele>134.8</ele>
        <time>2026-03-26T17:02:55.000Z</time>
      </trkpt>
      <trkpt lat="43.63841" lon="1.4799">
        <ele>134.8</ele>
        <time>2026-03-26T17:03:02.000Z</time>
      </trkpt>
      <trkpt lat="43.63843" lon="1.47979">
        <ele>134.9</ele>
        <time>2026-03-26T17:03:12.000Z</time>
      </trkpt>
      <trkpt lat="43.63845" lon="1.47972">
        <ele>135</ele>
        <time>2026-03-26T17:03:19.000Z</time>
      </trkpt>
      <trkpt lat="43.63848" lon="1.47962">
        <ele>135.2</ele>
        <time>2026-03-26T17:03:27.000Z</time>
      </trkpt>
      <trkpt lat="43.63858" lon="1.47937">
        <ele>135.9</ele>
        <time>2026-03-26T17:03:50.000Z</time>
      </trkpt>
      <trkpt lat="43.63869" lon="1.47907">
        <ele>135.4</ele>
        <time>2026-03-26T17:04:18.000Z</time>
      </trkpt>
      <trkpt lat="43.63883" lon="1.47875">
        <ele>136.7</ele>
        <time>2026-03-26T17:04:49.000Z</time>
      </trkpt>
      <trkpt lat="43.63889" lon="1.47859">
        <ele>137.7</ele>
        <time>2026-03-26T17:05:04.000Z</time>
      </trkpt>
      <trkpt lat="43.63892" lon="1.4785">
        <ele>136.6</ele>
        <time>2026-03-26T17:05:12.000Z</time>
      </trkpt>
      <trkpt lat="43.63894" lon="1.47842">
        <ele>135.8</ele>
        <time>2026-03-26T17:05:19.000Z</time>
      </trkpt>
      <trkpt lat="43.63895" lon="1.47832">
        <ele>134.8</ele>
        <time>2026-03-26T17:05:27.000Z</time>
      </trkpt>
      <trkpt lat="43.63896" lon="1.47824">
        <ele>132.8</ele>
        <time>2026-03-26T17:05:34.000Z</time>
      </trkpt>
      <trkpt lat="43.63896" lon="1.47816">
        <ele>131.1</ele>
        <time>2026-03-26T17:05:40.000Z</time>
      </trkpt>
      <trkpt lat="43.63896" lon="1.47814">
        <ele>130.7</ele>
        <time>2026-03-26T17:05:41.000Z</time>
      </trkpt>
      <trkpt lat="43.63896" lon="1.47813">
        <ele>130.4</ele>
        <time>2026-03-26T17:05:42.000Z</time>
      </trkpt>
      <trkpt lat="43.63896" lon="1.47809">
        <ele>129.6</ele>
        <time>2026-03-26T17:05:45.000Z</time>
      </trkpt>
      <trkpt lat="43.63896" lon="1.47798">
        <ele>131.2</ele>
        <time>2026-03-26T17:05:55.000Z</time>
      </trkpt>
      <trkpt lat="43.63895" lon="1.47786">
        <ele>134.9</ele>
        <time>2026-03-26T17:06:05.000Z</time>
      </trkpt>
      <trkpt lat="43.63895" lon="1.47785">
        <ele>135.2</ele>
        <time>2026-03-26T17:06:06.000Z</time>
      </trkpt>
      <trkpt lat="43.63893" lon="1.47775">
        <ele>138</ele>
        <time>2026-03-26T17:06:15.000Z</time>
      </trkpt>
      <trkpt lat="43.63892" lon="1.47772">
        <ele>138.5</ele>
        <time>2026-03-26T17:06:18.000Z</time>
      </trkpt>
      <trkpt lat="43.63887" lon="1.47755">
        <ele>140.4</ele>
        <time>2026-03-26T17:06:33.000Z</time>
      </trkpt>
      <trkpt lat="43.63886" lon="1.47752">
        <ele>140.6</ele>
        <time>2026-03-26T17:06:35.000Z</time>
      </trkpt>
      <trkpt lat="43.63881" lon="1.47739">
        <ele>140.4</ele>
        <time>2026-03-26T17:06:48.000Z</time>
      </trkpt>
      <trkpt lat="43.63872" lon="1.47725">
        <ele>140.5</ele>
        <time>2026-03-26T17:07:03.000Z</time>
      </trkpt>
      <trkpt lat="43.63868" lon="1.47718">
        <ele>140.2</ele>
        <time>2026-03-26T17:07:10.000Z</time>
      </trkpt>
      <trkpt lat="43.63857" lon="1.47701">
        <ele>137.1</ele>
        <time>2026-03-26T17:07:29.000Z</time>
      </trkpt>
      <trkpt lat="43.63851" lon="1.47693">
        <ele>136</ele>
        <time>2026-03-26T17:07:39.000Z</time>
      </trkpt>
      <trkpt lat="43.63839" lon="1.47675">
        <ele>136</ele>
        <time>2026-03-26T17:07:59.000Z</time>
      </trkpt>
      <trkpt lat="43.63837" lon="1.47672">
        <ele>136</ele>
        <time>2026-03-26T17:08:03.000Z</time>
      </trkpt>
      <trkpt lat="43.6383" lon="1.47661">
        <ele>136.1</ele>
        <time>2026-03-26T17:08:15.000Z</time>
      </trkpt>
      <trkpt lat="43.63826" lon="1.47655">
        <ele>136.4</ele>
        <time>2026-03-26T17:08:22.000Z</time>
      </trkpt>
      <trkpt lat="43.63815" lon="1.47639">
        <ele>138.7</ele>
        <time>2026-03-26T17:08:41.000Z</time>
      </trkpt>
      <trkpt lat="43.63813" lon="1.47637">
        <ele>138.9</ele>
        <time>2026-03-26T17:08:43.000Z</time>
      </trkpt>
      <trkpt lat="43.63808" lon="1.47629">
        <ele>139.4</ele>
        <time>2026-03-26T17:08:52.000Z</time>
      </trkpt>
      <trkpt lat="43.63791" lon="1.47604">
        <ele>139.4</ele>
        <time>2026-03-26T17:09:20.000Z</time>
      </trkpt>
      <trkpt lat="43.63777" lon="1.47583">
        <ele>138.1</ele>
        <time>2026-03-26T17:09:44.000Z</time>
      </trkpt>
      <trkpt lat="43.63745" lon="1.47538">
        <ele>137.1</ele>
        <time>2026-03-26T17:10:36.000Z</time>
      </trkpt>
      <trkpt lat="43.63725" lon="1.47511">
        <ele>137</ele>
        <time>2026-03-26T17:11:08.000Z</time>
      </trkpt>
      <trkpt lat="43.63725" lon="1.4751">
        <ele>137</ele>
        <time>2026-03-26T17:11:09.000Z</time>
      </trkpt>
      <trkpt lat="43.63639" lon="1.47387">
        <ele>137</ele>
        <time>2026-03-26T17:13:30.000Z</time>
      </trkpt>
      <trkpt lat="43.63616" lon="1.47353">
        <ele>137</ele>
        <time>2026-03-26T17:14:08.000Z</time>
      </trkpt>
      <trkpt lat="43.63614" lon="1.4735">
        <ele>137</ele>
        <time>2026-03-26T17:14:12.000Z</time>
      </trkpt>
      <trkpt lat="43.6361" lon="1.47344">
        <ele>137.1</ele>
        <time>2026-03-26T17:14:19.000Z</time>
      </trkpt>
      <trkpt lat="43.63602" lon="1.47332">
        <ele>137.3</ele>
        <time>2026-03-26T17:14:31.000Z</time>
      </trkpt>
      <trkpt lat="43.63592" lon="1.4731">
        <ele>137.1</ele>
        <time>2026-03-26T17:14:53.000Z</time>
      </trkpt>
      <trkpt lat="43.63587" lon="1.47299">
        <ele>137</ele>
        <time>2026-03-26T17:15:03.000Z</time>
      </trkpt>
      <trkpt lat="43.63586" lon="1.47293">
        <ele>137</ele>
        <time>2026-03-26T17:15:09.000Z</time>
      </trkpt>
      <trkpt lat="43.63574" lon="1.47297">
        <ele>136.7</ele>
        <time>2026-03-26T17:15:23.000Z</time>
      </trkpt>
      <trkpt lat="43.63564" lon="1.47301">
        <ele>136.3</ele>
        <time>2026-03-26T17:15:34.000Z</time>
      </trkpt>
      <trkpt lat="43.63562" lon="1.47302">
        <ele>136.2</ele>
        <time>2026-03-26T17:15:37.000Z</time>
      </trkpt>
      <trkpt lat="43.63563" lon="1.47295">
        <ele>136.3</ele>
        <time>2026-03-26T17:15:43.000Z</time>
      </trkpt>
      <trkpt lat="43.63563" lon="1.4729">
        <ele>136.3</ele>
        <time>2026-03-26T17:15:47.000Z</time>
      </trkpt>
      <trkpt lat="43.63559" lon="1.4728">
        <ele>136.1</ele>
        <time>2026-03-26T17:15:56.000Z</time>
      </trkpt>
      <trkpt lat="43.63557" lon="1.47275">
        <ele>136.2</ele>
        <time>2026-03-26T17:16:01.000Z</time>
      </trkpt>
      <trkpt lat="43.63555" lon="1.47269">
        <ele>136.4</ele>
        <time>2026-03-26T17:16:07.000Z</time>
      </trkpt>
      <trkpt lat="43.63546" lon="1.47259">
        <ele>136.8</ele>
        <time>2026-03-26T17:16:20.000Z</time>
      </trkpt>
      <trkpt lat="43.63542" lon="1.47251">
        <ele>137</ele>
        <time>2026-03-26T17:16:28.000Z</time>
      </trkpt>
      <trkpt lat="43.63532" lon="1.47235">
        <ele>137</ele>
        <time>2026-03-26T17:16:46.000Z</time>
      </trkpt>
      <trkpt lat="43.63484" lon="1.47159">
        <ele>137.6</ele>
        <time>2026-03-26T17:18:09.000Z</time>
      </trkpt>
      <trkpt lat="43.63483" lon="1.4716">
        <ele>137.6</ele>
        <time>2026-03-26T17:18:11.000Z</time>
      </trkpt>
      <trkpt lat="43.63482" lon="1.4716">
        <ele>137.7</ele>
        <time>2026-03-26T17:18:12.000Z</time>
      </trkpt>
      <trkpt lat="43.63481" lon="1.4716">
        <ele>137.7</ele>
        <time>2026-03-26T17:18:13.000Z</time>
      </trkpt>
      <trkpt lat="43.63479" lon="1.47159">
        <ele>137.8</ele>
        <time>2026-03-26T17:18:15.000Z</time>
      </trkpt>
      <trkpt lat="43.63477" lon="1.47155">
        <ele>137.8</ele>
        <time>2026-03-26T17:18:19.000Z</time>
      </trkpt>
      <trkpt lat="43.63477" lon="1.47153">
        <ele>137.8</ele>
        <time>2026-03-26T17:18:21.000Z</time>
      </trkpt>
      <trkpt lat="43.63441" lon="1.47176">
        <ele>138</ele>
        <time>2026-03-26T17:19:06.000Z</time>
      </trkpt>
      <trkpt lat="43.63435" lon="1.47178">
        <ele>138</ele>
        <time>2026-03-26T17:19:13.000Z</time>
      </trkpt>
      <trkpt lat="43.6343" lon="1.47178">
        <ele>138</ele>
        <time>2026-03-26T17:19:19.000Z</time>
      </trkpt>
      <trkpt lat="43.63424" lon="1.47174">
        <ele>138</ele>
        <time>2026-03-26T17:19:27.000Z</time>
      </trkpt>
      <trkpt lat="43.63412" lon="1.47159">
        <ele>138.1</ele>
        <time>2026-03-26T17:19:45.000Z</time>
      </trkpt>
      <trkpt lat="43.63392" lon="1.47105">
        <ele>138</ele>
        <time>2026-03-26T17:20:36.000Z</time>
      </trkpt>
      <trkpt lat="43.63335" lon="1.46953">
        <ele>138.3</ele>
        <time>2026-03-26T17:22:58.000Z</time>
      </trkpt>
      <trkpt lat="43.63355" lon="1.4692">
        <ele>138</ele>
        <time>2026-03-26T17:23:35.000Z</time>
      </trkpt>
      <trkpt lat="43.63359" lon="1.46914">
        <ele>138</ele>
        <time>2026-03-26T17:23:41.000Z</time>
      </trkpt>
      <trkpt lat="43.63365" lon="1.46903">
        <ele>138</ele>
        <time>2026-03-26T17:23:52.000Z</time>
      </trkpt>
      <trkpt lat="43.63371" lon="1.4689">
        <ele>138</ele>
        <time>2026-03-26T17:24:05.000Z</time>
      </trkpt>
      <trkpt lat="43.6338" lon="1.46866">
        <ele>138</ele>
        <time>2026-03-26T17:24:28.000Z</time>
      </trkpt>
      <trkpt lat="43.63387" lon="1.46836">
        <ele>138</ele>
        <time>2026-03-26T17:24:54.000Z</time>
      </trkpt>
      <trkpt lat="43.6339" lon="1.46826">
        <ele>137.7</ele>
        <time>2026-03-26T17:25:03.000Z</time>
      </trkpt>
      <trkpt lat="43.63352" lon="1.4672">
        <ele>138</ele>
        <time>2026-03-26T17:26:41.000Z</time>
      </trkpt>
      <trkpt lat="43.63333" lon="1.46663">
        <ele>138</ele>
        <time>2026-03-26T17:27:32.000Z</time>
      </trkpt>
      <trkpt lat="43.63322" lon="1.46631">
        <ele>138</ele>
        <time>2026-03-26T17:28:02.000Z</time>
      </trkpt>
      <trkpt lat="43.63312" lon="1.466">
        <ele>138.1</ele>
        <time>2026-03-26T17:28:30.000Z</time>
      </trkpt>
      <trkpt lat="43.63308" lon="1.46588">
        <ele>138.1</ele>
        <time>2026-03-26T17:28:41.000Z</time>
      </trkpt>
      <trkpt lat="43.63305" lon="1.4658">
        <ele>138</ele>
        <time>2026-03-26T17:28:47.000Z</time>
      </trkpt>
      <trkpt lat="43.63294" lon="1.46552">
        <ele>138</ele>
        <time>2026-03-26T17:29:14.000Z</time>
      </trkpt>
      <trkpt lat="43.6329" lon="1.46544">
        <ele>138</ele>
        <time>2026-03-26T17:29:22.000Z</time>
      </trkpt>
      <trkpt lat="43.63275" lon="1.4651">
        <ele>138</ele>
        <time>2026-03-26T17:29:55.000Z</time>
      </trkpt>
      <trkpt lat="43.63259" lon="1.46475">
        <ele>138.3</ele>
        <time>2026-03-26T17:30:29.000Z</time>
      </trkpt>
      <trkpt lat="43.63245" lon="1.46445">
        <ele>138</ele>
        <time>2026-03-26T17:30:58.000Z</time>
      </trkpt>
      <trkpt lat="43.63242" lon="1.46438">
        <ele>138.2</ele>
        <time>2026-03-26T17:31:05.000Z</time>
      </trkpt>
      <trkpt lat="43.63237" lon="1.46426">
        <ele>138.7</ele>
        <time>2026-03-26T17:31:17.000Z</time>
      </trkpt>
      <trkpt lat="43.63208" lon="1.46362">
        <ele>139</ele>
        <time>2026-03-26T17:32:20.000Z</time>
      </trkpt>
      <trkpt lat="43.63186" lon="1.46295">
        <ele>138.1</ele>
        <time>2026-03-26T17:33:21.000Z</time>
      </trkpt>
      <trkpt lat="43.63185" lon="1.46287">
        <ele>138.2</ele>
        <time>2026-03-26T17:33:28.000Z</time>
      </trkpt>
      <trkpt lat="43.63186" lon="1.46279">
        <ele>138.3</ele>
        <time>2026-03-26T17:33:35.000Z</time>
      </trkpt>
      <trkpt lat="43.63185" lon="1.46278">
        <ele>138.3</ele>
        <time>2026-03-26T17:33:36.000Z</time>
      </trkpt>
      <trkpt lat="43.63184" lon="1.46277">
        <ele>138.4</ele>
        <time>2026-03-26T17:33:38.000Z</time>
      </trkpt>
      <trkpt lat="43.63183" lon="1.46275">
        <ele>138.4</ele>
        <time>2026-03-26T17:33:39.000Z</time>
      </trkpt>
      <trkpt lat="43.63177" lon="1.46272">
        <ele>138.5</ele>
        <time>2026-03-26T17:33:46.000Z</time>
      </trkpt>
      <trkpt lat="43.63174" lon="1.4627">
        <ele>138.5</ele>
        <time>2026-03-26T17:33:50.000Z</time>
      </trkpt>
      <trkpt lat="43.6317" lon="1.46268">
        <ele>138.6</ele>
        <time>2026-03-26T17:33:55.000Z</time>
      </trkpt>
      <trkpt lat="43.63167" lon="1.46266">
        <ele>138.6</ele>
        <time>2026-03-26T17:33:59.000Z</time>
      </trkpt>
      <trkpt lat="43.63158" lon="1.46261">
        <ele>138.6</ele>
        <time>2026-03-26T17:34:10.000Z</time>
      </trkpt>
      <trkpt lat="43.63158" lon="1.4626">
        <ele>138.6</ele>
        <time>2026-03-26T17:34:11.000Z</time>
      </trkpt>
      <trkpt lat="43.63156" lon="1.46259">
        <ele>138.6</ele>
        <time>2026-03-26T17:34:13.000Z</time>
      </trkpt>
      <trkpt lat="43.63155" lon="1.46258">
        <ele>138.6</ele>
        <time>2026-03-26T17:34:15.000Z</time>
      </trkpt>
      <trkpt lat="43.63153" lon="1.46256">
        <ele>138.6</ele>
        <time>2026-03-26T17:34:17.000Z</time>
      </trkpt>
      <trkpt lat="43.63152" lon="1.46253">
        <ele>138.6</ele>
        <time>2026-03-26T17:34:20.000Z</time>
      </trkpt>
      <trkpt lat="43.63152" lon="1.46251">
        <ele>138.5</ele>
        <time>2026-03-26T17:34:21.000Z</time>
      </trkpt>
      <trkpt lat="43.63153" lon="1.46251">
        <ele>138.5</ele>
        <time>2026-03-26T17:34:22.000Z</time>
      </trkpt>
      <trkpt lat="43.63154" lon="1.46248">
        <ele>138.4</ele>
        <time>2026-03-26T17:34:24.000Z</time>
      </trkpt>
      <trkpt lat="43.63155" lon="1.46247">
        <ele>138.4</ele>
        <time>2026-03-26T17:34:26.000Z</time>
      </trkpt>
      <trkpt lat="43.63144" lon="1.4624">
        <ele>138.5</ele>
        <time>2026-03-26T17:34:40.000Z</time>
      </trkpt>
      <trkpt lat="43.63127" lon="1.4623">
        <ele>138.6</ele>
        <time>2026-03-26T17:35:01.000Z</time>
      </trkpt>
      <trkpt lat="43.63102" lon="1.46214">
        <ele>139</ele>
        <time>2026-03-26T17:35:33.000Z</time>
      </trkpt>
      <trkpt lat="43.6307" lon="1.46195">
        <ele>139.5</ele>
        <time>2026-03-26T17:36:13.000Z</time>
      </trkpt>
      <trkpt lat="43.63064" lon="1.46191">
        <ele>139.6</ele>
        <time>2026-03-26T17:36:20.000Z</time>
      </trkpt>
      <trkpt lat="43.63063" lon="1.46191">
        <ele>139.6</ele>
        <time>2026-03-26T17:36:21.000Z</time>
      </trkpt>
      <trkpt lat="43.63023" lon="1.46166">
        <ele>140.2</ele>
        <time>2026-03-26T17:37:12.000Z</time>
      </trkpt>
      <trkpt lat="43.63005" lon="1.46155">
        <ele>140.8</ele>
        <time>2026-03-26T17:37:34.000Z</time>
      </trkpt>
      <trkpt lat="43.62986" lon="1.46143">
        <ele>141</ele>
        <time>2026-03-26T17:37:59.000Z</time>
      </trkpt>
      <trkpt lat="43.62971" lon="1.46133">
        <ele>141</ele>
        <time>2026-03-26T17:38:18.000Z</time>
      </trkpt>
      <trkpt lat="43.62938" lon="1.4611">
        <ele>141</ele>
        <time>2026-03-26T17:39:00.000Z</time>
      </trkpt>
      <trkpt lat="43.62907" lon="1.46084">
        <ele>141</ele>
        <time>2026-03-26T17:39:42.000Z</time>
      </trkpt>
      <trkpt lat="43.62885" lon="1.46067">
        <ele>141.1</ele>
        <time>2026-03-26T17:40:10.000Z</time>
      </trkpt>
      <trkpt lat="43.62873" lon="1.46056">
        <ele>141.6</ele>
        <time>2026-03-26T17:40:27.000Z</time>
      </trkpt>
      <trkpt lat="43.62866" lon="1.4605">
        <ele>141.6</ele>
        <time>2026-03-26T17:40:36.000Z</time>
      </trkpt>
      <trkpt lat="43.62864" lon="1.46053">
        <ele>141.8</ele>
        <time>2026-03-26T17:40:39.000Z</time>
      </trkpt>
      <trkpt lat="43.62855" lon="1.46044">
        <ele>141.8</ele>
        <time>2026-03-26T17:40:52.000Z</time>
      </trkpt>
      <trkpt lat="43.62842" lon="1.46031">
        <ele>142.3</ele>
        <time>2026-03-26T17:41:11.000Z</time>
      </trkpt>
      <trkpt lat="43.6284" lon="1.46028">
        <ele>142.5</ele>
        <time>2026-03-26T17:41:14.000Z</time>
      </trkpt>
      <trkpt lat="43.62831" lon="1.46015">
        <ele>143</ele>
        <time>2026-03-26T17:41:30.000Z</time>
      </trkpt>
      <trkpt lat="43.62818" lon="1.45996">
        <ele>143</ele>
        <time>2026-03-26T17:41:51.000Z</time>
      </trkpt>
      <trkpt lat="43.62812" lon="1.45988">
        <ele>143.1</ele>
        <time>2026-03-26T17:42:00.000Z</time>
      </trkpt>
      <trkpt lat="43.62804" lon="1.45977">
        <ele>143.8</ele>
        <time>2026-03-26T17:42:13.000Z</time>
      </trkpt>
      <trkpt lat="43.62792" lon="1.45961">
        <ele>143.5</ele>
        <time>2026-03-26T17:42:32.000Z</time>
      </trkpt>
      <trkpt lat="43.62787" lon="1.45957">
        <ele>143.7</ele>
        <time>2026-03-26T17:42:38.000Z</time>
      </trkpt>
      <trkpt lat="43.62782" lon="1.45951">
        <ele>144.2</ele>
        <time>2026-03-26T17:42:46.000Z</time>
      </trkpt>
      <trkpt lat="43.62773" lon="1.45942">
        <ele>144.9</ele>
        <time>2026-03-26T17:42:59.000Z</time>
      </trkpt>
      <trkpt lat="43.62763" lon="1.45934">
        <ele>145</ele>
        <time>2026-03-26T17:43:12.000Z</time>
      </trkpt>
      <trkpt lat="43.62759" lon="1.45932">
        <ele>145.1</ele>
        <time>2026-03-26T17:43:17.000Z</time>
      </trkpt>
      <trkpt lat="43.6275" lon="1.45926">
        <ele>145.4</ele>
        <time>2026-03-26T17:43:28.000Z</time>
      </trkpt>
      <trkpt lat="43.6274" lon="1.4592">
        <ele>146.2</ele>
        <time>2026-03-26T17:43:40.000Z</time>
      </trkpt>
      <trkpt lat="43.62739" lon="1.45919">
        <ele>146.3</ele>
        <time>2026-03-26T17:43:42.000Z</time>
      </trkpt>
      <trkpt lat="43.62728" lon="1.45914">
        <ele>146.6</ele>
        <time>2026-03-26T17:43:55.000Z</time>
      </trkpt>
      <trkpt lat="43.62713" lon="1.45909">
        <ele>147.1</ele>
        <time>2026-03-26T17:44:13.000Z</time>
      </trkpt>
      <trkpt lat="43.62696" lon="1.45905">
        <ele>147.9</ele>
        <time>2026-03-26T17:44:33.000Z</time>
      </trkpt>
      <trkpt lat="43.62691" lon="1.45905">
        <ele>147.5</ele>
        <time>2026-03-26T17:44:39.000Z</time>
      </trkpt>
      <trkpt lat="43.62685" lon="1.45904">
        <ele>146.9</ele>
        <time>2026-03-26T17:44:45.000Z</time>
      </trkpt>
      <trkpt lat="43.62671" lon="1.45904">
        <ele>145.2</ele>
        <time>2026-03-26T17:45:01.000Z</time>
      </trkpt>
      <trkpt lat="43.62665" lon="1.45904">
        <ele>144.8</ele>
        <time>2026-03-26T17:45:07.000Z</time>
      </trkpt>
      <trkpt lat="43.62644" lon="1.45905">
        <ele>146.1</ele>
        <time>2026-03-26T17:45:31.000Z</time>
      </trkpt>
      <trkpt lat="43.62635" lon="1.45904">
        <ele>146.9</ele>
        <time>2026-03-26T17:45:41.000Z</time>
      </trkpt>
      <trkpt lat="43.6263" lon="1.45904">
        <ele>147.6</ele>
        <time>2026-03-26T17:45:47.000Z</time>
      </trkpt>
      <trkpt lat="43.62614" lon="1.45904">
        <ele>150.1</ele>
        <time>2026-03-26T17:46:06.000Z</time>
      </trkpt>
      <trkpt lat="43.6261" lon="1.45903">
        <ele>150.6</ele>
        <time>2026-03-26T17:46:11.000Z</time>
      </trkpt>
      <trkpt lat="43.62582" lon="1.45896">
        <ele>151.8</ele>
        <time>2026-03-26T17:46:43.000Z</time>
      </trkpt>
      <trkpt lat="43.62567" lon="1.45892">
        <ele>151.8</ele>
        <time>2026-03-26T17:47:01.000Z</time>
      </trkpt>
      <trkpt lat="43.62546" lon="1.45885">
        <ele>151.9</ele>
        <time>2026-03-26T17:47:25.000Z</time>
      </trkpt>
      <trkpt lat="43.62543" lon="1.45885">
        <ele>151.8</ele>
        <time>2026-03-26T17:47:28.000Z</time>
      </trkpt>
      <trkpt lat="43.62517" lon="1.45876">
        <ele>151.9</ele>
        <time>2026-03-26T17:47:59.000Z</time>
      </trkpt>
      <trkpt lat="43.62501" lon="1.45872">
        <ele>152.3</ele>
        <time>2026-03-26T17:48:17.000Z</time>
      </trkpt>
      <trkpt lat="43.62497" lon="1.45871">
        <ele>152.4</ele>
        <time>2026-03-26T17:48:22.000Z</time>
      </trkpt>
      <trkpt lat="43.62492" lon="1.4587">
        <ele>152.5</ele>
        <time>2026-03-26T17:48:27.000Z</time>
      </trkpt>
      <trkpt lat="43.62492" lon="1.4587">
        <ele>152.5</ele>
        <time>2026-03-26T17:48:28.000Z</time>
      </trkpt>
      <trkpt lat="43.62483" lon="1.45869">
        <ele>152.6</ele>
        <time>2026-03-26T17:48:38.000Z</time>
      </trkpt>
      <trkpt lat="43.62477" lon="1.45869">
        <ele>152.8</ele>
        <time>2026-03-26T17:48:46.000Z</time>
      </trkpt>
      <trkpt lat="43.62456" lon="1.45872">
        <ele>152.3</ele>
        <time>2026-03-26T17:49:10.000Z</time>
      </trkpt>
      <trkpt lat="43.62433" lon="1.4588">
        <ele>151.1</ele>
        <time>2026-03-26T17:49:37.000Z</time>
      </trkpt>
      <trkpt lat="43.62413" lon="1.45883">
        <ele>149.4</ele>
        <time>2026-03-26T17:50:00.000Z</time>
      </trkpt>
      <trkpt lat="43.62397" lon="1.45888">
        <ele>149.2</ele>
        <time>2026-03-26T17:50:18.000Z</time>
      </trkpt>
      <trkpt lat="43.62394" lon="1.45889">
        <ele>149.2</ele>
        <time>2026-03-26T17:50:22.000Z</time>
      </trkpt>
      <trkpt lat="43.62384" lon="1.45893">
        <ele>149.2</ele>
        <time>2026-03-26T17:50:34.000Z</time>
      </trkpt>
      <trkpt lat="43.62375" lon="1.45895">
        <ele>149</ele>
        <time>2026-03-26T17:50:44.000Z</time>
      </trkpt>
      <trkpt lat="43.62371" lon="1.45896">
        <ele>148.8</ele>
        <time>2026-03-26T17:50:49.000Z</time>
      </trkpt>
      <trkpt lat="43.62365" lon="1.45897">
        <ele>148.5</ele>
        <time>2026-03-26T17:50:55.000Z</time>
      </trkpt>
      <trkpt lat="43.6236" lon="1.45896">
        <ele>148.2</ele>
        <time>2026-03-26T17:51:01.000Z</time>
      </trkpt>
      <trkpt lat="43.62355" lon="1.45896">
        <ele>148</ele>
        <time>2026-03-26T17:51:07.000Z</time>
      </trkpt>
      <trkpt lat="43.62337" lon="1.45892">
        <ele>147.3</ele>
        <time>2026-03-26T17:51:28.000Z</time>
      </trkpt>
      <trkpt lat="43.62312" lon="1.4588">
        <ele>146.1</ele>
        <time>2026-03-26T17:51:58.000Z</time>
      </trkpt>
      <trkpt lat="43.62281" lon="1.45864">
        <ele>145.2</ele>
        <time>2026-03-26T17:52:36.000Z</time>
      </trkpt>
      <trkpt lat="43.62239" lon="1.45844">
        <ele>145</ele>
        <time>2026-03-26T17:53:27.000Z</time>
      </trkpt>
      <trkpt lat="43.62205" lon="1.45828">
        <ele>144.8</ele>
        <time>2026-03-26T17:54:08.000Z</time>
      </trkpt>
      <trkpt lat="43.62157" lon="1.45805">
        <ele>145</ele>
        <time>2026-03-26T17:55:06.000Z</time>
      </trkpt>
      <trkpt lat="43.62128" lon="1.45791">
        <ele>145.2</ele>
        <time>2026-03-26T17:55:41.000Z</time>
      </trkpt>
      <trkpt lat="43.62096" lon="1.45774">
        <ele>144.9</ele>
        <time>2026-03-26T17:56:20.000Z</time>
      </trkpt>
      <trkpt lat="43.62072" lon="1.45762">
        <ele>145.2</ele>
        <time>2026-03-26T17:56:49.000Z</time>
      </trkpt>
      <trkpt lat="43.62027" lon="1.45739">
        <ele>145.6</ele>
        <time>2026-03-26T17:57:45.000Z</time>
      </trkpt>
      <trkpt lat="43.62007" lon="1.4573">
        <ele>145.8</ele>
        <time>2026-03-26T17:58:08.000Z</time>
      </trkpt>
      <trkpt lat="43.61975" lon="1.45714">
        <ele>145.7</ele>
        <time>2026-03-26T17:58:47.000Z</time>
      </trkpt>
      <trkpt lat="43.61965" lon="1.45709">
        <ele>145.7</ele>
        <time>2026-03-26T17:58:59.000Z</time>
      </trkpt>
      <trkpt lat="43.61935" lon="1.45688">
        <ele>144.9</ele>
        <time>2026-03-26T17:59:38.000Z</time>
      </trkpt>
      <trkpt lat="43.61931" lon="1.45685">
        <ele>144.8</ele>
        <time>2026-03-26T17:59:43.000Z</time>
      </trkpt>
      <trkpt lat="43.61918" lon="1.45673">
        <ele>145</ele>
        <time>2026-03-26T18:00:01.000Z</time>
      </trkpt>
      <trkpt lat="43.6191" lon="1.45664">
        <ele>145.2</ele>
        <time>2026-03-26T18:00:12.000Z</time>
      </trkpt>
      <trkpt lat="43.61897" lon="1.45649">
        <ele>145.1</ele>
        <time>2026-03-26T18:00:32.000Z</time>
      </trkpt>
      <trkpt lat="43.6188" lon="1.45631">
        <ele>144.7</ele>
        <time>2026-03-26T18:00:56.000Z</time>
      </trkpt>
      <trkpt lat="43.61869" lon="1.45618">
        <ele>144.3</ele>
        <time>2026-03-26T18:01:12.000Z</time>
      </trkpt>
      <trkpt lat="43.61851" lon="1.45597">
        <ele>143.8</ele>
        <time>2026-03-26T18:01:40.000Z</time>
      </trkpt>
      <trkpt lat="43.61827" lon="1.45569">
        <ele>143</ele>
        <time>2026-03-26T18:02:16.000Z</time>
      </trkpt>
      <trkpt lat="43.61822" lon="1.45563">
        <ele>143</ele>
        <time>2026-03-26T18:02:24.000Z</time>
      </trkpt>
      <trkpt lat="43.61804" lon="1.45541">
        <ele>142.5</ele>
        <time>2026-03-26T18:02:51.000Z</time>
      </trkpt>
      <trkpt lat="43.61772" lon="1.45506">
        <ele>142</ele>
        <time>2026-03-26T18:03:37.000Z</time>
      </trkpt>
      <trkpt lat="43.61767" lon="1.45499">
        <ele>142</ele>
        <time>2026-03-26T18:03:45.000Z</time>
      </trkpt>
      <trkpt lat="43.61742" lon="1.45472">
        <ele>142</ele>
        <time>2026-03-26T18:04:22.000Z</time>
      </trkpt>
      <trkpt lat="43.61718" lon="1.45445">
        <ele>141.2</ele>
        <time>2026-03-26T18:04:57.000Z</time>
      </trkpt>
      <trkpt lat="43.61706" lon="1.45432">
        <ele>141.3</ele>
        <time>2026-03-26T18:05:14.000Z</time>
      </trkpt>
      <trkpt lat="43.61677" lon="1.45399">
        <ele>141.2</ele>
        <time>2026-03-26T18:05:57.000Z</time>
      </trkpt>
      <trkpt lat="43.61676" lon="1.45398">
        <ele>141.2</ele>
        <time>2026-03-26T18:05:59.000Z</time>
      </trkpt>
      <trkpt lat="43.61662" lon="1.45382">
        <ele>141.1</ele>
        <time>2026-03-26T18:06:19.000Z</time>
      </trkpt>
      <trkpt lat="43.61626" lon="1.45343">
        <ele>141</ele>
        <time>2026-03-26T18:07:12.000Z</time>
      </trkpt>
      <trkpt lat="43.61605" lon="1.45319">
        <ele>141.2</ele>
        <time>2026-03-26T18:07:43.000Z</time>
      </trkpt>
      <trkpt lat="43.61598" lon="1.45312">
        <ele>141.7</ele>
        <time>2026-03-26T18:07:52.000Z</time>
      </trkpt>
      <trkpt lat="43.61591" lon="1.45304">
        <ele>142.6</ele>
        <time>2026-03-26T18:08:03.000Z</time>
      </trkpt>
      <trkpt lat="43.61573" lon="1.45283">
        <ele>145.4</ele>
        <time>2026-03-26T18:08:30.000Z</time>
      </trkpt>
      <trkpt lat="43.61559" lon="1.45266">
        <ele>143.2</ele>
        <time>2026-03-26T18:08:51.000Z</time>
      </trkpt>
      <trkpt lat="43.61557" lon="1.45264">
        <ele>142.5</ele>
        <time>2026-03-26T18:08:54.000Z</time>
      </trkpt>
      <trkpt lat="43.61553" lon="1.45255">
        <ele>140.9</ele>
        <time>2026-03-26T18:09:03.000Z</time>
      </trkpt>
      <trkpt lat="43.61532" lon="1.45231">
        <ele>141</ele>
        <time>2026-03-26T18:09:34.000Z</time>
      </trkpt>
      <trkpt lat="43.61523" lon="1.45221">
        <ele>141.2</ele>
        <time>2026-03-26T18:09:47.000Z</time>
      </trkpt>
      <trkpt lat="43.61502" lon="1.45198">
        <ele>141.9</ele>
        <time>2026-03-26T18:10:18.000Z</time>
      </trkpt>
      <trkpt lat="43.61462" lon="1.45153">
        <ele>142.4</ele>
        <time>2026-03-26T18:11:17.000Z</time>
      </trkpt>
      <trkpt lat="43.61411" lon="1.45095">
        <ele>143.6</ele>
        <time>2026-03-26T18:12:33.000Z</time>
      </trkpt>
      <trkpt lat="43.61408" lon="1.45089">
        <ele>143.2</ele>
        <time>2026-03-26T18:12:39.000Z</time>
      </trkpt>
      <trkpt lat="43.61404" lon="1.45082">
        <ele>142.6</ele>
        <time>2026-03-26T18:12:47.000Z</time>
      </trkpt>
      <trkpt lat="43.61393" lon="1.4507">
        <ele>141.7</ele>
        <time>2026-03-26T18:13:04.000Z</time>
      </trkpt>
      <trkpt lat="43.61386" lon="1.45062">
        <ele>142.1</ele>
        <time>2026-03-26T18:13:15.000Z</time>
      </trkpt>
      <trkpt lat="43.61375" lon="1.4505">
        <ele>143.1</ele>
        <time>2026-03-26T18:13:31.000Z</time>
      </trkpt>
      <trkpt lat="43.61343" lon="1.45001">
        <ele>143</ele>
        <time>2026-03-26T18:14:26.000Z</time>
      </trkpt>
      <trkpt lat="43.61338" lon="1.44994">
        <ele>143</ele>
        <time>2026-03-26T18:14:34.000Z</time>
      </trkpt>
      <trkpt lat="43.61336" lon="1.44989">
        <ele>143</ele>
        <time>2026-03-26T18:14:39.000Z</time>
      </trkpt>
      <trkpt lat="43.61326" lon="1.44971">
        <ele>143</ele>
        <time>2026-03-26T18:14:58.000Z</time>
      </trkpt>
      <trkpt lat="43.61306" lon="1.44933">
        <ele>142.6</ele>
        <time>2026-03-26T18:15:37.000Z</time>
      </trkpt>
      <trkpt lat="43.61291" lon="1.44905">
        <ele>142.2</ele>
        <time>2026-03-26T18:16:06.000Z</time>
      </trkpt>
      <trkpt lat="43.61274" lon="1.44874">
        <ele>142</ele>
        <time>2026-03-26T18:16:38.000Z</time>
      </trkpt>
      <trkpt lat="43.61271" lon="1.44859">
        <ele>142</ele>
        <time>2026-03-26T18:16:51.000Z</time>
      </trkpt>
      <trkpt lat="43.61267" lon="1.44837">
        <ele>142</ele>
        <time>2026-03-26T18:17:10.000Z</time>
      </trkpt>
      <trkpt lat="43.61262" lon="1.4481">
        <ele>142</ele>
        <time>2026-03-26T18:17:33.000Z</time>
      </trkpt>
      <trkpt lat="43.61261" lon="1.44802">
        <ele>141.9</ele>
        <time>2026-03-26T18:17:40.000Z</time>
      </trkpt>
      <trkpt lat="43.61249" lon="1.44727">
        <ele>141</ele>
        <time>2026-03-26T18:18:44.000Z</time>
      </trkpt>
      <trkpt lat="43.61241" lon="1.44677">
        <ele>140.4</ele>
        <time>2026-03-26T18:19:26.000Z</time>
      </trkpt>
      <trkpt lat="43.61239" lon="1.44661">
        <ele>140.2</ele>
        <time>2026-03-26T18:19:40.000Z</time>
      </trkpt>
      <trkpt lat="43.61227" lon="1.44589">
        <ele>140.2</ele>
        <time>2026-03-26T18:20:41.000Z</time>
      </trkpt>
      <trkpt lat="43.61224" lon="1.44566">
        <ele>140.7</ele>
        <time>2026-03-26T18:21:01.000Z</time>
      </trkpt>
      <trkpt lat="43.61219" lon="1.44532">
        <ele>141</ele>
        <time>2026-03-26T18:21:30.000Z</time>
      </trkpt>
      <trkpt lat="43.61207" lon="1.4452">
        <ele>140.8</ele>
        <time>2026-03-26T18:21:47.000Z</time>
      </trkpt>
      <trkpt lat="43.61142" lon="1.44444">
        <ele>140.1</ele>
        <time>2026-03-26T18:23:24.000Z</time>
      </trkpt>
      <trkpt lat="43.61084" lon="1.44376">
        <ele>141.5</ele>
        <time>2026-03-26T18:24:51.000Z</time>
      </trkpt>
      <trkpt lat="43.61059" lon="1.44347">
        <ele>141.9</ele>
        <time>2026-03-26T18:25:27.000Z</time>
      </trkpt>
      <trkpt lat="43.61052" lon="1.4434">
        <ele>141.9</ele>
        <time>2026-03-26T18:25:37.000Z</time>
      </trkpt>
      <trkpt lat="43.61058" lon="1.44329">
        <ele>141.8</ele>
        <time>2026-03-26T18:25:48.000Z</time>
      </trkpt>
      <trkpt lat="43.61049" lon="1.44321">
        <ele>141.4</ele>
        <time>2026-03-26T18:26:00.000Z</time>
      </trkpt>
      <trkpt lat="43.61041" lon="1.44313">
        <ele>141.1</ele>
        <time>2026-03-26T18:26:12.000Z</time>
      </trkpt>
      <trkpt lat="43.6101" lon="1.4428">
        <ele>140.4</ele>
        <time>2026-03-26T18:26:57.000Z</time>
      </trkpt>
      <trkpt lat="43.61008" lon="1.44277">
        <ele>140.3</ele>
        <time>2026-03-26T18:27:00.000Z</time>
      </trkpt>
      <trkpt lat="43.61004" lon="1.44271">
        <ele>140.4</ele>
        <time>2026-03-26T18:27:07.000Z</time>
      </trkpt>
      <trkpt lat="43.61001" lon="1.44262">
        <ele>140.6</ele>
        <time>2026-03-26T18:27:15.000Z</time>
      </trkpt>
      <trkpt lat="43.60995" lon="1.44258">
        <ele>140.8</ele>
        <time>2026-03-26T18:27:23.000Z</time>
      </trkpt>
      <trkpt lat="43.60984" lon="1.44255">
        <ele>140.9</ele>
        <time>2026-03-26T18:27:36.000Z</time>
      </trkpt>
      <trkpt lat="43.60976" lon="1.44258">
        <ele>141</ele>
        <time>2026-03-26T18:27:45.000Z</time>
      </trkpt>
      <trkpt lat="43.60927" lon="1.44282">
        <ele>141.7</ele>
        <time>2026-03-26T18:28:45.000Z</time>
      </trkpt>
      <trkpt lat="43.60906" lon="1.44273">
        <ele>142.1</ele>
        <time>2026-03-26T18:29:10.000Z</time>
      </trkpt>
      <trkpt lat="43.60894" lon="1.44266">
        <ele>142.1</ele>
        <time>2026-03-26T18:29:25.000Z</time>
      </trkpt>
      <trkpt lat="43.60885" lon="1.44261">
        <ele>142.1</ele>
        <time>2026-03-26T18:29:35.000Z</time>
      </trkpt>
      <trkpt lat="43.60891" lon="1.44247">
        <ele>142.1</ele>
        <time>2026-03-26T18:29:48.000Z</time>
      </trkpt>
      <trkpt lat="43.60892" lon="1.4424">
        <ele>142.1</ele>
        <time>2026-03-26T18:29:54.000Z</time>
      </trkpt>
      <trkpt lat="43.60893" lon="1.44225">
        <ele>142</ele>
        <time>2026-03-26T18:30:06.000Z</time>
      </trkpt>
      <trkpt lat="43.60891" lon="1.44216">
        <ele>142</ele>
        <time>2026-03-26T18:30:14.000Z</time>
      </trkpt>
      <trkpt lat="43.60885" lon="1.44196">
        <ele>142.2</ele>
        <time>2026-03-26T18:30:32.000Z</time>
      </trkpt>
      <trkpt lat="43.60892" lon="1.44189">
        <ele>142</ele>
        <time>2026-03-26T18:30:42.000Z</time>
      </trkpt>
      <trkpt lat="43.60885" lon="1.44173">
        <ele>142.1</ele>
        <time>2026-03-26T18:30:58.000Z</time>
      </trkpt>
      <trkpt lat="43.60876" lon="1.44153">
        <ele>142.2</ele>
        <time>2026-03-26T18:31:18.000Z</time>
      </trkpt>
      <trkpt lat="43.60865" lon="1.44132">
        <ele>142</ele>
        <time>2026-03-26T18:31:39.000Z</time>
      </trkpt>
      <trkpt lat="43.60859" lon="1.44123">
        <ele>142.1</ele>
        <time>2026-03-26T18:31:50.000Z</time>
      </trkpt>
      <trkpt lat="43.60847" lon="1.44118">
        <ele>142.5</ele>
        <time>2026-03-26T18:32:05.000Z</time>
      </trkpt>
      <trkpt lat="43.60839" lon="1.44118">
        <ele>142.8</ele>
        <time>2026-03-26T18:32:13.000Z</time>
      </trkpt>
      <trkpt lat="43.60828" lon="1.44117">
        <ele>143</ele>
        <time>2026-03-26T18:32:26.000Z</time>
      </trkpt>
      <trkpt lat="43.60828" lon="1.44117">
        <ele>143</ele>
        <time>2026-03-26T18:32:26.000Z</time>
      </trkpt>
      <trkpt lat="43.6081" lon="1.44124">
        <ele>143</ele>
        <time>2026-03-26T18:32:48.000Z</time>
      </trkpt>
      <trkpt lat="43.60798" lon="1.44112">
        <ele>143</ele>
      </trkpt>
      <trkpt lat="43.60796" lon="1.44106">
        <ele>143</ele>
      </trkpt>
      <trkpt lat="43.60794" lon="1.44101">
        <ele>143</ele>
      </trkpt>
      <trkpt lat="43.60786" lon="1.44084">
        <ele>143</ele>
      </trkpt>
      <trkpt lat="43.60782" lon="1.44084">
        <ele>143</ele>
      </trkpt>
      <trkpt lat="43.60777" lon="1.44083">
        <ele>143</ele>
      </trkpt>
      <trkpt lat="43.60777" lon="1.44082">
        <ele>143</ele>
      </trkpt>
      <trkpt lat="43.60773" lon="1.44076">
        <ele>143</ele>
      </trkpt>
      <trkpt lat="43.60764" lon="1.44054">
        <ele>142.9</ele>
      </trkpt>
      <trkpt lat="43.60761" lon="1.44042">
        <ele>142.5</ele>
      </trkpt>
      <trkpt lat="43.60754" lon="1.44006">
        <ele>142</ele>
      </trkpt>
      <trkpt lat="43.6075" lon="1.43996">
        <ele>142</ele>
      </trkpt>
      <trkpt lat="43.60765" lon="1.43988">
        <ele>142</ele>
      </trkpt>
      <trkpt lat="43.60815" lon="1.43972">
        <ele>141.3</ele>
      </trkpt>
      <trkpt lat="43.60821" lon="1.43969">
        <ele>141.5</ele>
      </trkpt>
      <trkpt lat="43.6089" lon="1.43928">
        <ele>141</ele>
      </trkpt>
      <trkpt lat="43.60914" lon="1.43915">
        <ele>141</ele>
      </trkpt>
      <trkpt lat="43.60915" lon="1.43915">
        <ele>141</ele>
      </trkpt>
      <trkpt lat="43.60932" lon="1.43887">
        <ele>141</ele>
      </trkpt>
      <trkpt lat="43.60931" lon="1.43883">
        <ele>141</ele>
      </trkpt>
      <trkpt lat="43.60915" lon="1.43858">
        <ele>141</ele>
      </trkpt>
      <trkpt lat="43.60904" lon="1.43839">
        <ele>141</ele>
        <extensions>
          <visugpx:TrkExtension xmlns:visugpx="https://www.visugpx.com/editgpx/">
            <visugpx:node>1</visugpx:node>
            </visugpx:TrkExtension>
        </extensions>
      </trkpt>
    </trkseg>
  </trk>
</gpx>